Darstellungsparameter: Aktuell verwendete Einstellungen:
Skalierung der Graphiken ... ?
xyx+y,   Skalierungsfaktor:      Skalierung: Modus: x, Faktor: 1
Darstellungszeitraum ... ?
Vom - - bis: - -   Zeitraum: 12.07.2015 - 11.08.2015
Min/Max/Avg-Anzeige ... ?
Zeige MMA aktuell
Zeige MMA Monat
Zeige MMA alles
Zeige --A aktuell
Zeige --A Monat
Zeige --A alles
Keine MMA-Anzeige
MMA:
Keine MMA-Graphiken
MMA-Basis: 12.07.2015 - 11.08.2015
Quicknavigation für Darstellung... ?
Tage:      1T, 2T, 3T, 5T -1T -2T -3T -5T +1T +2T +3T +5T
Wochen: 1W, 2W, 3W -1W -2W -3W +1W +2W +3W
Monate: 1M, 3M, 6M -1M -3M -6M +1M +3M +6M
Jahre:    1J, 3J, 5J, 10J -1J -3J -5J -10J +1J +3J +5J +10J
Nutze für die Darstellung ... ?
Originaldaten oder Mittelwerte auf ...
Stundenbasis Tagesbasis Wochenbasis
Monatsbasis Jahresbasis      Datenbasis: Original-Daten
Darstellen als:
Statistik (Auto) Statistik J:M      Darstellung:
Zur Graphik,    zurück zur Übersicht aller Sensoren.
 
Tabellarische Datenbersicht: ?
 
Sensor: Nr:Datum:Temp:Feuchte:Taupunkt:
Aussen-T/F 1 12-07-2015 00:00:00 22.1 C 55 % 12.64 C
2 12-07-2015 00:05:00 21.9 C 56 % 12.73 C
3 12-07-2015 00:10:00 21.9 C 56 % 12.73 C
4 12-07-2015 00:15:00 21.9 C 56 % 12.73 C
5 12-07-2015 02:20:00 18.2 C 69 % 12.42 C
6 12-07-2015 02:25:00 18.2 C 69 % 12.42 C
7 12-07-2015 02:30:00 18.2 C 69 % 12.42 C
8 12-07-2015 02:35:00 18.2 C 69 % 12.42 C
9 12-07-2015 02:40:00 18.3 C 69 % 12.52 C
10 12-07-2015 02:45:00 18.3 C 69 % 12.52 C
11 12-07-2015 02:50:00 18.2 C 69 % 12.42 C
12 12-07-2015 02:55:00 17.9 C 69 % 12.14 C
13 12-07-2015 03:00:00 17.7 C 71 % 12.38 C
14 12-07-2015 03:05:00 17.6 C 72 % 12.5 C
15 12-07-2015 03:10:00 17.5 C 72 % 12.4 C
16 12-07-2015 03:15:00 17.3 C 73 % 12.42 C
17 12-07-2015 03:20:00 17.1 C 74 % 12.43 C
18 12-07-2015 03:25:00 16.9 C 74 % 12.24 C
19 12-07-2015 03:30:00 16.8 C 75 % 12.35 C
20 12-07-2015 03:35:00 16.6 C 75 % 12.15 C
21 12-07-2015 03:40:00 16.5 C 75 % 12.06 C
22 12-07-2015 03:45:00 16.3 C 76 % 12.07 C
23 12-07-2015 03:50:00 16.2 C 76 % 11.97 C
24 12-07-2015 03:55:00 16.1 C 78 % 12.27 C
25 12-07-2015 04:00:00 16 C 77 % 11.97 C
Sensor: Nr:Datum:Temp:Feuchte:Taupunkt:
Aussen-T/F 26 12-07-2015 04:05:00 15.9 C 77 % 11.88 C
27 12-07-2015 04:10:00 15.7 C 77 % 11.68 C
28 12-07-2015 04:15:00 15.6 C 78 % 11.78 C
29 12-07-2015 04:20:00 15.5 C 78 % 11.68 C
30 12-07-2015 04:25:00 15.4 C 79 % 11.78 C
31 12-07-2015 04:30:00 15.4 C 80 % 11.97 C
32 12-07-2015 04:35:00 15.3 C 80 % 11.87 C
33 12-07-2015 04:40:00 15.2 C 80 % 11.78 C
34 12-07-2015 04:45:00 15.1 C 81 % 11.87 C
35 12-07-2015 04:50:00 15 C 81 % 11.77 C
36 12-07-2015 04:55:00 14.9 C 82 % 11.86 C
37 12-07-2015 05:00:00 14.9 C 82 % 11.86 C
38 12-07-2015 05:05:00 14.9 C 82 % 11.86 C
39 12-07-2015 05:10:00 14.9 C 82 % 11.86 C
40 12-07-2015 05:15:00 14.9 C 82 % 11.86 C
41 12-07-2015 05:20:00 14.8 C 82 % 11.76 C
42 12-07-2015 05:25:00 14.8 C 82 % 11.76 C
43 12-07-2015 05:30:00 14.7 C 82 % 11.66 C
44 12-07-2015 05:35:00 14.6 C 83 % 11.75 C
45 12-07-2015 05:40:00 14.5 C 83 % 11.65 C
46 12-07-2015 05:45:00 14.6 C 83 % 11.75 C
47 12-07-2015 05:50:00 14.7 C 83 % 11.85 C
48 12-07-2015 05:55:00 14.6 C 83 % 11.75 C
49 12-07-2015 06:00:00 14.6 C 83 % 11.75 C
50 12-07-2015 06:05:00 14.5 C 83 % 11.65 C
Sensor: Nr:Datum:Temp:Feuchte:Taupunkt:
Aussen-T/F 51 12-07-2015 06:10:00 14.4 C 84 % 11.73 C
52 12-07-2015 06:15:00 14.4 C 84 % 11.73 C
53 12-07-2015 06:20:00 14.5 C 84 % 11.83 C
54 12-07-2015 06:25:00 14.5 C 84 % 11.83 C
55 12-07-2015 06:30:00 14.5 C 84 % 11.83 C
56 12-07-2015 06:35:00 14.5 C 84 % 11.83 C
57 12-07-2015 06:40:00 14.5 C 84 % 11.83 C
58 12-07-2015 06:45:00 14.5 C 84 % 11.83 C
59 12-07-2015 06:50:00 14.5 C 85 % 12.01 C
60 12-07-2015 06:55:00 14.4 C 85 % 11.91 C
61 12-07-2015 07:00:00 14.5 C 85 % 12.01 C
62 12-07-2015 07:05:00 14.6 C 85 % 12.11 C
63 12-07-2015 07:10:00 14.7 C 85 % 12.21 C
64 12-07-2015 07:15:00 14.8 C 85 % 12.3 C
65 12-07-2015 07:20:00 14.8 C 85 % 12.3 C
66 12-07-2015 07:25:00 14.9 C 85 % 12.4 C
67 12-07-2015 07:30:00 14.9 C 85 % 12.4 C
68 12-07-2015 07:35:00 14.9 C 85 % 12.4 C
69 12-07-2015 07:40:00 15.1 C 86 % 12.78 C
70 12-07-2015 07:45:00 15.2 C 85 % 12.7 C
71 12-07-2015 07:50:00 15.5 C 85 % 12.99 C
72 12-07-2015 07:55:00 15.8 C 83 % 12.92 C
73 12-07-2015 08:00:00 16.1 C 82 % 13.03 C
74 12-07-2015 08:05:00 16.4 C 81 % 13.13 C
75 12-07-2015 08:10:00 16.6 C 80 % 13.14 C
Sensor: Nr:Datum:Temp:Feuchte:Taupunkt:
Aussen-T/F 76 12-07-2015 08:15:00 16.7 C 80 % 13.23 C
77 12-07-2015 08:20:00 16.8 C 80 % 13.33 C
78 12-07-2015 08:25:00 17.1 C 79 % 13.43 C
79 12-07-2015 08:30:00 17.3 C 79 % 13.63 C
80 12-07-2015 08:35:00 17.6 C 78 % 13.72 C
81 12-07-2015 08:40:00 17.9 C 78 % 14.01 C
82 12-07-2015 08:45:00 18.3 C 76 % 14 C
83 12-07-2015 08:50:00 18.6 C 73 % 13.67 C
84 12-07-2015 08:55:00 18.7 C 72 % 13.55 C
85 12-07-2015 09:00:00 18.9 C 72 % 13.74 C
86 12-07-2015 09:05:00 19.1 C 71 % 13.72 C
87 12-07-2015 09:10:00 19.3 C 70 % 13.69 C
88 12-07-2015 09:15:00 19.4 C 68 % 13.34 C
89 12-07-2015 09:20:00 19.4 C 68 % 13.34 C
90 12-07-2015 09:25:00 19.5 C 67 % 13.21 C
91 12-07-2015 09:30:00 19.6 C 65 % 12.84 C
92 12-07-2015 09:35:00 19.6 C 66 % 13.08 C
93 12-07-2015 09:40:00 19.7 C 65 % 12.94 C
94 12-07-2015 09:45:00 19.8 C 63 % 12.56 C
95 12-07-2015 09:50:00 19.8 C 63 % 12.56 C
96 12-07-2015 09:55:00 20 C 62 % 12.5 C
97 12-07-2015 10:00:00 20.1 C 62 % 12.6 C
98 12-07-2015 10:05:00 20.3 C 59 % 12.03 C
99 12-07-2015 10:10:00 20.7 C 58 % 12.15 C
100 12-07-2015 10:15:00 21.1 C 56 % 11.99 C
Sensor: Nr:Datum:Temp:Feuchte:Taupunkt:
Aussen-T/F 101 12-07-2015 10:20:00 21.3 C 55 % 11.9 C
102 12-07-2015 10:25:00 21.6 C 54 % 11.9 C
103 12-07-2015 10:30:00 21.6 C 51 % 11.04 C
104 12-07-2015 10:35:00 21.7 C 51 % 11.13 C
105 12-07-2015 10:40:00 21.8 C 47 % 9.99 C
106 12-07-2015 10:45:00 22.1 C 45 % 9.62 C
107 12-07-2015 10:50:00 22.4 C 44 % 9.56 C
108 12-07-2015 10:55:00 22.4 C 43 % 9.22 C
109 12-07-2015 11:00:00 22.9 C 43 % 9.67 C
110 12-07-2015 11:05:00 22.9 C 43 % 9.67 C
111 12-07-2015 11:10:00 23.2 C 44 % 10.28 C
112 12-07-2015 11:15:00 23.3 C 44 % 10.37 C
113 12-07-2015 11:20:00 23.4 C 44 % 10.46 C
114 12-07-2015 11:25:00 23.7 C 44 % 10.73 C
115 12-07-2015 11:30:00 23.8 C 44 % 10.82 C
116 12-07-2015 11:35:00 23.8 C 47 % 11.82 C
117 12-07-2015 11:40:00 23.8 C 45 % 11.16 C
118 12-07-2015 11:45:00 23.8 C 45 % 11.16 C
119 12-07-2015 11:50:00 23.9 C 46 % 11.58 C
120 12-07-2015 11:55:00 24.1 C 46 % 11.76 C
121 12-07-2015 12:00:00 23.9 C 46 % 11.58 C
122 12-07-2015 12:05:00 23.7 C 47 % 11.73 C
123 12-07-2015 12:10:00 23.7 C 48 % 12.04 C
124 12-07-2015 12:15:00 23.8 C 47 % 11.82 C
125 12-07-2015 12:20:00 23.8 C 48 % 12.14 C
Sensor: Nr:Datum:Temp:Feuchte:Taupunkt:
Aussen-T/F 126 12-07-2015 12:25:00 23.9 C 47 % 11.91 C
127 12-07-2015 12:30:00 23.9 C 48 % 12.23 C
128 12-07-2015 12:35:00 24.1 C 48 % 12.41 C
129 12-07-2015 12:40:00 24.2 C 47 % 12.18 C
130 12-07-2015 12:45:00 24.3 C 47 % 12.27 C
131 12-07-2015 12:50:00 24.3 C 48 % 12.59 C
132 12-07-2015 12:55:00 24.4 C 47 % 12.36 C
133 12-07-2015 13:00:00 24.6 C 47 % 12.54 C
134 12-07-2015 13:05:00 24.8 C 49 % 13.36 C
135 12-07-2015 13:10:00 25.1 C 45 % 12.34 C
136 12-07-2015 13:15:00 25.1 C 46 % 12.67 C
137 12-07-2015 13:20:00 25 C 48 % 13.23 C
138 12-07-2015 13:25:00 25.1 C 46 % 12.67 C
139 12-07-2015 13:30:00 24.9 C 46 % 12.49 C
140 12-07-2015 13:35:00 24.7 C 47 % 12.64 C
141 12-07-2015 13:40:00 24.8 C 47 % 12.73 C
142 12-07-2015 13:45:00 24.9 C 47 % 12.82 C
143 12-07-2015 13:50:00 24.9 C 48 % 13.14 C
144 12-07-2015 13:55:00 25 C 48 % 13.23 C
145 12-07-2015 14:00:00 24.9 C 51 % 14.07 C
146 12-07-2015 14:05:00 24.9 C 49 % 13.46 C
147 12-07-2015 14:10:00 24.8 C 49 % 13.36 C
148 12-07-2015 14:15:00 24.6 C 49 % 13.18 C
149 12-07-2015 14:20:00 24.6 C 50 % 13.49 C
150 12-07-2015 14:25:00 24.6 C 51 % 13.79 C
Sensor: Nr:Datum:Temp:Feuchte:Taupunkt:
Aussen-T/F 151 12-07-2015 14:30:00 24.4 C 51 % 13.61 C
152 12-07-2015 14:35:00 24.3 C 51 % 13.52 C
153 12-07-2015 14:40:00 24.2 C 54 % 14.31 C
154 12-07-2015 14:45:00 24.1 C 52 % 13.63 C
155 12-07-2015 14:50:00 23.9 C 54 % 14.03 C
156 12-07-2015 14:55:00 23.8 C 55 % 14.22 C
157 12-07-2015 15:00:00 23.8 C 55 % 14.22 C
158 12-07-2015 15:05:00 23.7 C 56 % 14.4 C
159 12-07-2015 15:10:00 23.5 C 56 % 14.22 C
160 12-07-2015 15:15:00 23.4 C 57 % 14.4 C
161 12-07-2015 15:20:00 23.3 C 58 % 14.58 C
162 12-07-2015 15:25:00 23.1 C 59 % 14.65 C
163 12-07-2015 15:30:00 22.8 C 60 % 14.63 C
164 12-07-2015 15:35:00 22.6 C 60 % 14.44 C
165 12-07-2015 15:40:00 22.3 C 62 % 14.67 C
166 12-07-2015 15:45:00 21.9 C 64 % 14.78 C
167 12-07-2015 15:50:00 21.3 C 66 % 14.69 C
168 12-07-2015 15:55:00 21.1 C 68 % 14.97 C
169 12-07-2015 16:00:00 20.8 C 69 % 14.91 C
170 12-07-2015 16:05:00 20.5 C 70 % 14.84 C
171 12-07-2015 16:10:00 20.3 C 71 % 14.87 C
172 12-07-2015 16:15:00 20.3 C 72 % 15.09 C
173 12-07-2015 16:20:00 20.1 C 72 % 14.9 C
174 12-07-2015 16:25:00 20.1 C 72 % 14.9 C
175 12-07-2015 16:30:00 20 C 72 % 14.8 C
Sensor: Nr:Datum:Temp:Feuchte:Taupunkt:
Aussen-T/F 176 12-07-2015 16:35:00 19.9 C 73 % 14.92 C
177 12-07-2015 16:40:00 19.9 C 73 % 14.92 C
178 12-07-2015 16:45:00 19.9 C 75 % 15.34 C
179 12-07-2015 16:50:00 19.8 C 76 % 15.45 C
180 12-07-2015 16:55:00 19.6 C 76 % 15.26 C
181 12-07-2015 17:00:00 19.4 C 76 % 15.06 C
182 12-07-2015 17:05:00 19.4 C 77 % 15.27 C
183 12-07-2015 17:10:00 19.4 C 78 % 15.47 C
184 12-07-2015 17:15:00 19.4 C 77 % 15.27 C
185 12-07-2015 17:20:00 19.3 C 78 % 15.37 C
186 12-07-2015 17:25:00 19.3 C 78 % 15.37 C
187 12-07-2015 17:30:00 19.2 C 78 % 15.27 C
188 12-07-2015 17:35:00 19.2 C 79 % 15.47 C
189 12-07-2015 17:40:00 19.1 C 79 % 15.37 C
190 12-07-2015 17:45:00 19.1 C 79 % 15.37 C
191 12-07-2015 17:50:00 18.9 C 80 % 15.38 C
192 12-07-2015 17:55:00 18.9 C 83 % 15.95 C
193 12-07-2015 18:00:00 18.8 C 81 % 15.47 C
194 12-07-2015 18:05:00 18.8 C 85 % 16.23 C
195 12-07-2015 18:10:00 18.7 C 86 % 16.31 C
196 12-07-2015 18:15:00 18.6 C 86 % 16.21 C
197 12-07-2015 18:20:00 18.4 C 86 % 16.02 C
198 12-07-2015 18:25:00 18.4 C 87 % 16.2 C
199 12-07-2015 18:30:00 18.3 C 88 % 16.28 C
200 12-07-2015 18:35:00 18.2 C 88 % 16.18 C
Sensor: Nr:Datum:Temp:Feuchte:Taupunkt:
Aussen-T/F 201 12-07-2015 18:40:00 18.2 C 89 % 16.36 C
202 12-07-2015 18:45:00 18.1 C 89 % 16.26 C
203 12-07-2015 18:50:00 18 C 88 % 15.98 C
204 12-07-2015 18:55:00 18 C 88 % 15.98 C
205 12-07-2015 19:00:00 18.1 C 89 % 16.26 C
206 12-07-2015 19:05:00 18.1 C 89 % 16.26 C
207 12-07-2015 19:10:00 18.1 C 89 % 16.26 C
208 12-07-2015 19:15:00 18.1 C 89 % 16.26 C
209 12-07-2015 19:20:00 18.1 C 86 % 15.72 C
210 12-07-2015 19:25:00 18.1 C 85 % 15.54 C
211 12-07-2015 19:30:00 17.9 C 84 % 15.16 C
212 12-07-2015 19:35:00 17.9 C 87 % 15.71 C
213 12-07-2015 19:40:00 17.7 C 86 % 15.33 C
214 12-07-2015 19:45:00 17.3 C 85 % 14.76 C
215 12-07-2015 19:50:00 17.2 C 87 % 15.02 C
216 12-07-2015 19:55:00 17 C 87 % 14.82 C
217 12-07-2015 20:00:00 17 C 87 % 14.82 C
218 12-07-2015 20:05:00 16.6 C 88 % 14.6 C
219 12-07-2015 20:10:00 16.4 C 88 % 14.41 C
220 12-07-2015 20:15:00 16.3 C 89 % 14.48 C
221 12-07-2015 20:20:00 16.2 C 88 % 14.21 C
222 12-07-2015 20:25:00 16.3 C 88 % 14.31 C
223 12-07-2015 20:30:00 16.2 C 88 % 14.21 C
224 12-07-2015 20:35:00 16.2 C 88 % 14.21 C
225 12-07-2015 20:40:00 16.3 C 88 % 14.31 C
Sensor: Nr:Datum:Temp:Feuchte:Taupunkt:
Aussen-T/F 226 12-07-2015 20:45:00 16.2 C 88 % 14.21 C
227 12-07-2015 20:50:00 16.2 C 88 % 14.21 C
228 12-07-2015 20:55:00 16.2 C 88 % 14.21 C
229 12-07-2015 21:50:00 15.3 C 100 % 15.3 C
230 12-07-2015 21:55:00 15.2 C 93 % 14.08 C
231 12-07-2015 22:00:00 15.2 C 93 % 14.08 C
232 12-07-2015 22:05:00 15.2 C 93 % 14.08 C
233 12-07-2015 22:10:00 15.2 C 93 % 14.08 C
234 12-07-2015 22:15:00 15.3 C 93 % 14.18 C
235 12-07-2015 22:20:00 15.3 C 93 % 14.18 C
236 12-07-2015 22:25:00 15.3 C 93 % 14.18 C
237 12-07-2015 22:30:00 15.3 C 93 % 14.18 C
238 12-07-2015 22:35:00 15.3 C 93 % 14.18 C
239 12-07-2015 22:40:00 15.3 C 93 % 14.18 C
240 12-07-2015 22:45:00 15.3 C 93 % 14.18 C
241 12-07-2015 22:50:00 15.3 C 93 % 14.18 C
242 12-07-2015 22:55:00 15.3 C 93 % 14.18 C
243 13-07-2015 05:50:00 14.7 C 91 % 13.25 C
244 13-07-2015 05:55:00 14.7 C 91 % 13.25 C
245 13-07-2015 06:00:00 14.7 C 91 % 13.25 C
246 13-07-2015 06:05:00 14.7 C 91 % 13.25 C
247 13-07-2015 06:10:00 14.8 C 91 % 13.35 C
248 13-07-2015 06:15:00 14.8 C 91 % 13.35 C
249 13-07-2015 06:20:00 14.8 C 91 % 13.35 C
250 13-07-2015 06:25:00 14.8 C 91 % 13.35 C
Sensor: Nr:Datum:Temp:Feuchte:Taupunkt:
Aussen-T/F 251 13-07-2015 06:30:00 14.8 C 91 % 13.35 C
252 13-07-2015 06:35:00 14.9 C 100 % 14.9 C
253 13-07-2015 06:40:00 15 C 100 % 15 C
254 13-07-2015 06:45:00 15.1 C 100 % 15.1 C
255 13-07-2015 06:50:00 15.1 C 90 % 13.47 C
256 13-07-2015 06:55:00 15.2 C 90 % 13.57 C
257 13-07-2015 07:00:00 15.2 C 90 % 13.57 C
258 13-07-2015 07:05:00 15.2 C 90 % 13.57 C
259 13-07-2015 07:10:00 15.2 C 90 % 13.57 C
260 13-07-2015 07:15:00 15.2 C 90 % 13.57 C
261 13-07-2015 07:20:00 15.2 C 90 % 13.57 C
262 13-07-2015 07:25:00 15.3 C 90 % 13.67 C
263 13-07-2015 07:30:00 15.5 C 90 % 13.87 C
264 13-07-2015 07:35:00 15.7 C 89 % 13.89 C
265 13-07-2015 07:40:00 15.8 C 87 % 13.64 C
266 13-07-2015 07:45:00 16.1 C 88 % 14.11 C
267 13-07-2015 07:50:00 16.2 C 86 % 13.86 C
268 13-07-2015 07:55:00 16.4 C 86 % 14.05 C
269 13-07-2015 08:00:00 16.5 C 85 % 13.97 C
270 13-07-2015 08:05:00 16.5 C 84 % 13.79 C
271 13-07-2015 08:10:00 16.6 C 84 % 13.89 C
272 13-07-2015 08:15:00 16.8 C 84 % 14.08 C
273 13-07-2015 08:20:00 17 C 83 % 14.09 C
274 13-07-2015 08:25:00 17.2 C 83 % 14.29 C
275 13-07-2015 08:30:00 17.2 C 83 % 14.29 C
Sensor: Nr:Datum:Temp:Feuchte:Taupunkt:
Aussen-T/F 276 13-07-2015 08:35:00 17.2 C 82 % 14.1 C
277 13-07-2015 08:40:00 17.1 C 83 % 14.19 C
278 13-07-2015 08:45:00 16.9 C 85 % 14.36 C
279 13-07-2015 08:50:00 16.7 C 86 % 14.35 C
280 13-07-2015 08:55:00 16.3 C 87 % 14.13 C
281 13-07-2015 09:00:00 16.2 C 87 % 14.03 C
282 13-07-2015 09:05:00 16.1 C 88 % 14.11 C
283 13-07-2015 09:10:00 16.1 C 88 % 14.11 C
284 13-07-2015 09:15:00 16.2 C 88 % 14.21 C
285 13-07-2015 09:20:00 16.2 C 87 % 14.03 C
286 13-07-2015 09:25:00 16.2 C 87 % 14.03 C
287 13-07-2015 09:30:00 16.3 C 87 % 14.13 C
288 13-07-2015 09:35:00 16.4 C 87 % 14.23 C
289 13-07-2015 09:40:00 16.5 C 87 % 14.33 C
290 13-07-2015 09:45:00 16.6 C 87 % 14.43 C
291 13-07-2015 09:50:00 16.6 C 87 % 14.43 C
292 13-07-2015 09:55:00 16.7 C 87 % 14.53 C
293 13-07-2015 10:00:00 16.9 C 87 % 14.72 C
294 13-07-2015 10:05:00 17.1 C 87 % 14.92 C
295 13-07-2015 10:10:00 17.1 C 87 % 14.92 C
296 13-07-2015 10:15:00 17.1 C 87 % 14.92 C
297 13-07-2015 10:20:00 17.2 C 87 % 15.02 C
298 13-07-2015 10:25:00 17.2 C 85 % 14.66 C
299 13-07-2015 10:30:00 17.2 C 85 % 14.66 C
300 13-07-2015 10:35:00 17.3 C 85 % 14.76 C
Sensor: Nr:Datum:Temp:Feuchte:Taupunkt:
Aussen-T/F 301 13-07-2015 10:40:00 17.3 C 84 % 14.57 C
302 13-07-2015 10:45:00 17.5 C 84 % 14.77 C
303 13-07-2015 10:50:00 17.7 C 82 % 14.59 C
304 13-07-2015 10:55:00 17.8 C 82 % 14.69 C
305 13-07-2015 11:00:00 17.9 C 82 % 14.78 C
306 13-07-2015 11:05:00 17.9 C 82 % 14.78 C
307 13-07-2015 11:10:00 17.9 C 81 % 14.59 C
308 13-07-2015 11:15:00 17.9 C 81 % 14.59 C
309 13-07-2015 11:20:00 17.9 C 81 % 14.59 C
310 13-07-2015 11:25:00 18.1 C 81 % 14.79 C
311 13-07-2015 11:30:00 18.1 C 80 % 14.6 C
312 13-07-2015 11:35:00 18.2 C 80 % 14.69 C
313 13-07-2015 11:40:00 18.2 C 80 % 14.69 C
314 13-07-2015 11:45:00 18.2 C 80 % 14.69 C
315 13-07-2015 11:50:00 18.2 C 80 % 14.69 C
316 13-07-2015 11:55:00 18.2 C 81 % 14.89 C
317 13-07-2015 12:00:00 18.3 C 80 % 14.79 C
318 13-07-2015 12:05:00 18.4 C 80 % 14.89 C
319 13-07-2015 12:10:00 18.6 C 80 % 15.08 C
320 13-07-2015 12:15:00 18.9 C 79 % 15.18 C
321 13-07-2015 12:20:00 19 C 79 % 15.28 C
322 13-07-2015 12:25:00 19.2 C 79 % 15.47 C
323 13-07-2015 12:30:00 19.3 C 78 % 15.37 C
324 13-07-2015 12:35:00 19.6 C 78 % 15.66 C
325 13-07-2015 12:40:00 19.6 C 77 % 15.46 C
Sensor: Nr:Datum:Temp:Feuchte:Taupunkt:
Aussen-T/F 326 13-07-2015 12:45:00 19.5 C 77 % 15.36 C
327 13-07-2015 12:50:00 19.3 C 77 % 15.17 C
328 13-07-2015 12:55:00 19.3 C 78 % 15.37 C
329 13-07-2015 13:00:00 19.3 C 79 % 15.57 C
330 13-07-2015 13:05:00 19.2 C 78 % 15.27 C
331 13-07-2015 13:10:00 19.2 C 79 % 15.47 C
332 13-07-2015 13:15:00 19.1 C 79 % 15.37 C
333 13-07-2015 13:20:00 18.9 C 81 % 15.57 C
334 13-07-2015 13:25:00 18.7 C 83 % 15.75 C
335 13-07-2015 13:30:00 18.4 C 85 % 15.83 C
336 13-07-2015 13:35:00 18.3 C 85 % 15.74 C
337 13-07-2015 13:40:00 18.2 C 85 % 15.64 C
338 13-07-2015 13:45:00 18.2 C 86 % 15.82 C
339 13-07-2015 13:50:00 18.1 C 86 % 15.72 C
340 13-07-2015 13:55:00 18.1 C 87 % 15.9 C
341 13-07-2015 14:00:00 18.2 C 87 % 16 C
342 13-07-2015 14:05:00 18.3 C 87 % 16.1 C
343 13-07-2015 14:10:00 18.4 C 87 % 16.2 C
344 13-07-2015 14:15:00 18.6 C 87 % 16.39 C
345 13-07-2015 14:20:00 18.7 C 87 % 16.49 C
346 13-07-2015 14:25:00 18.8 C 86 % 16.41 C
347 13-07-2015 14:30:00 18.8 C 85 % 16.23 C
348 13-07-2015 14:35:00 18.7 C 85 % 16.13 C
349 13-07-2015 14:40:00 18.6 C 85 % 16.03 C
350 13-07-2015 14:45:00 18.7 C 85 % 16.13 C
Sensor: Nr:Datum:Temp:Feuchte:Taupunkt:
Aussen-T/F 351 13-07-2015 14:50:00 18.8 C 86 % 16.41 C
352 13-07-2015 14:55:00 18.9 C 84 % 16.14 C
353 13-07-2015 15:00:00 18.9 C 85 % 16.32 C
354 13-07-2015 15:05:00 19.1 C 84 % 16.33 C
355 13-07-2015 15:10:00 19.1 C 83 % 16.15 C
356 13-07-2015 15:15:00 19.1 C 83 % 16.15 C
357 13-07-2015 15:20:00 19 C 83 % 16.05 C
358 13-07-2015 15:25:00 18.9 C 83 % 15.95 C
359 13-07-2015 15:30:00 18.9 C 83 % 15.95 C
360 13-07-2015 15:35:00 18.8 C 84 % 16.04 C
361 13-07-2015 15:40:00 18.9 C 83 % 15.95 C
362 13-07-2015 15:45:00 18.9 C 83 % 15.95 C
363 13-07-2015 15:50:00 18.9 C 83 % 15.95 C
364 13-07-2015 15:55:00 19 C 84 % 16.24 C
365 13-07-2015 16:00:00 19.1 C 83 % 16.15 C
366 13-07-2015 16:05:00 19.1 C 82 % 15.96 C
367 13-07-2015 16:10:00 19.1 C 83 % 16.15 C
368 13-07-2015 16:15:00 19.1 C 83 % 16.15 C
369 13-07-2015 16:20:00 19.1 C 83 % 16.15 C
370 13-07-2015 16:25:00 19.1 C 83 % 16.15 C
371 13-07-2015 16:30:00 19.1 C 83 % 16.15 C
372 13-07-2015 16:35:00 19.1 C 84 % 16.33 C
373 13-07-2015 16:40:00 19.2 C 84 % 16.43 C
374 13-07-2015 16:45:00 19.4 C 83 % 16.44 C
375 13-07-2015 16:50:00 19.6 C 81 % 16.25 C
Sensor: Nr:Datum:Temp:Feuchte:Taupunkt:
Aussen-T/F 376 13-07-2015 16:55:00 19.6 C 81 % 16.25 C
377 13-07-2015 17:00:00 19.6 C 81 % 16.25 C
378 13-07-2015 17:05:00 19.6 C 79 % 15.86 C
379 13-07-2015 17:10:00 20 C 79 % 16.25 C
380 13-07-2015 17:15:00 19.9 C 81 % 16.54 C
381 13-07-2015 17:20:00 19.8 C 81 % 16.45 C
382 13-07-2015 17:25:00 19.8 C 79 % 16.05 C
383 13-07-2015 17:30:00 19.8 C 81 % 16.45 C
384 13-07-2015 17:35:00 19.7 C 81 % 16.35 C
385 13-07-2015 17:40:00 19.7 C 81 % 16.35 C
386 13-07-2015 17:45:00 19.7 C 81 % 16.35 C
387 13-07-2015 17:50:00 19.9 C 81 % 16.54 C
388 13-07-2015 17:55:00 20.1 C 79 % 16.34 C
389 13-07-2015 18:00:00 20.2 C 77 % 16.04 C
390 13-07-2015 18:05:00 20.4 C 77 % 16.23 C
391 13-07-2015 18:10:00 20.4 C 75 % 15.82 C
392 13-07-2015 18:15:00 20.4 C 75 % 15.82 C
393 13-07-2015 18:20:00 20.5 C 75 % 15.92 C
394 13-07-2015 18:25:00 20.5 C 75 % 15.92 C
395 13-07-2015 18:30:00 20.4 C 76 % 16.03 C
396 13-07-2015 18:35:00 20.3 C 76 % 15.93 C
397 13-07-2015 18:40:00 20.3 C 76 % 15.93 C
398 13-07-2015 18:45:00 20.3 C 76 % 15.93 C
399 13-07-2015 20:10:00 18.7 C 100 % 18.7 C
400 13-07-2015 20:15:00 18.6 C 88 % 16.57 C
Sensor: Nr:Datum:Temp:Feuchte:Taupunkt:
Aussen-T/F 401 13-07-2015 20:20:00 18.6 C 88 % 16.57 C
402 13-07-2015 21:35:00 18.1 C 90 % 16.43 C
403 13-07-2015 21:40:00 18.2 C 90 % 16.53 C
404 13-07-2015 21:45:00 18.2 C 90 % 16.53 C
405 13-07-2015 21:50:00 18.2 C 90 % 16.53 C
406 13-07-2015 21:55:00 18.2 C 90 % 16.53 C
407 13-07-2015 22:00:00 18.2 C 90 % 16.53 C
408 13-07-2015 22:05:00 18.2 C 90 % 16.53 C
409 13-07-2015 22:10:00 18.2 C 90 % 16.53 C
410 13-07-2015 22:15:00 18.2 C 90 % 16.53 C
411 13-07-2015 22:20:00 18.2 C 90 % 16.53 C
412 13-07-2015 22:25:00 18.2 C 90 % 16.53 C
413 13-07-2015 22:30:00 18.2 C 90 % 16.53 C
414 13-07-2015 22:35:00 18.2 C 90 % 16.53 C
415 13-07-2015 22:40:00 18.1 C 90 % 16.43 C
416 13-07-2015 22:45:00 18.1 C 90 % 16.43 C
417 13-07-2015 22:50:00 18.1 C 90 % 16.43 C
418 13-07-2015 22:55:00 18 C 90 % 16.34 C
419 13-07-2015 23:00:00 17.9 C 91 % 16.41 C
420 13-07-2015 23:05:00 17.9 C 91 % 16.41 C
421 13-07-2015 23:10:00 17.8 C 91 % 16.31 C
422 13-07-2015 23:15:00 17.8 C 91 % 16.31 C
423 13-07-2015 23:20:00 17.8 C 91 % 16.31 C
424 13-07-2015 23:25:00 17.8 C 91 % 16.31 C
425 13-07-2015 23:30:00 17.8 C 91 % 16.31 C
Sensor: Nr:Datum:Temp:Feuchte:Taupunkt:
Aussen-T/F 426 13-07-2015 23:35:00 17.8 C 91 % 16.31 C
427 13-07-2015 23:40:00 17.8 C 91 % 16.31 C
428 13-07-2015 23:45:00 18.1 C 91 % 16.61 C
429 13-07-2015 23:50:00 18.1 C 91 % 16.61 C
430 13-07-2015 23:55:00 18.1 C 91 % 16.61 C
431 14-07-2015 00:00:00 18.1 C 91 % 16.61 C
432 14-07-2015 02:40:00 18.4 C 88 % 16.38 C
433 14-07-2015 02:45:00 18.4 C 87 % 16.2 C
434 14-07-2015 02:50:00 18.4 C 87 % 16.2 C
435 14-07-2015 02:55:00 18.6 C 87 % 16.39 C
436 14-07-2015 03:00:00 18.6 C 87 % 16.39 C
437 14-07-2015 03:35:00 18.4 C 87 % 16.2 C
438 14-07-2015 03:40:00 18.5 C 85 % 15.93 C
439 14-07-2015 03:45:00 18.6 C 85 % 16.03 C
440 14-07-2015 03:50:00 18.6 C 84 % 15.84 C
441 14-07-2015 03:55:00 18.7 C 84 % 15.94 C
442 14-07-2015 04:00:00 18.7 C 84 % 15.94 C
443 14-07-2015 04:05:00 18.6 C 85 % 16.03 C
444 14-07-2015 04:10:00 18.6 C 85 % 16.03 C
445 14-07-2015 04:15:00 18.6 C 84 % 15.84 C
446 14-07-2015 04:20:00 18.6 C 83 % 15.66 C
447 14-07-2015 04:25:00 18.6 C 83 % 15.66 C
448 14-07-2015 04:30:00 18.7 C 82 % 15.57 C
449 14-07-2015 04:35:00 18.7 C 82 % 15.57 C
450 14-07-2015 04:40:00 18.7 C 82 % 15.57 C
Sensor: Nr:Datum:Temp:Feuchte:Taupunkt:
Aussen-T/F 451 14-07-2015 04:45:00 18.7 C 82 % 15.57 C
452 14-07-2015 04:50:00 18.7 C 82 % 15.57 C
453 14-07-2015 04:55:00 18.7 C 82 % 15.57 C
454 14-07-2015 05:00:00 18.7 C 82 % 15.57 C
455 14-07-2015 05:05:00 18.7 C 82 % 15.57 C
456 14-07-2015 05:10:00 18.7 C 82 % 15.57 C
457 14-07-2015 05:15:00 18.7 C 82 % 15.57 C
458 14-07-2015 05:20:00 18.7 C 82 % 15.57 C
459 14-07-2015 05:25:00 18.7 C 82 % 15.57 C
460 14-07-2015 05:30:00 18.7 C 82 % 15.57 C
461 14-07-2015 05:35:00 18.7 C 83 % 15.75 C
462 14-07-2015 05:40:00 18.7 C 83 % 15.75 C
463 14-07-2015 06:05:00 18.8 C 82 % 15.66 C
464 14-07-2015 06:10:00 18.8 C 82 % 15.66 C
465 14-07-2015 06:15:00 18.8 C 82 % 15.66 C
466 14-07-2015 06:20:00 18.8 C 82 % 15.66 C
467 14-07-2015 06:25:00 18.8 C 82 % 15.66 C
468 14-07-2015 06:30:00 18.9 C 82 % 15.76 C
469 14-07-2015 06:35:00 18.9 C 81 % 15.57 C
470 14-07-2015 06:40:00 18.9 C 82 % 15.76 C
471 14-07-2015 06:45:00 19 C 81 % 15.67 C
472 14-07-2015 06:50:00 19 C 82 % 15.86 C
473 14-07-2015 06:55:00 19 C 81 % 15.67 C
474 14-07-2015 07:00:00 19 C 81 % 15.67 C
475 14-07-2015 07:05:00 19 C 82 % 15.86 C
Sensor: Nr:Datum:Temp:Feuchte:Taupunkt:
Aussen-T/F 476 14-07-2015 07:10:00 19.1 C 81 % 15.76 C
477 14-07-2015 07:15:00 19.1 C 82 % 15.96 C
478 14-07-2015 07:20:00 19.1 C 82 % 15.96 C
479 14-07-2015 07:25:00 19.2 C 82 % 16.05 C
480 14-07-2015 07:30:00 19.2 C 81 % 15.86 C
481 14-07-2015 07:35:00 19.2 C 82 % 16.05 C
482 14-07-2015 07:40:00 19.2 C 82 % 16.05 C
483 14-07-2015 07:45:00 19.3 C 81 % 15.96 C
484 14-07-2015 07:50:00 19.3 C 81 % 15.96 C
485 14-07-2015 07:55:00 19.3 C 81 % 15.96 C
486 14-07-2015 08:00:00 19.3 C 81 % 15.96 C
487 14-07-2015 08:05:00 19.4 C 81 % 16.06 C
488 14-07-2015 08:10:00 19.4 C 81 % 16.06 C
489 14-07-2015 08:15:00 19.4 C 81 % 16.06 C
490 14-07-2015 08:20:00 19.4 C 81 % 16.06 C
491 14-07-2015 08:25:00 19.4 C 81 % 16.06 C
492 14-07-2015 08:30:00 19.5 C 81 % 16.15 C
493 14-07-2015 08:35:00 19.6 C 81 % 16.25 C
494 14-07-2015 08:40:00 19.6 C 81 % 16.25 C
495 14-07-2015 08:45:00 19.6 C 81 % 16.25 C
496 14-07-2015 08:50:00 19.6 C 81 % 16.25 C
497 14-07-2015 08:55:00 19.7 C 81 % 16.35 C
498 14-07-2015 09:00:00 19.8 C 81 % 16.45 C
499 14-07-2015 09:05:00 19.8 C 81 % 16.45 C
500 14-07-2015 09:10:00 19.9 C 81 % 16.54 C
Sensor: Nr:Datum:Temp:Feuchte:Taupunkt:
Aussen-T/F 501 14-07-2015 09:15:00 20 C 80 % 16.44 C
502 14-07-2015 09:20:00 20.1 C 80 % 16.54 C
503 14-07-2015 09:25:00 20.2 C 80 % 16.64 C
504 14-07-2015 09:30:00 20.2 C 80 % 16.64 C
505 14-07-2015 09:35:00 20.3 C 79 % 16.54 C
506 14-07-2015 09:40:00 20.3 C 80 % 16.74 C
507 14-07-2015 09:45:00 20.3 C 80 % 16.74 C
508 14-07-2015 09:50:00 20.3 C 79 % 16.54 C
509 14-07-2015 09:55:00 20.3 C 79 % 16.54 C
510 14-07-2015 10:00:00 20.3 C 80 % 16.74 C
511 14-07-2015 10:05:00 20.3 C 80 % 16.74 C
512 14-07-2015 10:10:00 20.3 C 79 % 16.54 C
513 14-07-2015 10:15:00 20.3 C 79 % 16.54 C
514 14-07-2015 10:20:00 20.3 C 79 % 16.54 C
515 14-07-2015 10:25:00 20.3 C 79 % 16.54 C
516 14-07-2015 10:30:00 20.3 C 79 % 16.54 C
517 14-07-2015 10:35:00 20.3 C 79 % 16.54 C
518 14-07-2015 10:40:00 20.3 C 79 % 16.54 C
519 14-07-2015 10:45:00 20.3 C 79 % 16.54 C
520 14-07-2015 10:50:00 20.4 C 80 % 16.83 C
521 14-07-2015 10:55:00 20.5 C 79 % 16.73 C
522 14-07-2015 11:00:00 20.7 C 79 % 16.93 C
523 14-07-2015 11:05:00 20.8 C 79 % 17.02 C
524 14-07-2015 11:10:00 20.8 C 78 % 16.82 C
525 14-07-2015 11:15:00 20.9 C 77 % 16.72 C
Sensor: Nr:Datum:Temp:Feuchte:Taupunkt:
Aussen-T/F 526 14-07-2015 11:20:00 21.1 C 77 % 16.91 C
527 14-07-2015 11:25:00 21.1 C 77 % 16.91 C
528 14-07-2015 11:30:00 21.2 C 77 % 17.01 C
529 14-07-2015 11:35:00 21.3 C 77 % 17.1 C
530 14-07-2015 11:40:00 21.6 C 76 % 17.19 C
531 14-07-2015 11:45:00 21.8 C 75 % 17.17 C
532 14-07-2015 11:50:00 21.9 C 75 % 17.27 C
533 14-07-2015 11:55:00 22.2 C 74 % 17.34 C
534 14-07-2015 12:00:00 22.3 C 73 % 17.23 C
535 14-07-2015 12:05:00 22.4 C 73 % 17.32 C
536 14-07-2015 12:10:00 22.2 C 73 % 17.13 C
537 14-07-2015 12:15:00 22.2 C 72 % 16.91 C
538 14-07-2015 12:20:00 22.2 C 73 % 17.13 C
539 14-07-2015 12:25:00 22.1 C 72 % 16.82 C
540 14-07-2015 12:30:00 22.2 C 72 % 16.91 C
541 14-07-2015 12:35:00 22.2 C 71 % 16.69 C
542 14-07-2015 12:40:00 22.1 C 71 % 16.6 C
543 14-07-2015 12:45:00 22.1 C 71 % 16.6 C
544 14-07-2015 12:50:00 22.3 C 70 % 16.56 C
545 14-07-2015 12:55:00 22.4 C 70 % 16.66 C
546 14-07-2015 13:00:00 22.6 C 70 % 16.85 C
547 14-07-2015 13:05:00 22.7 C 71 % 17.17 C
548 14-07-2015 13:10:00 22.9 C 72 % 17.58 C
549 14-07-2015 13:15:00 23.1 C 70 % 17.33 C
550 14-07-2015 13:20:00 23.1 C 70 % 17.33 C
Sensor: Nr:Datum:Temp:Feuchte:Taupunkt:
Aussen-T/F 551 14-07-2015 13:25:00 23 C 68 % 16.78 C
552 14-07-2015 13:30:00 23.1 C 68 % 16.87 C
553 14-07-2015 13:35:00 23.1 C 67 % 16.64 C
554 14-07-2015 13:40:00 22.9 C 67 % 16.45 C
555 14-07-2015 13:45:00 22.8 C 66 % 16.12 C
556 14-07-2015 13:50:00 22.9 C 67 % 16.45 C
557 14-07-2015 13:55:00 23.2 C 66 % 16.5 C
558 14-07-2015 14:00:00 23.6 C 64 % 16.39 C
559 14-07-2015 14:05:00 23.7 C 63 % 16.24 C
560 14-07-2015 14:10:00 23.7 C 64 % 16.49 C
561 14-07-2015 14:15:00 24 C 62 % 16.27 C
562 14-07-2015 14:20:00 24.2 C 62 % 16.46 C
563 14-07-2015 14:25:00 24.3 C 61 % 16.3 C
564 14-07-2015 14:30:00 24.4 C 61 % 16.39 C
565 14-07-2015 14:35:00 24.2 C 59 % 15.68 C
566 14-07-2015 14:40:00 23.9 C 60 % 15.66 C
567 14-07-2015 14:45:00 23.8 C 63 % 16.33 C
568 14-07-2015 14:50:00 23.9 C 63 % 16.43 C
569 14-07-2015 14:55:00 24.1 C 63 % 16.62 C
570 14-07-2015 15:00:00 24.3 C 60 % 16.04 C
571 14-07-2015 15:05:00 24.2 C 60 % 15.95 C
572 14-07-2015 15:10:00 24.1 C 59 % 15.59 C
573 14-07-2015 15:15:00 24.1 C 60 % 15.85 C
574 14-07-2015 15:20:00 24.1 C 61 % 16.11 C
575 14-07-2015 15:25:00 24.1 C 61 % 16.11 C
Sensor: Nr:Datum:Temp:Feuchte:Taupunkt:
Aussen-T/F 576 14-07-2015 15:30:00 24.1 C 60 % 15.85 C
577 14-07-2015 15:35:00 24 C 60 % 15.76 C
578 14-07-2015 15:40:00 23.8 C 61 % 15.83 C
579 14-07-2015 15:45:00 23.8 C 61 % 15.83 C
580 14-07-2015 15:50:00 23.9 C 61 % 15.92 C
581 14-07-2015 15:55:00 23.9 C 61 % 15.92 C
582 14-07-2015 16:00:00 24.2 C 62 % 16.46 C
583 14-07-2015 16:05:00 24.4 C 62 % 16.65 C
584 14-07-2015 16:10:00 24.4 C 62 % 16.65 C
585 14-07-2015 16:15:00 24.2 C 60 % 15.95 C
586 14-07-2015 16:20:00 24.2 C 60 % 15.95 C
587 14-07-2015 16:25:00 24.1 C 61 % 16.11 C
588 14-07-2015 16:30:00 23.9 C 61 % 15.92 C
589 14-07-2015 16:35:00 23.9 C 61 % 15.92 C
590 14-07-2015 16:40:00 23.9 C 61 % 15.92 C
591 14-07-2015 16:45:00 23.9 C 61 % 15.92 C
592 14-07-2015 16:50:00 23.8 C 61 % 15.83 C
593 14-07-2015 16:55:00 23.8 C 61 % 15.83 C
594 14-07-2015 17:00:00 23.8 C 61 % 15.83 C
595 14-07-2015 17:05:00 23.8 C 61 % 15.83 C
596 14-07-2015 17:10:00 23.8 C 61 % 15.83 C
597 14-07-2015 17:15:00 23.4 C 62 % 15.71 C
598 14-07-2015 17:20:00 23.3 C 62 % 15.61 C
599 14-07-2015 17:25:00 23.3 C 62 % 15.61 C
600 14-07-2015 17:30:00 23.3 C 62 % 15.61 C
Sensor: Nr:Datum:Temp:Feuchte:Taupunkt:
Aussen-T/F 601 14-07-2015 17:35:00 23.3 C 62 % 15.61 C
602 14-07-2015 17:40:00 23.2 C 66 % 16.5 C
603 14-07-2015 17:45:00 22.9 C 68 % 16.68 C
604 14-07-2015 17:50:00 22.8 C 70 % 17.04 C
605 14-07-2015 17:55:00 22.7 C 71 % 17.17 C
606 14-07-2015 18:00:00 22.8 C 72 % 17.49 C
607 14-07-2015 18:05:00 22.8 C 71 % 17.27 C
608 14-07-2015 18:10:00 22.5 C 72 % 17.2 C
609 14-07-2015 18:15:00 22.3 C 73 % 17.23 C
610 14-07-2015 18:20:00 22.1 C 74 % 17.25 C
611 14-07-2015 18:25:00 22.1 C 74 % 17.25 C
612 14-07-2015 18:30:00 22.1 C 74 % 17.25 C
613 14-07-2015 20:15:00 20.9 C 74 % 16.09 C
614 14-07-2015 20:20:00 21.1 C 74 % 16.29 C
615 14-07-2015 20:25:00 21.2 C 73 % 16.17 C
616 14-07-2015 20:30:00 21.3 C 73 % 16.26 C
617 14-07-2015 20:35:00 21.4 C 72 % 16.14 C
618 14-07-2015 20:40:00 21.5 C 72 % 16.24 C
619 14-07-2015 20:45:00 21.5 C 71 % 16.02 C
620 14-07-2015 20:50:00 21.4 C 72 % 16.14 C
621 14-07-2015 20:55:00 21.4 C 72 % 16.14 C
622 14-07-2015 21:00:00 21.3 C 72 % 16.05 C
623 14-07-2015 21:05:00 21.3 C 72 % 16.05 C
624 14-07-2015 21:10:00 21.2 C 72 % 15.95 C
625 14-07-2015 21:15:00 21.2 C 73 % 16.17 C
Sensor: Nr:Datum:Temp:Feuchte:Taupunkt:
Aussen-T/F 626 14-07-2015 21:20:00 21.1 C 73 % 16.07 C
627 14-07-2015 21:25:00 21.1 C 74 % 16.29 C
628 14-07-2015 21:30:00 21 C 74 % 16.19 C
629 14-07-2015 21:35:00 20.9 C 74 % 16.09 C
630 14-07-2015 21:40:00 20.9 C 74 % 16.09 C
631 14-07-2015 21:45:00 20.8 C 74 % 16 C
632 14-07-2015 21:50:00 20.8 C 75 % 16.21 C
633 14-07-2015 21:55:00 20.7 C 75 % 16.11 C
634 14-07-2015 22:00:00 20.7 C 75 % 16.11 C
635 14-07-2015 22:05:00 20.7 C 75 % 16.11 C
636 14-07-2015 22:10:00 20.7 C 75 % 16.11 C
637 14-07-2015 22:15:00 20.6 C 76 % 16.22 C
638 14-07-2015 22:20:00 20.6 C 76 % 16.22 C
639 14-07-2015 22:25:00 20.6 C 76 % 16.22 C
640 14-07-2015 22:30:00 20.6 C 76 % 16.22 C
641 14-07-2015 22:35:00 20.6 C 76 % 16.22 C
642 14-07-2015 22:40:00 20.6 C 76 % 16.22 C
643 14-07-2015 22:45:00 20.6 C 76 % 16.22 C
644 14-07-2015 22:50:00 20.3 C 77 % 16.14 C
645 14-07-2015 22:55:00 20.3 C 77 % 16.14 C
646 14-07-2015 23:00:00 20.2 C 78 % 16.24 C
647 14-07-2015 23:05:00 20.2 C 78 % 16.24 C
648 14-07-2015 23:10:00 20.1 C 78 % 16.14 C
649 14-07-2015 23:15:00 20.1 C 78 % 16.14 C
650 14-07-2015 23:20:00 20.1 C 78 % 16.14 C
Sensor: Nr:Datum:Temp:Feuchte:Taupunkt:
Aussen-T/F 651 14-07-2015 23:25:00 20 C 78 % 16.05 C
652 14-07-2015 23:30:00 19.9 C 79 % 16.15 C
653 14-07-2015 23:35:00 19.9 C 79 % 16.15 C
654 14-07-2015 23:40:00 19.9 C 79 % 16.15 C
655 14-07-2015 23:45:00 19.8 C 80 % 16.25 C
656 14-07-2015 23:50:00 19.7 C 80 % 16.15 C
657 14-07-2015 23:55:00 19.7 C 80 % 16.15 C
658 15-07-2015 00:00:00 19.6 C 80 % 16.06 C
659 15-07-2015 00:05:00 19.6 C 81 % 16.25 C
660 15-07-2015 00:10:00 19.5 C 81 % 16.15 C
661 15-07-2015 00:15:00 19.4 C 81 % 16.06 C
662 15-07-2015 00:20:00 19.4 C 81 % 16.06 C
663 15-07-2015 00:25:00 19.3 C 81 % 15.96 C
664 15-07-2015 00:30:00 19.3 C 82 % 16.15 C
665 15-07-2015 00:35:00 19.2 C 82 % 16.05 C
666 15-07-2015 00:40:00 19.1 C 82 % 15.96 C
667 15-07-2015 00:45:00 19.1 C 82 % 15.96 C
668 15-07-2015 00:50:00 19 C 82 % 15.86 C
669 15-07-2015 00:55:00 19 C 82 % 15.86 C
670 15-07-2015 01:00:00 18.9 C 83 % 15.95 C
671 15-07-2015 01:05:00 18.8 C 83 % 15.85 C
672 15-07-2015 01:10:00 18.7 C 84 % 15.94 C
673 15-07-2015 01:15:00 18.7 C 84 % 15.94 C
674 15-07-2015 01:20:00 18.7 C 84 % 15.94 C
675 15-07-2015 01:25:00 18.7 C 84 % 15.94 C
Sensor: Nr:Datum:Temp:Feuchte:Taupunkt:
Aussen-T/F 676 15-07-2015 01:30:00 18.7 C 84 % 15.94 C
677 15-07-2015 01:35:00 18.7 C 84 % 15.94 C
678 15-07-2015 01:40:00 18.7 C 84 % 15.94 C
679 15-07-2015 01:45:00 18.7 C 84 % 15.94 C
680 15-07-2015 01:50:00 18.7 C 84 % 15.94 C
681 15-07-2015 01:55:00 18.7 C 84 % 15.94 C
682 15-07-2015 02:00:00 18.6 C 84 % 15.84 C
683 15-07-2015 02:05:00 18.6 C 84 % 15.84 C
684 15-07-2015 02:10:00 18.6 C 84 % 15.84 C
685 15-07-2015 02:15:00 18.6 C 84 % 15.84 C
686 15-07-2015 02:20:00 18.6 C 83 % 15.66 C
687 15-07-2015 02:25:00 18.6 C 83 % 15.66 C
688 15-07-2015 02:30:00 18.6 C 83 % 15.66 C
689 15-07-2015 02:35:00 18.6 C 84 % 15.84 C
690 15-07-2015 02:40:00 18.6 C 84 % 15.84 C
691 15-07-2015 02:45:00 18.5 C 84 % 15.75 C
692 15-07-2015 02:50:00 18.4 C 84 % 15.65 C
693 15-07-2015 02:55:00 18.4 C 85 % 15.83 C
694 15-07-2015 03:00:00 18.3 C 85 % 15.74 C
695 15-07-2015 03:05:00 18.3 C 85 % 15.74 C
696 15-07-2015 03:10:00 18.2 C 85 % 15.64 C
697 15-07-2015 03:15:00 18.2 C 86 % 15.82 C
698 15-07-2015 03:20:00 18.2 C 86 % 15.82 C
699 15-07-2015 03:25:00 18.2 C 86 % 15.82 C
700 15-07-2015 03:30:00 18.2 C 85 % 15.64 C
Sensor: Nr:Datum:Temp:Feuchte:Taupunkt:
Aussen-T/F 701 15-07-2015 03:35:00 18.2 C 85 % 15.64 C
702 15-07-2015 03:40:00 18.2 C 85 % 15.64 C
703 15-07-2015 03:45:00 18.2 C 85 % 15.64 C
704 15-07-2015 03:50:00 18.1 C 85 % 15.54 C
705 15-07-2015 03:55:00 18 C 85 % 15.44 C
706 15-07-2015 04:00:00 17.9 C 85 % 15.34 C
707 15-07-2015 04:05:00 17.9 C 85 % 15.34 C
708 15-07-2015 04:10:00 18 C 85 % 15.44 C
709 15-07-2015 04:15:00 18.1 C 85 % 15.54 C
710 15-07-2015 04:20:00 18.2 C 85 % 15.64 C
711 15-07-2015 04:25:00 18.2 C 85 % 15.64 C
712 15-07-2015 04:30:00 18.2 C 85 % 15.64 C
713 15-07-2015 04:35:00 18.2 C 85 % 15.64 C
714 15-07-2015 04:40:00 18.3 C 85 % 15.74 C
715 15-07-2015 04:45:00 18.3 C 84 % 15.55 C
716 15-07-2015 04:50:00 18.2 C 85 % 15.64 C
717 15-07-2015 04:55:00 18.1 C 85 % 15.54 C
718 15-07-2015 05:00:00 17.9 C 85 % 15.34 C
719 15-07-2015 05:05:00 17.8 C 86 % 15.43 C
720 15-07-2015 05:10:00 17.8 C 86 % 15.43 C
721 15-07-2015 05:15:00 17.8 C 86 % 15.43 C
722 15-07-2015 05:20:00 17.8 C 86 % 15.43 C
723 15-07-2015 05:25:00 17.8 C 86 % 15.43 C
724 15-07-2015 05:30:00 17.7 C 86 % 15.33 C
725 15-07-2015 05:35:00 17.6 C 87 % 15.41 C
Sensor: Nr:Datum:Temp:Feuchte:Taupunkt:
Aussen-T/F 726 15-07-2015 05:40:00 17.5 C 87 % 15.31 C
727 15-07-2015 05:45:00 17.4 C 87 % 15.21 C
728 15-07-2015 05:50:00 17.3 C 88 % 15.29 C
729 15-07-2015 05:55:00 17.2 C 89 % 15.37 C
730 15-07-2015 06:00:00 17.2 C 89 % 15.37 C
731 15-07-2015 06:05:00 17.2 C 89 % 15.37 C
732 15-07-2015 06:10:00 17.3 C 89 % 15.47 C
733 15-07-2015 06:15:00 17.3 C 89 % 15.47 C
734 15-07-2015 06:20:00 17.3 C 88 % 15.29 C
735 15-07-2015 06:25:00 17.4 C 88 % 15.39 C
736 15-07-2015 06:30:00 17.4 C 88 % 15.39 C
737 15-07-2015 06:35:00 17.4 C 87 % 15.21 C
738 15-07-2015 06:40:00 17.6 C 87 % 15.41 C
739 15-07-2015 06:45:00 17.6 C 87 % 15.41 C
740 15-07-2015 06:50:00 17.6 C 87 % 15.41 C
741 15-07-2015 06:55:00 17.7 C 87 % 15.51 C
742 15-07-2015 07:00:00 17.7 C 86 % 15.33 C
743 15-07-2015 07:05:00 17.7 C 86 % 15.33 C
744 15-07-2015 07:10:00 17.8 C 87 % 15.61 C
745 15-07-2015 07:15:00 17.8 C 87 % 15.61 C
746 15-07-2015 07:20:00 17.8 C 87 % 15.61 C
747 15-07-2015 07:25:00 17.8 C 87 % 15.61 C
748 15-07-2015 07:45:00 18.3 C 83 % 15.36 C
749 15-07-2015 07:50:00 18.4 C 83 % 15.46 C
750 15-07-2015 07:55:00 18.5 C 83 % 15.56 C
Sensor: Nr:Datum:Temp:Feuchte:Taupunkt:
Aussen-T/F 751 15-07-2015 08:00:00 18.6 C 83 % 15.66 C
752 15-07-2015 08:05:00 18.7 C 83 % 15.75 C
753 15-07-2015 08:10:00 18.7 C 83 % 15.75 C
754 15-07-2015 08:15:00 18.8 C 82 % 15.66 C
755 15-07-2015 08:20:00 18.8 C 83 % 15.85 C
756 15-07-2015 08:25:00 18.9 C 83 % 15.95 C
757 15-07-2015 08:30:00 19 C 82 % 15.86 C
758 15-07-2015 08:35:00 19.1 C 82 % 15.96 C
759 15-07-2015 08:40:00 19.2 C 81 % 15.86 C
760 15-07-2015 08:45:00 19.3 C 81 % 15.96 C
761 15-07-2015 08:50:00 19.3 C 81 % 15.96 C
762 15-07-2015 08:55:00 19.4 C 80 % 15.86 C
763 15-07-2015 09:00:00 19.4 C 80 % 15.86 C
764 15-07-2015 09:05:00 19.5 C 80 % 15.96 C
765 15-07-2015 09:10:00 19.6 C 80 % 16.06 C
766 15-07-2015 09:15:00 19.8 C 79 % 16.05 C
767 15-07-2015 09:20:00 19.9 C 79 % 16.15 C
768 15-07-2015 09:25:00 20.1 C 77 % 15.94 C
769 15-07-2015 09:30:00 20.2 C 77 % 16.04 C
770 15-07-2015 09:35:00 20.2 C 76 % 15.83 C
771 15-07-2015 09:40:00 20.2 C 76 % 15.83 C
772 15-07-2015 09:45:00 20.1 C 76 % 15.74 C
773 15-07-2015 09:50:00 20.2 C 76 % 15.83 C
774 15-07-2015 09:55:00 20.3 C 75 % 15.72 C
775 15-07-2015 10:00:00 20.4 C 76 % 16.03 C
Sensor: Nr:Datum:Temp:Feuchte:Taupunkt:
Aussen-T/F 776 15-07-2015 10:05:00 20.7 C 75 % 16.11 C
777 15-07-2015 10:10:00 20.8 C 75 % 16.21 C
778 15-07-2015 10:15:00 21.1 C 75 % 16.5 C
779 15-07-2015 10:20:00 21.3 C 73 % 16.26 C
780 15-07-2015 10:25:00 21.5 C 73 % 16.46 C
781 15-07-2015 10:30:00 21.7 C 71 % 16.21 C
782 15-07-2015 10:35:00 21.7 C 72 % 16.43 C
783 15-07-2015 10:40:00 21.7 C 72 % 16.43 C
784 15-07-2015 10:45:00 21.9 C 71 % 16.4 C
785 15-07-2015 10:50:00 22 C 71 % 16.5 C
786 15-07-2015 10:55:00 22.2 C 71 % 16.69 C
787 15-07-2015 11:00:00 22.6 C 68 % 16.39 C
788 15-07-2015 11:05:00 22.8 C 66 % 16.12 C
789 15-07-2015 11:10:00 22.8 C 65 % 15.88 C
790 15-07-2015 11:15:00 22.7 C 66 % 16.02 C
791 15-07-2015 11:20:00 22.6 C 66 % 15.93 C
792 15-07-2015 11:25:00 22.6 C 66 % 15.93 C
793 15-07-2015 11:30:00 22.6 C 68 % 16.39 C
794 15-07-2015 11:35:00 22.7 C 70 % 16.95 C
795 15-07-2015 11:40:00 23.1 C 68 % 16.87 C
796 15-07-2015 11:45:00 23.6 C 64 % 16.39 C
797 15-07-2015 11:50:00 23.9 C 62 % 16.18 C
798 15-07-2015 11:55:00 24 C 62 % 16.27 C
799 15-07-2015 12:00:00 24.1 C 62 % 16.37 C
800 15-07-2015 12:05:00 24.1 C 62 % 16.37 C
Sensor: Nr:Datum:Temp:Feuchte:Taupunkt:
Aussen-T/F 801 15-07-2015 12:10:00 24.2 C 62 % 16.46 C
802 15-07-2015 12:15:00 24.6 C 61 % 16.58 C
803 15-07-2015 12:20:00 24.9 C 59 % 16.34 C
804 15-07-2015 12:25:00 25.2 C 61 % 17.14 C
805 15-07-2015 12:30:00 25.5 C 59 % 16.9 C
806 15-07-2015 12:35:00 25.7 C 56 % 16.26 C
807 15-07-2015 12:40:00 25.7 C 56 % 16.26 C
808 15-07-2015 12:45:00 25.8 C 56 % 16.36 C
809 15-07-2015 12:50:00 26.1 C 56 % 16.64 C
810 15-07-2015 12:55:00 26.2 C 54 % 16.16 C
811 15-07-2015 13:00:00 26.2 C 54 % 16.16 C
812 15-07-2015 13:05:00 26.2 C 54 % 16.16 C
813 15-07-2015 13:10:00 26.3 C 55 % 16.54 C
814 15-07-2015 13:15:00 26.7 C 55 % 16.91 C
815 15-07-2015 13:20:00 27.1 C 52 % 16.4 C
816 15-07-2015 13:25:00 27.2 C 50 % 15.87 C
817 15-07-2015 13:30:00 27.4 C 49 % 15.74 C
818 15-07-2015 13:35:00 27.4 C 50 % 16.06 C
819 15-07-2015 13:40:00 27.3 C 48 % 15.33 C
820 15-07-2015 13:45:00 27.3 C 50 % 15.97 C
821 15-07-2015 13:50:00 27.6 C 49 % 15.92 C
822 15-07-2015 13:55:00 27.8 C 48 % 15.78 C
823 15-07-2015 14:00:00 27.7 C 47 % 15.36 C
824 15-07-2015 14:05:00 27.1 C 47 % 14.82 C
825 15-07-2015 14:10:00 26.9 C 48 % 14.96 C
Sensor: Nr:Datum:Temp:Feuchte:Taupunkt:
Aussen-T/F 826 15-07-2015 14:15:00 26.9 C 49 % 15.28 C
827 15-07-2015 14:20:00 27.5 C 49 % 15.83 C
828 15-07-2015 14:25:00 27.6 C 49 % 15.92 C
829 15-07-2015 14:30:00 27.7 C 47 % 15.36 C
830 15-07-2015 14:35:00 27.6 C 49 % 15.92 C
831 15-07-2015 14:40:00 28.2 C 47 % 15.82 C
832 15-07-2015 14:45:00 28.7 C 48 % 16.6 C
833 15-07-2015 14:50:00 29.1 C 46 % 16.3 C
834 15-07-2015 14:55:00 28.8 C 46 % 16.03 C
835 15-07-2015 15:00:00 28.4 C 48 % 16.33 C
836 15-07-2015 15:05:00 28.4 C 47 % 16 C
837 15-07-2015 15:10:00 28.3 C 48 % 16.24 C
838 15-07-2015 15:15:00 28.6 C 46 % 15.85 C
839 15-07-2015 15:20:00 28.7 C 47 % 16.27 C
840 15-07-2015 15:25:00 29.1 C 46 % 16.3 C
841 15-07-2015 15:30:00 29.3 C 45 % 16.13 C
842 15-07-2015 15:35:00 29.4 C 45 % 16.23 C
843 15-07-2015 15:40:00 29.3 C 46 % 16.48 C
844 15-07-2015 15:45:00 29.1 C 46 % 16.3 C
845 15-07-2015 15:50:00 28.9 C 47 % 16.45 C
846 15-07-2015 15:55:00 28.8 C 47 % 16.36 C
847 15-07-2015 16:00:00 28.8 C 46 % 16.03 C
848 15-07-2015 16:05:00 28.7 C 47 % 16.27 C
849 15-07-2015 16:10:00 28.4 C 48 % 16.33 C
850 15-07-2015 16:15:00 28.3 C 50 % 16.88 C
Sensor: Nr:Datum:Temp:Feuchte:Taupunkt:
Aussen-T/F 851 15-07-2015 16:20:00 28.2 C 49 % 16.47 C
852 15-07-2015 16:25:00 27.9 C 50 % 16.51 C
853 15-07-2015 16:30:00 27.8 C 49 % 16.11 C
854 15-07-2015 16:35:00 27.8 C 50 % 16.42 C
855 15-07-2015 16:40:00 27.8 C 50 % 16.42 C
856 15-07-2015 16:45:00 27.7 C 51 % 16.64 C
857 15-07-2015 16:50:00 27.6 C 53 % 17.16 C
858 15-07-2015 16:55:00 27.2 C 57 % 17.94 C
859 15-07-2015 17:00:00 26.7 C 59 % 18.02 C
860 15-07-2015 17:05:00 26.1 C 58 % 17.19 C
861 15-07-2015 17:10:00 25.9 C 58 % 17 C
862 15-07-2015 17:15:00 25.8 C 64 % 18.47 C
863 15-07-2015 17:20:00 25.6 C 63 % 18.03 C
864 15-07-2015 17:25:00 25.5 C 65 % 18.44 C
865 15-07-2015 17:30:00 25.2 C 70 % 19.34 C
866 15-07-2015 17:35:00 24.6 C 78 % 20.51 C
867 15-07-2015 17:40:00 24.1 C 82 % 20.83 C
868 15-07-2015 17:45:00 23.6 C 84 % 20.74 C
869 15-07-2015 17:50:00 23.3 C 86 % 20.82 C
870 15-07-2015 17:55:00 23 C 87 % 20.72 C
871 15-07-2015 18:00:00 22.8 C 88 % 20.71 C
872 15-07-2015 18:05:00 22.8 C 88 % 20.71 C
873 15-07-2015 18:10:00 22.7 C 88 % 20.61 C
874 15-07-2015 18:15:00 22.6 C 88 % 20.51 C
875 15-07-2015 18:20:00 22.4 C 88 % 20.31 C
Sensor: Nr:Datum:Temp:Feuchte:Taupunkt:
Aussen-T/F 876 15-07-2015 18:25:00 22.3 C 88 % 20.21 C
877 15-07-2015 18:30:00 22.2 C 89 % 20.3 C
878 15-07-2015 18:35:00 22.1 C 89 % 20.2 C
879 15-07-2015 18:40:00 22 C 88 % 19.92 C
880 15-07-2015 18:45:00 21.8 C 88 % 19.72 C
881 15-07-2015 18:50:00 21.7 C 88 % 19.62 C
882 15-07-2015 18:55:00 21.6 C 88 % 19.53 C
883 15-07-2015 19:00:00 21.7 C 89 % 19.81 C
884 15-07-2015 19:05:00 21.8 C 88 % 19.72 C
885 15-07-2015 19:10:00 21.8 C 88 % 19.72 C
886 15-07-2015 19:15:00 21.9 C 86 % 19.45 C
887 15-07-2015 19:20:00 22 C 85 % 19.36 C
888 15-07-2015 19:25:00 22 C 85 % 19.36 C
889 15-07-2015 19:30:00 22.1 C 86 % 19.65 C
890 15-07-2015 19:35:00 22.2 C 85 % 19.56 C
891 15-07-2015 19:40:00 22.3 C 83 % 19.27 C
892 15-07-2015 19:45:00 22.3 C 84 % 19.46 C
893 15-07-2015 19:50:00 22.2 C 84 % 19.37 C
894 15-07-2015 19:55:00 22.1 C 83 % 19.08 C
895 15-07-2015 20:00:00 21.9 C 83 % 18.88 C
896 15-07-2015 20:05:00 21.8 C 83 % 18.78 C
897 15-07-2015 20:10:00 21.9 C 83 % 18.88 C
898 15-07-2015 20:15:00 22 C 83 % 18.98 C
899 15-07-2015 20:20:00 22 C 83 % 18.98 C
900 15-07-2015 20:25:00 21.8 C 83 % 18.78 C
Sensor: Nr:Datum:Temp:Feuchte:Taupunkt:
Aussen-T/F 901 15-07-2015 20:30:00 21.7 C 83 % 18.69 C
902 15-07-2015 20:35:00 21.6 C 83 % 18.59 C
903 15-07-2015 20:40:00 21.6 C 83 % 18.59 C
904 15-07-2015 20:45:00 21.4 C 83 % 18.39 C
905 15-07-2015 20:50:00 21.4 C 84 % 18.58 C
906 15-07-2015 20:55:00 21.5 C 83 % 18.49 C
907 15-07-2015 21:00:00 21.7 C 80 % 18.1 C
908 15-07-2015 21:05:00 22.1 C 79 % 18.29 C
909 15-07-2015 21:10:00 22.3 C 79 % 18.48 C
910 15-07-2015 21:15:00 22.3 C 79 % 18.48 C
911 15-07-2015 21:20:00 22.2 C 80 % 18.58 C
912 15-07-2015 21:25:00 22.1 C 80 % 18.49 C
913 15-07-2015 21:30:00 21.9 C 80 % 18.29 C
914 15-07-2015 21:35:00 21.8 C 82 % 18.59 C
915 15-07-2015 21:40:00 21.6 C 84 % 18.78 C
916 15-07-2015 21:45:00 21.4 C 85 % 18.77 C
917 15-07-2015 21:50:00 21.2 C 86 % 18.76 C
918 15-07-2015 21:55:00 20.9 C 87 % 18.65 C
919 15-07-2015 22:00:00 20.7 C 87 % 18.46 C
920 15-07-2015 22:05:00 20.5 C 88 % 18.44 C
921 15-07-2015 22:10:00 20.3 C 88 % 18.25 C
922 15-07-2015 22:15:00 20.1 C 88 % 18.05 C
923 15-07-2015 22:20:00 19.8 C 89 % 17.93 C
924 15-07-2015 22:25:00 19.7 C 89 % 17.84 C
925 15-07-2015 22:30:00 19.5 C 89 % 17.64 C
Sensor: Nr:Datum:Temp:Feuchte:Taupunkt:
Aussen-T/F 926 15-07-2015 22:35:00 19.3 C 90 % 17.62 C
927 15-07-2015 22:40:00 19.2 C 90 % 17.52 C
928 15-07-2015 22:45:00 19.1 C 90 % 17.42 C
929 15-07-2015 22:50:00 19.1 C 91 % 17.6 C
930 15-07-2015 22:55:00 18.9 C 91 % 17.4 C
931 15-07-2015 23:00:00 18.9 C 91 % 17.4 C
932 15-07-2015 23:05:00 18.9 C 91 % 17.4 C
933 15-07-2015 23:10:00 18.8 C 91 % 17.3 C
934 15-07-2015 23:15:00 18.8 C 91 % 17.3 C
935 15-07-2015 23:20:00 18.8 C 91 % 17.3 C
936 15-07-2015 23:25:00 18.8 C 91 % 17.3 C
937 15-07-2015 23:30:00 18.7 C 91 % 17.2 C
938 15-07-2015 23:35:00 18.7 C 92 % 17.37 C
939 15-07-2015 23:40:00 18.7 C 91 % 17.2 C
940 15-07-2015 23:45:00 18.6 C 91 % 17.1 C
941 15-07-2015 23:50:00 18.6 C 91 % 17.1 C
942 15-07-2015 23:55:00 18.4 C 92 % 17.08 C
943 16-07-2015 00:00:00 18.3 C 92 % 16.98 C
944 16-07-2015 00:05:00 18.3 C 92 % 16.98 C
945 16-07-2015 00:10:00 18.3 C 92 % 16.98 C
946 16-07-2015 00:15:00 18.2 C 92 % 16.88 C
947 16-07-2015 00:20:00 18.2 C 92 % 16.88 C
948 16-07-2015 00:25:00 18.2 C 93 % 17.05 C
949 16-07-2015 00:30:00 18.1 C 93 % 16.95 C
950 16-07-2015 00:35:00 18.1 C 93 % 16.95 C
Sensor: Nr:Datum:Temp:Feuchte:Taupunkt:
Aussen-T/F 951 16-07-2015 00:40:00 18.1 C 93 % 16.95 C
952 16-07-2015 00:45:00 18.1 C 93 % 16.95 C
953 16-07-2015 00:50:00 18.1 C 93 % 16.95 C
954 16-07-2015 00:55:00 18.1 C 93 % 16.95 C
955 16-07-2015 01:00:00 18.1 C 93 % 16.95 C
956 16-07-2015 01:05:00 18 C 93 % 16.85 C
957 16-07-2015 01:10:00 17.9 C 93 % 16.75 C
958 16-07-2015 01:15:00 17.9 C 93 % 16.75 C
959 16-07-2015 01:20:00 17.8 C 94 % 16.82 C
960 16-07-2015 01:25:00 17.8 C 94 % 16.82 C
961 16-07-2015 01:30:00 17.8 C 94 % 16.82 C
962 16-07-2015 01:35:00 17.7 C 94 % 16.72 C
963 16-07-2015 01:40:00 17.7 C 94 % 16.72 C
964 16-07-2015 01:45:00 17.7 C 94 % 16.72 C
965 16-07-2015 01:50:00 17.6 C 94 % 16.62 C
966 16-07-2015 01:55:00 17.6 C 94 % 16.62 C
967 16-07-2015 02:00:00 17.5 C 94 % 16.52 C
968 16-07-2015 02:05:00 17.4 C 94 % 16.42 C
969 16-07-2015 02:10:00 17.4 C 94 % 16.42 C
970 16-07-2015 02:15:00 17.3 C 94 % 16.33 C
971 16-07-2015 02:20:00 17.3 C 94 % 16.33 C
972 16-07-2015 02:25:00 17.3 C 94 % 16.33 C
973 16-07-2015 02:30:00 17.3 C 94 % 16.33 C
974 16-07-2015 02:35:00 17.2 C 94 % 16.23 C
975 16-07-2015 02:40:00 17.2 C 95 % 16.39 C
Sensor: Nr:Datum:Temp:Feuchte:Taupunkt:
Aussen-T/F 976 16-07-2015 02:45:00 17.2 C 95 % 16.39 C
977 16-07-2015 02:50:00 17.2 C 95 % 16.39 C
978 16-07-2015 02:55:00 17.1 C 95 % 16.29 C
979 16-07-2015 03:00:00 17.1 C 95 % 16.29 C
980 16-07-2015 03:05:00 17.1 C 95 % 16.29 C
981 16-07-2015 03:10:00 17 C 95 % 16.19 C
982 16-07-2015 03:15:00 17 C 95 % 16.19 C
983 16-07-2015 03:20:00 17 C 95 % 16.19 C
984 16-07-2015 03:25:00 17.1 C 95 % 16.29 C
985 16-07-2015 03:30:00 17.1 C 95 % 16.29 C
986 16-07-2015 03:35:00 17.1 C 95 % 16.29 C
987 16-07-2015 03:40:00 17.1 C 95 % 16.29 C
988 16-07-2015 03:45:00 17 C 95 % 16.19 C
989 16-07-2015 03:50:00 17 C 95 % 16.19 C
990 16-07-2015 03:55:00 16.9 C 95 % 16.09 C
991 16-07-2015 04:00:00 16.8 C 95 % 15.99 C
992 16-07-2015 04:05:00 16.8 C 95 % 15.99 C
993 16-07-2015 04:10:00 16.8 C 95 % 15.99 C
994 16-07-2015 04:15:00 16.7 C 95 % 15.9 C
995 16-07-2015 04:20:00 16.7 C 95 % 15.9 C
996 16-07-2015 04:25:00 16.7 C 95 % 15.9 C
997 16-07-2015 04:30:00 16.6 C 95 % 15.8 C
998 16-07-2015 04:35:00 16.7 C 95 % 15.9 C
999 16-07-2015 04:40:00 16.8 C 96 % 16.16 C
1000 16-07-2015 04:45:00 16.9 C 96 % 16.26 C
Sensor: Nr:Datum:Temp:Feuchte:Taupunkt:
Aussen-T/F 1001 16-07-2015 04:50:00 16.9 C 96 % 16.26 C
1002 16-07-2015 04:55:00 16.9 C 96 % 16.26 C
1003 16-07-2015 05:00:00 16.8 C 96 % 16.16 C
1004 16-07-2015 05:05:00 16.8 C 96 % 16.16 C
1005 16-07-2015 05:10:00 16.8 C 95 % 15.99 C
1006 16-07-2015 05:15:00 16.8 C 95 % 15.99 C
1007 16-07-2015 05:20:00 16.8 C 95 % 15.99 C
1008 16-07-2015 05:25:00 16.8 C 95 % 15.99 C
1009 16-07-2015 05:30:00 16.7 C 96 % 16.06 C
1010 16-07-2015 05:35:00 16.8 C 96 % 16.16 C
1011 16-07-2015 05:40:00 16.8 C 96 % 16.16 C
1012 16-07-2015 05:45:00 16.7 C 96 % 16.06 C
1013 16-07-2015 05:50:00 16.7 C 96 % 16.06 C
1014 16-07-2015 05:55:00 16.7 C 96 % 16.06 C
1015 16-07-2015 06:00:00 16.8 C 96 % 16.16 C
1016 16-07-2015 06:05:00 16.9 C 96 % 16.26 C
1017 16-07-2015 06:10:00 17 C 96 % 16.36 C
1018 16-07-2015 06:15:00 17.1 C 96 % 16.46 C
1019 16-07-2015 06:20:00 17.2 C 96 % 16.56 C
1020 16-07-2015 06:25:00 17.2 C 96 % 16.56 C
1021 16-07-2015 06:30:00 17.1 C 96 % 16.46 C
1022 16-07-2015 06:35:00 17.1 C 96 % 16.46 C
1023 16-07-2015 06:40:00 17.1 C 96 % 16.46 C
1024 16-07-2015 06:45:00 17.1 C 96 % 16.46 C
1025 16-07-2015 06:50:00 17.1 C 96 % 16.46 C
Sensor: Nr:Datum:Temp:Feuchte:Taupunkt:
Aussen-T/F 1026 16-07-2015 06:55:00 17.1 C 96 % 16.46 C
1027 16-07-2015 07:00:00 17.1 C 96 % 16.46 C
1028 16-07-2015 07:05:00 17.1 C 96 % 16.46 C
1029 16-07-2015 07:10:00 17.1 C 96 % 16.46 C
1030 16-07-2015 07:15:00 17.2 C 96 % 16.56 C
1031 16-07-2015 07:20:00 17.3 C 96 % 16.66 C
1032 16-07-2015 07:25:00 17.3 C 96 % 16.66 C
1033 16-07-2015 07:30:00 17.4 C 96 % 16.76 C
1034 16-07-2015 07:35:00 17.4 C 95 % 16.59 C
1035 16-07-2015 07:40:00 17.6 C 95 % 16.79 C
1036 16-07-2015 07:45:00 17.6 C 95 % 16.79 C
1037 16-07-2015 07:50:00 17.7 C 95 % 16.89 C
1038 16-07-2015 07:55:00 17.8 C 95 % 16.99 C
1039 16-07-2015 08:00:00 18 C 95 % 17.19 C
1040 16-07-2015 08:05:00 18.2 C 95 % 17.39 C
1041 16-07-2015 08:10:00 18.2 C 94 % 17.22 C
1042 16-07-2015 08:15:00 18.4 C 94 % 17.42 C
1043 16-07-2015 08:20:00 18.6 C 94 % 17.62 C
1044 16-07-2015 08:25:00 18.8 C 93 % 17.64 C
1045 16-07-2015 08:30:00 19.1 C 93 % 17.94 C
1046 16-07-2015 08:35:00 19.3 C 92 % 17.97 C
1047 16-07-2015 08:40:00 19.6 C 92 % 18.26 C
1048 16-07-2015 08:45:00 19.9 C 91 % 18.39 C
1049 16-07-2015 08:50:00 20.2 C 90 % 18.51 C
1050 16-07-2015 08:55:00 20.4 C 89 % 18.53 C
Sensor: Nr:Datum:Temp:Feuchte:Taupunkt:
Aussen-T/F 1051 16-07-2015 09:00:00 20.8 C 88 % 18.74 C
1052 16-07-2015 09:05:00 21 C 86 % 18.57 C
1053 16-07-2015 09:10:00 21.3 C 85 % 18.67 C
1054 16-07-2015 09:15:00 21.4 C 84 % 18.58 C
1055 16-07-2015 09:20:00 21.5 C 84 % 18.68 C
1056 16-07-2015 09:25:00 21.4 C 84 % 18.58 C
1057 16-07-2015 09:30:00 21.3 C 84 % 18.49 C
1058 16-07-2015 09:35:00 21.3 C 84 % 18.49 C
1059 16-07-2015 09:40:00 21.3 C 84 % 18.49 C
1060 16-07-2015 09:45:00 21.4 C 84 % 18.58 C
1061 16-07-2015 09:50:00 21.4 C 83 % 18.39 C
1062 16-07-2015 09:55:00 21.5 C 84 % 18.68 C
1063 16-07-2015 10:00:00 21.7 C 82 % 18.49 C
1064 16-07-2015 10:05:00 21.8 C 82 % 18.59 C
1065 16-07-2015 10:10:00 22.2 C 81 % 18.78 C
1066 16-07-2015 10:15:00 22.6 C 78 % 18.57 C
1067 16-07-2015 10:20:00 23 C 80 % 19.36 C
1068 16-07-2015 10:25:00 23.3 C 75 % 18.62 C
1069 16-07-2015 10:30:00 23.6 C 75 % 18.91 C
1070 16-07-2015 10:35:00 23.7 C 76 % 19.22 C
1071 16-07-2015 10:40:00 23.9 C 74 % 18.98 C
1072 16-07-2015 10:45:00 24.2 C 74 % 19.27 C
1073 16-07-2015 10:50:00 24.3 C 73 % 19.15 C
1074 16-07-2015 10:55:00 24.5 C 72 % 19.12 C
1075 16-07-2015 11:00:00 24.7 C 72 % 19.31 C
Sensor: Nr:Datum:Temp:Feuchte:Taupunkt:
Aussen-T/F 1076 16-07-2015 11:05:00 24.8 C 72 % 19.41 C
1077 16-07-2015 11:10:00 25.2 C 70 % 19.34 C
1078 16-07-2015 11:15:00 25.4 C 69 % 19.3 C
1079 16-07-2015 11:20:00 25.4 C 68 % 19.06 C
1080 16-07-2015 11:25:00 25.5 C 68 % 19.16 C
1081 16-07-2015 11:30:00 25.6 C 67 % 19.01 C
1082 16-07-2015 11:35:00 25.7 C 66 % 18.87 C
1083 16-07-2015 11:40:00 25.8 C 65 % 18.72 C
1084 16-07-2015 11:45:00 25.9 C 65 % 18.81 C
1085 16-07-2015 11:50:00 26.2 C 65 % 19.1 C
1086 16-07-2015 11:55:00 26.4 C 65 % 19.29 C
1087 16-07-2015 12:00:00 26.6 C 64 % 19.23 C
1088 16-07-2015 12:05:00 26.8 C 62 % 18.91 C
1089 16-07-2015 12:10:00 26.9 C 62 % 19 C
1090 16-07-2015 12:15:00 27.1 C 60 % 18.66 C
1091 16-07-2015 12:20:00 27.3 C 60 % 18.85 C
1092 16-07-2015 12:25:00 27.5 C 60 % 19.04 C
1093 16-07-2015 12:30:00 27.9 C 59 % 19.14 C
1094 16-07-2015 12:35:00 28 C 56 % 18.4 C
1095 16-07-2015 12:40:00 28.1 C 59 % 19.33 C
1096 16-07-2015 12:45:00 28.3 C 57 % 18.96 C
1097 16-07-2015 12:50:00 28.4 C 57 % 19.06 C
1098 16-07-2015 12:55:00 28.5 C 56 % 18.87 C
1099 16-07-2015 13:00:00 28.7 C 55 % 18.76 C
1100 16-07-2015 13:05:00 28.7 C 54 % 18.47 C
Sensor: Nr:Datum:Temp:Feuchte:Taupunkt:
Aussen-T/F 1101 16-07-2015 13:10:00 28.7 C 55 % 18.76 C
1102 16-07-2015 13:15:00 28.9 C 53 % 18.36 C
1103 16-07-2015 13:20:00 29.1 C 54 % 18.84 C
1104 16-07-2015 13:25:00 29.3 C 55 % 19.32 C
1105 16-07-2015 13:30:00 29.6 C 54 % 19.3 C
1106 16-07-2015 13:35:00 29.8 C 53 % 19.19 C
1107 16-07-2015 13:40:00 29.8 C 50 % 18.25 C
1108 16-07-2015 13:45:00 29.7 C 49 % 17.84 C
1109 16-07-2015 13:50:00 29.6 C 52 % 18.7 C
1110 16-07-2015 13:55:00 29.7 C 50 % 18.16 C
1111 16-07-2015 14:00:00 29.7 C 52 % 18.79 C
1112 16-07-2015 14:05:00 29.7 C 52 % 18.79 C
1113 16-07-2015 14:10:00 30.1 C 50 % 18.53 C
1114 16-07-2015 14:15:00 30.4 C 50 % 18.8 C
1115 16-07-2015 14:20:00 30.7 C 49 % 18.75 C
1116 16-07-2015 14:25:00 30.9 C 48 % 18.61 C
1117 16-07-2015 14:30:00 31.2 C 46 % 18.2 C
1118 16-07-2015 14:35:00 30.9 C 46 % 17.93 C
1119 16-07-2015 14:40:00 30.6 C 47 % 18 C
1120 16-07-2015 14:45:00 30.3 C 48 % 18.06 C
1121 16-07-2015 14:50:00 30.4 C 47 % 17.82 C
1122 16-07-2015 14:55:00 30.5 C 48 % 18.24 C
1123 16-07-2015 15:00:00 30.8 C 47 % 18.18 C
1124 16-07-2015 15:05:00 30.8 C 46 % 17.84 C
1125 16-07-2015 15:10:00 30.6 C 46 % 17.66 C
Sensor: Nr:Datum:Temp:Feuchte:Taupunkt:
Aussen-T/F 1126 16-07-2015 15:15:00 30.3 C 48 % 18.06 C
1127 16-07-2015 15:20:00 30.1 C 49 % 18.21 C
1128 16-07-2015 15:25:00 29.8 C 49 % 17.93 C
1129 16-07-2015 15:30:00 29.8 C 52 % 18.88 C
1130 16-07-2015 15:35:00 29.8 C 51 % 18.57 C
1131 16-07-2015 15:40:00 29.8 C 53 % 19.19 C
1132 16-07-2015 15:45:00 29.6 C 51 % 18.39 C
1133 16-07-2015 15:50:00 29.6 C 52 % 18.7 C
1134 16-07-2015 15:55:00 29.7 C 49 % 17.84 C
1135 16-07-2015 16:00:00 29.9 C 51 % 18.66 C
1136 16-07-2015 16:05:00 30.2 C 50 % 18.62 C
1137 16-07-2015 16:10:00 30.4 C 48 % 18.15 C
1138 16-07-2015 16:15:00 30.7 C 48 % 18.43 C
1139 16-07-2015 16:20:00 31.4 C 46 % 18.38 C
1140 16-07-2015 16:25:00 31.7 C 45 % 18.3 C
1141 16-07-2015 16:30:00 31.8 C 45 % 18.39 C
1142 16-07-2015 16:35:00 32.2 C 45 % 18.75 C
1143 16-07-2015 16:40:00 32.5 C 43 % 18.3 C
1144 16-07-2015 16:45:00 32.8 C 43 % 18.57 C
1145 16-07-2015 16:50:00 33.3 C 41 % 18.25 C
1146 16-07-2015 16:55:00 33.3 C 41 % 18.25 C
1147 16-07-2015 17:00:00 33.3 C 41 % 18.25 C
1148 16-07-2015 17:05:00 33.3 C 40 % 17.86 C
1149 16-07-2015 17:10:00 33.4 C 39 % 17.55 C
1150 16-07-2015 17:15:00 33.4 C 41 % 18.34 C
Sensor: Nr:Datum:Temp:Feuchte:Taupunkt:
Aussen-T/F 1151 16-07-2015 17:20:00 33.4 C 40 % 17.95 C
1152 16-07-2015 17:25:00 33.1 C 40 % 17.68 C
1153 16-07-2015 17:30:00 32.9 C 42 % 18.28 C
1154 16-07-2015 17:35:00 33.2 C 41 % 18.17 C
1155 16-07-2015 17:40:00 33.2 C 41 % 18.17 C
1156 16-07-2015 17:45:00 33.2 C 41 % 18.17 C
1157 16-07-2015 17:50:00 33.4 C 39 % 17.55 C
1158 16-07-2015 17:55:00 33.3 C 41 % 18.25 C
1159 16-07-2015 18:00:00 33.6 C 40 % 18.13 C
1160 16-07-2015 18:05:00 33.7 C 40 % 18.22 C
1161 16-07-2015 18:10:00 33.8 C 39 % 17.9 C
1162 16-07-2015 18:15:00 33.6 C 38 % 17.31 C
1163 16-07-2015 18:20:00 33.6 C 38 % 17.31 C
1164 16-07-2015 18:25:00 33.8 C 39 % 17.9 C
1165 16-07-2015 18:30:00 34.1 C 39 % 18.17 C
1166 16-07-2015 18:35:00 34.2 C 37 % 17.42 C
1167 16-07-2015 18:40:00 33.9 C 39 % 17.99 C
1168 16-07-2015 18:45:00 34.1 C 38 % 17.76 C
1169 16-07-2015 18:50:00 34 C 38 % 17.67 C
1170 16-07-2015 18:55:00 34.1 C 37 % 17.33 C
1171 16-07-2015 19:00:00 34 C 38 % 17.67 C
1172 16-07-2015 19:05:00 33.9 C 38 % 17.58 C
1173 16-07-2015 19:10:00 33.8 C 38 % 17.49 C
1174 16-07-2015 19:15:00 33.8 C 38 % 17.49 C
1175 16-07-2015 19:20:00 33.8 C 38 % 17.49 C
Sensor: Nr:Datum:Temp:Feuchte:Taupunkt:
Aussen-T/F 1176 16-07-2015 19:25:00 33.8 C 39 % 17.9 C
1177 16-07-2015 19:30:00 33.4 C 41 % 18.34 C
1178 16-07-2015 19:35:00 32.8 C 40 % 17.42 C
1179 16-07-2015 19:40:00 32.3 C 47 % 19.54 C
1180 16-07-2015 19:45:00 31.7 C 48 % 19.34 C
1181 16-07-2015 19:50:00 31 C 51 % 19.67 C
1182 16-07-2015 19:55:00 30.6 C 51 % 19.3 C
1183 16-07-2015 20:00:00 30.1 C 52 % 19.16 C
1184 16-07-2015 20:05:00 29.6 C 53 % 19 C
1185 16-07-2015 20:10:00 29.1 C 55 % 19.13 C
1186 16-07-2015 20:15:00 28.8 C 55 % 18.86 C
1187 16-07-2015 20:20:00 28.5 C 57 % 19.15 C
1188 16-07-2015 20:25:00 28.2 C 57 % 18.87 C
1189 16-07-2015 20:30:00 27.8 C 58 % 18.78 C
1190 16-07-2015 20:35:00 27.6 C 59 % 18.86 C
1191 16-07-2015 20:40:00 27.3 C 60 % 18.85 C
1192 16-07-2015 20:45:00 27 C 61 % 18.83 C
1193 16-07-2015 20:50:00 26.7 C 62 % 18.81 C
1194 16-07-2015 20:55:00 26.5 C 62 % 18.62 C
1195 16-07-2015 21:00:00 26.2 C 63 % 18.6 C
1196 16-07-2015 21:05:00 25.9 C 64 % 18.57 C
1197 16-07-2015 21:10:00 25.6 C 65 % 18.53 C
1198 16-07-2015 21:15:00 25.3 C 65 % 18.25 C
1199 16-07-2015 21:20:00 25.1 C 66 % 18.3 C
1200 16-07-2015 21:25:00 24.9 C 66 % 18.11 C
Sensor: Nr:Datum:Temp:Feuchte:Taupunkt:
Aussen-T/F 1201 16-07-2015 21:30:00 24.8 C 67 % 18.25 C
1202 16-07-2015 21:35:00 24.6 C 67 % 18.06 C
1203 16-07-2015 21:40:00 24.5 C 68 % 18.2 C
1204 16-07-2015 21:45:00 24.4 C 68 % 18.11 C
1205 16-07-2015 21:50:00 24.3 C 68 % 18.01 C
1206 16-07-2015 21:55:00 24.2 C 69 % 18.15 C
1207 16-07-2015 22:00:00 24.1 C 69 % 18.06 C
1208 16-07-2015 22:05:00 23.9 C 69 % 17.87 C
1209 16-07-2015 22:10:00 23.9 C 69 % 17.87 C
1210 16-07-2015 22:15:00 23.9 C 69 % 17.87 C
1211 16-07-2015 22:20:00 23.9 C 69 % 17.87 C
1212 16-07-2015 22:25:00 23.7 C 69 % 17.67 C
1213 16-07-2015 22:30:00 23.6 C 69 % 17.58 C
1214 16-07-2015 22:35:00 23.5 C 69 % 17.48 C
1215 16-07-2015 22:40:00 23.5 C 69 % 17.48 C
1216 16-07-2015 22:45:00 23.3 C 68 % 17.06 C
1217 16-07-2015 22:50:00 23.3 C 69 % 17.29 C
1218 16-07-2015 22:55:00 23.2 C 69 % 17.2 C
1219 16-07-2015 23:00:00 23.2 C 69 % 17.2 C
1220 16-07-2015 23:05:00 23.1 C 69 % 17.1 C
1221 16-07-2015 23:10:00 23.1 C 70 % 17.33 C
1222 16-07-2015 23:15:00 22.9 C 70 % 17.14 C
1223 16-07-2015 23:20:00 22.9 C 70 % 17.14 C
1224 16-07-2015 23:25:00 22.8 C 71 % 17.27 C
1225 16-07-2015 23:30:00 22.7 C 70 % 16.95 C
Sensor: Nr:Datum:Temp:Feuchte:Taupunkt:
Aussen-T/F 1226 16-07-2015 23:35:00 22.7 C 71 % 17.17 C
1227 16-07-2015 23:40:00 22.6 C 71 % 17.07 C
1228 16-07-2015 23:45:00 22.5 C 71 % 16.98 C
1229 16-07-2015 23:50:00 22.4 C 71 % 16.88 C
1230 16-07-2015 23:55:00 22.4 C 72 % 17.1 C
1231 17-07-2015 00:00:00 22.3 C 72 % 17.01 C
1232 17-07-2015 00:05:00 22.3 C 72 % 17.01 C
1233 17-07-2015 00:10:00 22.3 C 73 % 17.23 C
1234 17-07-2015 00:15:00 22.3 C 72 % 17.01 C
1235 17-07-2015 00:20:00 22.1 C 72 % 16.82 C
1236 17-07-2015 00:25:00 22 C 73 % 16.94 C
1237 17-07-2015 00:30:00 21.9 C 73 % 16.84 C
1238 17-07-2015 00:35:00 21.8 C 72 % 16.53 C
1239 17-07-2015 00:40:00 21.8 C 73 % 16.75 C
1240 17-07-2015 00:45:00 21.6 C 74 % 16.77 C
1241 17-07-2015 00:50:00 21.4 C 74 % 16.57 C
1242 17-07-2015 00:55:00 21.2 C 74 % 16.38 C
1243 17-07-2015 01:00:00 21.1 C 75 % 16.5 C
1244 17-07-2015 01:05:00 21.1 C 76 % 16.7 C
1245 17-07-2015 01:10:00 20.9 C 76 % 16.51 C
1246 17-07-2015 01:15:00 20.9 C 76 % 16.51 C
1247 17-07-2015 01:20:00 20.9 C 76 % 16.51 C
1248 17-07-2015 01:25:00 20.8 C 76 % 16.41 C
1249 17-07-2015 01:30:00 20.8 C 77 % 16.62 C
1250 17-07-2015 01:35:00 20.7 C 77 % 16.52 C
Sensor: Nr:Datum:Temp:Feuchte:Taupunkt:
Aussen-T/F 1251 17-07-2015 01:40:00 20.6 C 77 % 16.43 C
1252 17-07-2015 01:45:00 20.6 C 77 % 16.43 C
1253 17-07-2015 01:50:00 20.6 C 77 % 16.43 C
1254 17-07-2015 01:55:00 20.5 C 78 % 16.53 C
1255 17-07-2015 02:00:00 20.4 C 78 % 16.44 C
1256 17-07-2015 02:05:00 20.4 C 79 % 16.64 C
1257 17-07-2015 02:10:00 20.3 C 79 % 16.54 C
1258 17-07-2015 02:15:00 20.3 C 79 % 16.54 C
1259 17-07-2015 02:20:00 20.4 C 79 % 16.64 C
1260 17-07-2015 02:25:00 20.4 C 80 % 16.83 C
1261 17-07-2015 02:30:00 20.4 C 80 % 16.83 C
1262 17-07-2015 02:35:00 20.7 C 80 % 17.13 C
1263 17-07-2015 02:40:00 20.7 C 80 % 17.13 C
1264 17-07-2015 02:45:00 20.7 C 80 % 17.13 C
1265 17-07-2015 02:50:00 20.6 C 80 % 17.03 C
1266 17-07-2015 02:55:00 20.6 C 80 % 17.03 C
1267 17-07-2015 03:00:00 20.5 C 80 % 16.93 C
1268 17-07-2015 03:05:00 20.4 C 80 % 16.83 C
1269 17-07-2015 03:10:00 20.4 C 80 % 16.83 C
1270 17-07-2015 03:15:00 20.4 C 81 % 17.03 C
1271 17-07-2015 03:20:00 20.4 C 81 % 17.03 C
1272 17-07-2015 03:25:00 20.3 C 82 % 17.13 C
1273 17-07-2015 03:30:00 20.3 C 83 % 17.32 C
1274 17-07-2015 03:35:00 20.2 C 83 % 17.22 C
1275 17-07-2015 03:40:00 20.2 C 84 % 17.41 C
Sensor: Nr:Datum:Temp:Feuchte:Taupunkt:
Aussen-T/F 1276 17-07-2015 03:45:00 20.2 C 84 % 17.41 C
1277 17-07-2015 03:50:00 20.2 C 84 % 17.41 C
1278 17-07-2015 03:55:00 20.2 C 84 % 17.41 C
1279 17-07-2015 04:00:00 20.2 C 84 % 17.41 C
1280 17-07-2015 04:05:00 20.2 C 83 % 17.22 C
1281 17-07-2015 04:10:00 20.2 C 83 % 17.22 C
1282 17-07-2015 04:15:00 20.2 C 83 % 17.22 C
1283 17-07-2015 04:20:00 20.2 C 83 % 17.22 C
1284 17-07-2015 04:25:00 20.2 C 83 % 17.22 C
1285 17-07-2015 05:05:00 23.7 C 66 % 16.97 C
1286 17-07-2015 05:10:00 22.7 C 70 % 16.95 C
1287 17-07-2015 05:15:00 22.6 C 70 % 16.85 C
1288 17-07-2015 05:20:00 22.7 C 70 % 16.95 C
1289 17-07-2015 05:25:00 22.7 C 70 % 16.95 C
1290 17-07-2015 05:45:00 23.6 C 66 % 16.88 C
1291 17-07-2015 05:50:00 23.6 C 66 % 16.88 C
1292 17-07-2015 05:55:00 23.6 C 62 % 15.89 C
1293 17-07-2015 06:00:00 24.1 C 62 % 16.37 C
1294 17-07-2015 06:05:00 24.6 C 56 % 15.24 C
1295 17-07-2015 06:10:00 24.8 C 58 % 15.98 C
1296 17-07-2015 06:15:00 24.7 C 60 % 16.41 C
1297 17-07-2015 06:20:00 24.7 C 60 % 16.41 C
1298 17-07-2015 06:25:00 24.7 C 60 % 16.41 C
1299 17-07-2015 07:00:00 22.4 C 69 % 16.43 C
1300 17-07-2015 07:05:00 22.3 C 69 % 16.34 C
Sensor: Nr:Datum:Temp:Feuchte:Taupunkt:
Aussen-T/F 1301 17-07-2015 07:10:00 22.3 C 68 % 16.11 C
1302 17-07-2015 07:15:00 22.4 C 69 % 16.43 C
1303 17-07-2015 07:20:00 22.4 C 68 % 16.2 C
1304 17-07-2015 07:25:00 22.3 C 69 % 16.34 C
1305 17-07-2015 07:30:00 22.2 C 69 % 16.24 C
1306 17-07-2015 07:35:00 22.2 C 68 % 16.01 C
1307 17-07-2015 07:40:00 22.3 C 70 % 16.56 C
1308 17-07-2015 07:45:00 22.4 C 69 % 16.43 C
1309 17-07-2015 07:50:00 22.6 C 66 % 15.93 C
1310 17-07-2015 07:55:00 23.1 C 65 % 16.16 C
1311 17-07-2015 08:00:00 23.4 C 66 % 16.69 C
1312 17-07-2015 08:05:00 23.3 C 63 % 15.86 C
1313 17-07-2015 08:10:00 23.4 C 67 % 16.92 C
1314 17-07-2015 08:15:00 23.5 C 64 % 16.3 C
1315 17-07-2015 08:20:00 23.6 C 67 % 17.11 C
1316 17-07-2015 08:25:00 23.6 C 67 % 17.11 C
1317 17-07-2015 08:30:00 23.8 C 64 % 16.58 C
1318 17-07-2015 08:35:00 23.9 C 68 % 17.63 C
1319 17-07-2015 08:40:00 23.8 C 68 % 17.54 C
1320 17-07-2015 08:45:00 23.6 C 70 % 17.81 C
1321 17-07-2015 08:50:00 23.3 C 69 % 17.29 C
1322 17-07-2015 08:55:00 23.2 C 71 % 17.65 C
1323 17-07-2015 09:00:00 23.2 C 71 % 17.65 C
1324 17-07-2015 09:05:00 23.2 C 71 % 17.65 C
1325 17-07-2015 09:10:00 23.4 C 69 % 17.39 C
Sensor: Nr:Datum:Temp:Feuchte:Taupunkt:
Aussen-T/F 1326 17-07-2015 09:15:00 23.7 C 70 % 17.9 C
1327 17-07-2015 09:20:00 23.9 C 65 % 16.92 C
1328 17-07-2015 09:25:00 24.4 C 64 % 17.15 C
1329 17-07-2015 09:30:00 24.9 C 62 % 17.12 C
1330 17-07-2015 09:35:00 25.3 C 61 % 17.24 C
1331 17-07-2015 09:40:00 25.6 C 61 % 17.52 C
1332 17-07-2015 09:45:00 25.8 C 60 % 17.45 C
1333 17-07-2015 09:50:00 25.9 C 59 % 17.27 C
1334 17-07-2015 09:55:00 26.2 C 58 % 17.28 C
1335 17-07-2015 10:00:00 26.3 C 58 % 17.38 C
1336 17-07-2015 10:05:00 26.5 C 58 % 17.56 C
1337 17-07-2015 10:10:00 26.6 C 57 % 17.38 C
1338 17-07-2015 10:15:00 26.7 C 57 % 17.47 C
1339 17-07-2015 10:20:00 26.7 C 57 % 17.47 C
1340 17-07-2015 10:25:00 26.7 C 56 % 17.19 C
1341 17-07-2015 10:30:00 26.7 C 56 % 17.19 C
1342 17-07-2015 10:35:00 26.9 C 56 % 17.38 C
1343 17-07-2015 10:40:00 26.9 C 56 % 17.38 C
1344 17-07-2015 10:45:00 27.3 C 53 % 16.88 C
1345 17-07-2015 10:50:00 27.4 C 53 % 16.97 C
1346 17-07-2015 10:55:00 27.8 C 52 % 17.04 C
1347 17-07-2015 11:00:00 27.9 C 50 % 16.51 C
1348 17-07-2015 11:05:00 28.1 C 49 % 16.38 C
1349 17-07-2015 11:10:00 28.4 C 49 % 16.65 C
1350 17-07-2015 11:15:00 28.8 C 48 % 16.69 C
Sensor: Nr:Datum:Temp:Feuchte:Taupunkt:
Aussen-T/F 1351 17-07-2015 11:20:00 29.1 C 46 % 16.3 C
1352 17-07-2015 11:25:00 29.3 C 46 % 16.48 C
1353 17-07-2015 11:30:00 29.4 C 46 % 16.57 C
1354 17-07-2015 11:35:00 29.6 C 46 % 16.75 C
1355 17-07-2015 11:40:00 29.7 C 45 % 16.5 C
1356 17-07-2015 11:45:00 29.8 C 47 % 17.27 C
1357 17-07-2015 11:50:00 29.9 C 46 % 17.02 C
1358 17-07-2015 11:55:00 30.2 C 46 % 17.3 C
1359 17-07-2015 12:00:00 30.3 C 45 % 17.04 C
1360 17-07-2015 12:05:00 30.4 C 45 % 17.13 C
1361 17-07-2015 12:10:00 30.7 C 44 % 17.04 C
1362 17-07-2015 12:15:00 30.9 C 44 % 17.22 C
1363 17-07-2015 12:20:00 31.2 C 44 % 17.49 C
1364 17-07-2015 12:25:00 31.5 C 42 % 17.03 C
1365 17-07-2015 12:30:00 31.7 C 42 % 17.21 C
1366 17-07-2015 12:35:00 31.8 C 41 % 16.92 C
1367 17-07-2015 12:40:00 31.8 C 42 % 17.3 C
1368 17-07-2015 12:45:00 31.9 C 40 % 16.62 C
1369 17-07-2015 12:50:00 32.4 C 39 % 16.66 C
1370 17-07-2015 12:55:00 32.7 C 41 % 17.72 C
1371 17-07-2015 13:00:00 32.8 C 37 % 16.19 C
1372 17-07-2015 13:05:00 33.1 C 36 % 16.02 C
1373 17-07-2015 13:10:00 33.2 C 36 % 16.11 C
1374 17-07-2015 13:15:00 33.3 C 36 % 16.2 C
1375 17-07-2015 13:20:00 33.4 C 36 % 16.29 C
Sensor: Nr:Datum:Temp:Feuchte:Taupunkt:
Aussen-T/F 1376 17-07-2015 13:25:00 33.7 C 36 % 16.55 C
1377 17-07-2015 13:30:00 34 C 35 % 16.37 C
1378 17-07-2015 13:35:00 34.4 C 33 % 15.8 C
1379 17-07-2015 13:40:00 34.4 C 33 % 15.8 C
1380 17-07-2015 13:45:00 34.4 C 32 % 15.32 C
1381 17-07-2015 13:50:00 34.4 C 32 % 15.32 C
1382 17-07-2015 13:55:00 34.7 C 32 % 15.58 C
1383 17-07-2015 14:00:00 34.8 C 32 % 15.66 C
1384 17-07-2015 14:05:00 35.3 C 26 % 12.88 C
1385 17-07-2015 14:10:00 35.4 C 25 % 12.37 C
1386 17-07-2015 14:15:00 35.4 C 24 % 11.75 C
1387 17-07-2015 14:20:00 35.6 C 24 % 11.92 C
1388 17-07-2015 14:25:00 35.6 C 24 % 11.92 C
1389 17-07-2015 14:30:00 35.8 C 22 % 10.77 C
1390 17-07-2015 14:35:00 35.9 C 21 % 10.15 C
1391 17-07-2015 14:40:00 35.8 C 22 % 10.77 C
1392 17-07-2015 14:45:00 35.8 C 22 % 10.77 C
1393 17-07-2015 14:50:00 35.9 C 21 % 10.15 C
1394 17-07-2015 14:55:00 36.1 C 22 % 11.02 C
1395 17-07-2015 15:00:00 36.2 C 22 % 11.1 C
1396 17-07-2015 15:05:00 36.1 C 22 % 11.02 C
1397 17-07-2015 15:10:00 35.8 C 23 % 11.44 C
1398 17-07-2015 15:15:00 35.9 C 22 % 10.85 C
1399 17-07-2015 15:20:00 36.1 C 22 % 11.02 C
1400 17-07-2015 15:25:00 36.4 C 20 % 9.84 C
Sensor: Nr:Datum:Temp:Feuchte:Taupunkt:
Aussen-T/F 1401 17-07-2015 15:30:00 36.4 C 20 % 9.84 C
1402 17-07-2015 15:35:00 36.3 C 20 % 9.75 C
1403 17-07-2015 15:40:00 36.3 C 19 % 8.99 C
1404 17-07-2015 15:45:00 36.4 C 21 % 10.56 C
1405 17-07-2015 15:50:00 36.6 C 20 % 10 C
1406 17-07-2015 15:55:00 36.4 C 18 % 8.27 C
1407 17-07-2015 16:00:00 36.6 C 19 % 9.24 C
1408 17-07-2015 16:05:00 36.6 C 20 % 10 C
1409 17-07-2015 16:10:00 36.6 C 20 % 10 C
1410 17-07-2015 16:15:00 36.6 C 21 % 10.73 C
1411 17-07-2015 16:20:00 36.5 C 21 % 10.65 C
1412 17-07-2015 16:25:00 36.3 C 21 % 10.48 C
1413 17-07-2015 16:30:00 36.3 C 21 % 10.48 C
1414 17-07-2015 16:35:00 36.6 C 21 % 10.73 C
1415 17-07-2015 16:40:00 36.7 C 21 % 10.81 C
1416 17-07-2015 16:45:00 36.7 C 22 % 11.51 C
1417 17-07-2015 16:50:00 36.8 C 21 % 10.89 C
1418 17-07-2015 16:55:00 36.6 C 22 % 11.43 C
1419 17-07-2015 17:00:00 36.3 C 22 % 11.18 C
1420 17-07-2015 17:05:00 36.4 C 23 % 11.94 C
1421 17-07-2015 17:10:00 36.6 C 22 % 11.43 C
1422 17-07-2015 17:15:00 36.5 C 23 % 12.02 C
1423 17-07-2015 17:20:00 36.6 C 22 % 11.43 C
1424 17-07-2015 17:25:00 36.6 C 23 % 12.1 C
1425 17-07-2015 17:30:00 36.6 C 23 % 12.1 C
Sensor: Nr:Datum:Temp:Feuchte:Taupunkt:
Aussen-T/F 1426 17-07-2015 17:35:00 36.7 C 24 % 12.83 C
1427 17-07-2015 17:40:00 36.7 C 23 % 12.18 C
1428 17-07-2015 17:45:00 36.5 C 24 % 12.67 C
1429 17-07-2015 17:50:00 36.3 C 23 % 11.85 C
1430 17-07-2015 17:55:00 36.3 C 25 % 13.12 C
1431 17-07-2015 18:00:00 36.2 C 26 % 13.64 C
1432 17-07-2015 18:05:00 36.2 C 26 % 13.64 C
1433 17-07-2015 18:10:00 36.1 C 25 % 12.95 C
1434 17-07-2015 18:15:00 36.1 C 26 % 13.56 C
1435 17-07-2015 18:20:00 36.1 C 25 % 12.95 C
1436 17-07-2015 18:25:00 36.1 C 25 % 12.95 C
1437 17-07-2015 18:30:00 35.9 C 26 % 13.39 C
1438 17-07-2015 18:35:00 36.1 C 26 % 13.56 C
1439 17-07-2015 18:40:00 36 C 26 % 13.47 C
1440 17-07-2015 18:45:00 35.8 C 26 % 13.3 C
1441 17-07-2015 18:50:00 35.7 C 27 % 13.8 C
1442 17-07-2015 18:55:00 35.5 C 27 % 13.63 C
1443 17-07-2015 19:00:00 35.6 C 27 % 13.71 C
1444 17-07-2015 19:05:00 35.6 C 27 % 13.71 C
1445 17-07-2015 19:10:00 35.4 C 27 % 13.54 C
1446 17-07-2015 19:15:00 35.3 C 27 % 13.46 C
1447 17-07-2015 19:20:00 35.2 C 27 % 13.38 C
1448 17-07-2015 19:25:00 35 C 27 % 13.21 C
1449 17-07-2015 19:30:00 34.9 C 29 % 14.22 C
1450 17-07-2015 19:35:00 34.7 C 28 % 13.51 C
Sensor: Nr:Datum:Temp:Feuchte:Taupunkt:
Aussen-T/F 1451 17-07-2015 19:40:00 34.5 C 29 % 13.88 C
1452 17-07-2015 19:45:00 34.3 C 30 % 14.23 C
1453 17-07-2015 19:50:00 34.1 C 30 % 14.06 C
1454 17-07-2015 19:55:00 33.9 C 30 % 13.89 C
1455 17-07-2015 20:00:00 33.7 C 31 % 14.22 C
1456 17-07-2015 20:05:00 33.6 C 32 % 14.62 C
1457 17-07-2015 20:10:00 33.3 C 33 % 14.84 C
1458 17-07-2015 20:15:00 33.1 C 33 % 14.67 C
1459 17-07-2015 20:20:00 32.8 C 36 % 15.76 C
1460 17-07-2015 20:25:00 32.6 C 34 % 14.7 C
1461 17-07-2015 20:30:00 32.6 C 35 % 15.15 C
1462 17-07-2015 20:35:00 32.3 C 37 % 15.75 C
1463 17-07-2015 20:40:00 31.9 C 35 % 14.53 C
1464 17-07-2015 20:45:00 31.7 C 39 % 16.04 C
1465 17-07-2015 20:50:00 31.2 C 39 % 15.6 C
1466 17-07-2015 20:55:00 30.8 C 40 % 15.64 C
1467 17-07-2015 21:00:00 30.5 C 40 % 15.37 C
1468 17-07-2015 21:05:00 30.3 C 40 % 15.19 C
1469 17-07-2015 21:10:00 30 C 42 % 15.69 C
1470 17-07-2015 21:15:00 29.8 C 40 % 14.75 C
1471 17-07-2015 21:20:00 29.6 C 43 % 15.69 C
1472 17-07-2015 21:25:00 29.5 C 44 % 15.96 C
1473 17-07-2015 21:30:00 29.3 C 41 % 14.68 C
1474 17-07-2015 21:35:00 29 C 46 % 16.21 C
1475 17-07-2015 21:40:00 28.4 C 48 % 16.33 C
Sensor: Nr:Datum:Temp:Feuchte:Taupunkt:
Aussen-T/F 1476 17-07-2015 21:45:00 27.9 C 49 % 16.2 C
1477 17-07-2015 21:50:00 27.4 C 51 % 16.37 C
1478 17-07-2015 21:55:00 27.2 C 50 % 15.87 C
1479 17-07-2015 22:00:00 27.2 C 48 % 15.24 C
1480 17-07-2015 22:05:00 27.1 C 51 % 16.09 C
1481 17-07-2015 22:10:00 26.9 C 52 % 16.21 C
1482 17-07-2015 22:15:00 26.8 C 52 % 16.12 C
1483 17-07-2015 22:20:00 26.7 C 52 % 16.03 C
1484 17-07-2015 22:25:00 26.6 C 53 % 16.23 C
1485 17-07-2015 22:30:00 26.6 C 51 % 15.63 C
1486 17-07-2015 22:35:00 26.6 C 52 % 15.94 C
1487 17-07-2015 22:40:00 26.6 C 53 % 16.23 C
1488 17-07-2015 22:45:00 26.3 C 54 % 16.25 C
1489 17-07-2015 22:50:00 25.9 C 55 % 16.17 C
1490 17-07-2015 22:55:00 25.7 C 56 % 16.26 C
1491 17-07-2015 23:00:00 25.5 C 57 % 16.36 C
1492 17-07-2015 23:05:00 25.3 C 55 % 15.61 C
1493 17-07-2015 23:10:00 25.3 C 57 % 16.17 C
1494 17-07-2015 23:15:00 25.3 C 56 % 15.89 C
1495 17-07-2015 23:20:00 25.3 C 57 % 16.17 C
1496 17-07-2015 23:25:00 25.2 C 57 % 16.08 C
1497 17-07-2015 23:30:00 25.2 C 57 % 16.08 C
1498 17-07-2015 23:35:00 25.1 C 57 % 15.98 C
1499 17-07-2015 23:40:00 25.3 C 57 % 16.17 C
1500 17-07-2015 23:45:00 25.4 C 58 % 16.54 C
Sensor: Nr:Datum:Temp:Feuchte:Taupunkt:
Aussen-T/F 1501 17-07-2015 23:50:00 25.3 C 59 % 16.71 C
1502 17-07-2015 23:55:00 25.3 C 59 % 16.71 C
1503 18-07-2015 00:00:00 25.2 C 60 % 16.88 C
1504 18-07-2015 00:05:00 25 C 61 % 16.96 C
1505 18-07-2015 00:10:00 24.8 C 62 % 17.02 C
1506 18-07-2015 00:15:00 24.6 C 63 % 17.09 C
1507 18-07-2015 00:20:00 24.4 C 63 % 16.9 C
1508 18-07-2015 00:25:00 24.3 C 63 % 16.81 C
1509 18-07-2015 00:30:00 24.3 C 63 % 16.81 C
1510 18-07-2015 00:35:00 24.2 C 64 % 16.96 C
1511 18-07-2015 00:40:00 24.1 C 65 % 17.11 C
1512 18-07-2015 00:45:00 23.8 C 65 % 16.83 C
1513 18-07-2015 00:50:00 23.6 C 66 % 16.88 C
1514 18-07-2015 00:55:00 23.6 C 66 % 16.88 C
1515 18-07-2015 01:00:00 23.6 C 66 % 16.88 C
1516 18-07-2015 01:05:00 23.1 C 68 % 16.87 C
1517 18-07-2015 01:10:00 22.9 C 69 % 16.91 C
1518 18-07-2015 01:15:00 22.9 C 68 % 16.68 C
1519 18-07-2015 01:20:00 22.9 C 69 % 16.91 C
1520 18-07-2015 01:25:00 23 C 69 % 17.01 C
1521 18-07-2015 01:30:00 22.9 C 69 % 16.91 C
1522 18-07-2015 01:35:00 22.7 C 69 % 16.72 C
1523 18-07-2015 01:40:00 22.6 C 70 % 16.85 C
1524 18-07-2015 01:45:00 22.4 C 71 % 16.88 C
1525 18-07-2015 01:50:00 22.2 C 71 % 16.69 C
Sensor: Nr:Datum:Temp:Feuchte:Taupunkt:
Aussen-T/F 1526 18-07-2015 01:55:00 22.1 C 72 % 16.82 C
1527 18-07-2015 02:00:00 21.9 C 72 % 16.62 C
1528 18-07-2015 02:05:00 21.8 C 72 % 16.53 C
1529 18-07-2015 02:10:00 21.7 C 73 % 16.65 C
1530 18-07-2015 02:15:00 21.7 C 72 % 16.43 C
1531 18-07-2015 02:20:00 21.9 C 71 % 16.4 C
1532 18-07-2015 02:25:00 22.1 C 71 % 16.6 C
1533 18-07-2015 02:30:00 22.2 C 69 % 16.24 C
1534 18-07-2015 02:35:00 22.5 C 68 % 16.3 C
1535 18-07-2015 02:40:00 22.7 C 67 % 16.26 C
1536 18-07-2015 02:45:00 22.7 C 67 % 16.26 C
1537 18-07-2015 02:50:00 22.7 C 67 % 16.26 C
1538 18-07-2015 02:55:00 22.5 C 68 % 16.3 C
1539 18-07-2015 03:00:00 22.3 C 69 % 16.34 C
1540 18-07-2015 03:05:00 22.1 C 70 % 16.37 C
1541 18-07-2015 03:10:00 21.7 C 71 % 16.21 C
1542 18-07-2015 03:15:00 21.4 C 72 % 16.14 C
1543 18-07-2015 03:20:00 21.2 C 73 % 16.17 C
1544 18-07-2015 03:25:00 21 C 74 % 16.19 C
1545 18-07-2015 03:30:00 20.9 C 74 % 16.09 C
1546 18-07-2015 03:35:00 20.9 C 74 % 16.09 C
1547 18-07-2015 03:40:00 20.9 C 74 % 16.09 C
1548 18-07-2015 03:45:00 20.8 C 74 % 16 C
1549 18-07-2015 03:50:00 20.8 C 74 % 16 C
1550 18-07-2015 03:55:00 20.7 C 75 % 16.11 C
Sensor: Nr:Datum:Temp:Feuchte:Taupunkt:
Aussen-T/F 1551 18-07-2015 04:00:00 20.7 C 75 % 16.11 C
1552 18-07-2015 04:05:00 20.7 C 75 % 16.11 C
1553 18-07-2015 04:10:00 20.7 C 75 % 16.11 C
1554 18-07-2015 04:15:00 20.7 C 75 % 16.11 C
1555 18-07-2015 04:20:00 20.6 C 76 % 16.22 C
1556 18-07-2015 04:25:00 20.6 C 76 % 16.22 C
1557 18-07-2015 04:30:00 20.4 C 77 % 16.23 C
1558 18-07-2015 04:35:00 20.4 C 77 % 16.23 C
1559 18-07-2015 04:40:00 20.4 C 77 % 16.23 C
1560 18-07-2015 04:45:00 20.5 C 77 % 16.33 C
1561 18-07-2015 04:50:00 20.5 C 77 % 16.33 C
1562 18-07-2015 04:55:00 20.4 C 77 % 16.23 C
1563 18-07-2015 05:00:00 20.5 C 76 % 16.12 C
1564 18-07-2015 05:05:00 20.6 C 76 % 16.22 C
1565 18-07-2015 05:10:00 20.5 C 76 % 16.12 C
1566 18-07-2015 05:15:00 20.5 C 76 % 16.12 C
1567 18-07-2015 05:20:00 20.6 C 76 % 16.22 C
1568 18-07-2015 05:25:00 20.8 C 77 % 16.62 C
1569 18-07-2015 05:30:00 20.8 C 76 % 16.41 C
1570 18-07-2015 05:35:00 20.8 C 78 % 16.82 C
1571 18-07-2015 05:40:00 20.8 C 79 % 17.02 C
1572 18-07-2015 05:45:00 20.7 C 80 % 17.13 C
1573 18-07-2015 05:50:00 20.7 C 80 % 17.13 C
1574 18-07-2015 05:55:00 20.7 C 81 % 17.32 C
1575 18-07-2015 06:00:00 20.6 C 81 % 17.22 C
Sensor: Nr:Datum:Temp:Feuchte:Taupunkt:
Aussen-T/F 1576 18-07-2015 06:05:00 20.6 C 81 % 17.22 C
1577 18-07-2015 06:10:00 20.6 C 81 % 17.22 C
1578 18-07-2015 06:15:00 20.6 C 81 % 17.22 C
1579 18-07-2015 06:20:00 20.5 C 81 % 17.13 C
1580 18-07-2015 06:25:00 20.5 C 82 % 17.32 C
1581 18-07-2015 06:30:00 20.4 C 82 % 17.22 C
1582 18-07-2015 06:35:00 20.4 C 82 % 17.22 C
1583 18-07-2015 06:40:00 20.4 C 82 % 17.22 C
1584 18-07-2015 06:45:00 20.4 C 82 % 17.22 C
1585 18-07-2015 06:50:00 20.3 C 83 % 17.32 C
1586 18-07-2015 06:55:00 20.3 C 83 % 17.32 C
1587 18-07-2015 07:00:00 20.3 C 84 % 17.51 C
1588 18-07-2015 07:05:00 20.3 C 84 % 17.51 C
1589 18-07-2015 07:10:00 20.4 C 83 % 17.42 C
1590 18-07-2015 07:15:00 20.5 C 83 % 17.51 C
1591 18-07-2015 07:20:00 20.6 C 83 % 17.61 C
1592 18-07-2015 07:25:00 20.6 C 83 % 17.61 C
1593 18-07-2015 07:30:00 20.7 C 83 % 17.71 C
1594 18-07-2015 07:35:00 20.7 C 83 % 17.71 C
1595 18-07-2015 07:40:00 20.8 C 82 % 17.61 C
1596 18-07-2015 07:45:00 20.9 C 82 % 17.71 C
1597 18-07-2015 07:50:00 21 C 82 % 17.81 C
1598 18-07-2015 07:55:00 21.1 C 82 % 17.91 C
1599 18-07-2015 08:00:00 21.2 C 81 % 17.81 C
1600 18-07-2015 08:05:00 21.2 C 81 % 17.81 C
Sensor: Nr:Datum:Temp:Feuchte:Taupunkt:
Aussen-T/F 1601 18-07-2015 08:10:00 21.3 C 81 % 17.91 C
1602 18-07-2015 08:15:00 21.4 C 80 % 17.81 C
1603 18-07-2015 08:20:00 21.4 C 81 % 18 C
1604 18-07-2015 08:25:00 21.5 C 80 % 17.9 C
1605 18-07-2015 08:30:00 21.6 C 80 % 18 C
1606 18-07-2015 08:35:00 21.6 C 80 % 18 C
1607 18-07-2015 08:40:00 21.7 C 79 % 17.9 C
1608 18-07-2015 08:45:00 21.7 C 79 % 17.9 C
1609 18-07-2015 08:50:00 21.8 C 79 % 18 C
1610 18-07-2015 08:55:00 21.8 C 79 % 18 C
1611 18-07-2015 09:00:00 21.9 C 79 % 18.09 C
1612 18-07-2015 09:05:00 22.1 C 78 % 18.08 C
1613 18-07-2015 09:10:00 22.4 C 77 % 18.17 C
1614 18-07-2015 09:15:00 22.7 C 76 % 18.25 C
1615 18-07-2015 09:20:00 22.8 C 75 % 18.14 C
1616 18-07-2015 09:25:00 22.9 C 74 % 18.02 C
1617 18-07-2015 09:30:00 23.1 C 72 % 17.78 C
1618 18-07-2015 09:35:00 23.2 C 71 % 17.65 C
1619 18-07-2015 09:40:00 23.2 C 71 % 17.65 C
1620 18-07-2015 09:45:00 23.2 C 70 % 17.42 C
1621 18-07-2015 09:50:00 23.3 C 70 % 17.52 C
1622 18-07-2015 09:55:00 23.4 C 69 % 17.39 C
1623 18-07-2015 10:00:00 23.6 C 68 % 17.35 C
1624 18-07-2015 10:05:00 23.7 C 70 % 17.9 C
1625 18-07-2015 10:10:00 24 C 66 % 17.26 C
Sensor: Nr:Datum:Temp:Feuchte:Taupunkt:
Aussen-T/F 1626 18-07-2015 10:15:00 24.3 C 66 % 17.54 C
1627 18-07-2015 10:20:00 24.7 C 65 % 17.68 C
1628 18-07-2015 10:25:00 25.1 C 63 % 17.56 C
1629 18-07-2015 10:30:00 25.4 C 61 % 17.33 C
1630 18-07-2015 10:35:00 25.6 C 60 % 17.26 C
1631 18-07-2015 10:40:00 25.7 C 60 % 17.35 C
1632 18-07-2015 10:45:00 25.7 C 60 % 17.35 C
1633 18-07-2015 10:50:00 25.7 C 60 % 17.35 C
1634 18-07-2015 10:55:00 25.7 C 60 % 17.35 C
1635 18-07-2015 11:00:00 26.1 C 60 % 17.73 C
1636 18-07-2015 11:05:00 26.3 C 58 % 17.38 C
1637 18-07-2015 11:10:00 26.4 C 56 % 16.92 C
1638 18-07-2015 11:15:00 26.2 C 56 % 16.73 C
1639 18-07-2015 11:20:00 26.2 C 58 % 17.28 C
1640 18-07-2015 11:25:00 26.4 C 56 % 16.92 C
1641 18-07-2015 11:30:00 26.8 C 54 % 16.71 C
1642 18-07-2015 11:35:00 26.9 C 54 % 16.81 C
1643 18-07-2015 11:40:00 26.9 C 54 % 16.81 C
1644 18-07-2015 11:45:00 26.8 C 54 % 16.71 C
1645 18-07-2015 11:50:00 26.8 C 55 % 17 C
1646 18-07-2015 11:55:00 27.1 C 54 % 16.99 C
1647 18-07-2015 12:00:00 27.1 C 53 % 16.7 C
1648 18-07-2015 12:05:00 27.2 C 53 % 16.79 C
1649 18-07-2015 12:10:00 27.3 C 52 % 16.58 C
1650 18-07-2015 12:15:00 27.3 C 52 % 16.58 C
Sensor: Nr:Datum:Temp:Feuchte:Taupunkt:
Aussen-T/F 1651 18-07-2015 12:20:00 27.6 C 50 % 16.24 C
1652 18-07-2015 12:25:00 27.8 C 48 % 15.78 C
1653 18-07-2015 12:30:00 27.8 C 48 % 15.78 C
1654 18-07-2015 12:35:00 27.7 C 49 % 16.01 C
1655 18-07-2015 12:40:00 27.5 C 49 % 15.83 C
1656 18-07-2015 12:45:00 27.4 C 49 % 15.74 C
1657 18-07-2015 12:50:00 27.3 C 49 % 15.65 C
1658 18-07-2015 12:55:00 27.3 C 49 % 15.65 C
1659 18-07-2015 13:00:00 27.3 C 49 % 15.65 C
1660 18-07-2015 13:05:00 27.3 C 50 % 15.97 C
1661 18-07-2015 13:10:00 27.3 C 49 % 15.65 C
1662 18-07-2015 13:15:00 27.6 C 48 % 15.6 C
1663 18-07-2015 13:20:00 27.7 C 48 % 15.69 C
1664 18-07-2015 13:25:00 27.7 C 48 % 15.69 C
1665 18-07-2015 13:30:00 27.6 C 48 % 15.6 C
1666 18-07-2015 13:35:00 27.6 C 48 % 15.6 C
1667 18-07-2015 13:40:00 27.6 C 48 % 15.6 C
1668 18-07-2015 13:45:00 27.8 C 47 % 15.45 C
1669 18-07-2015 13:50:00 27.9 C 48 % 15.87 C
1670 18-07-2015 13:55:00 27.9 C 46 % 15.21 C
1671 18-07-2015 14:00:00 27.9 C 47 % 15.55 C
1672 18-07-2015 14:05:00 27.9 C 46 % 15.21 C
1673 18-07-2015 14:10:00 28.2 C 47 % 15.82 C
1674 18-07-2015 14:15:00 28.2 C 45 % 15.14 C
1675 18-07-2015 14:20:00 28.2 C 45 % 15.14 C
Sensor: Nr:Datum:Temp:Feuchte:Taupunkt:
Aussen-T/F 1676 18-07-2015 14:25:00 28.1 C 46 % 15.39 C
1677 18-07-2015 14:30:00 28.1 C 45 % 15.05 C
1678 18-07-2015 14:35:00 28 C 45 % 14.96 C
1679 18-07-2015 14:40:00 27.9 C 47 % 15.55 C
1680 18-07-2015 14:45:00 27.9 C 44 % 14.52 C
1681 18-07-2015 14:50:00 27.8 C 45 % 14.78 C
1682 18-07-2015 14:55:00 27.8 C 44 % 14.43 C
1683 18-07-2015 15:00:00 27.6 C 45 % 14.6 C
1684 18-07-2015 15:05:00 27.6 C 47 % 15.27 C
1685 18-07-2015 15:10:00 27.4 C 46 % 14.76 C
1686 18-07-2015 15:15:00 27.3 C 47 % 15 C
1687 18-07-2015 15:20:00 27.2 C 47 % 14.91 C
1688 18-07-2015 15:25:00 27.2 C 49 % 15.56 C
1689 18-07-2015 15:30:00 27.1 C 47 % 14.82 C
1690 18-07-2015 15:35:00 27.1 C 47 % 14.82 C
1691 18-07-2015 15:40:00 27 C 47 % 14.73 C
1692 18-07-2015 15:45:00 26.9 C 46 % 14.3 C
1693 18-07-2015 15:50:00 26.8 C 46 % 14.21 C
1694 18-07-2015 15:55:00 26.8 C 46 % 14.21 C
1695 18-07-2015 16:00:00 26.8 C 46 % 14.21 C
1696 18-07-2015 16:05:00 26.8 C 46 % 14.21 C
1697 18-07-2015 16:10:00 26.8 C 46 % 14.21 C
1698 18-07-2015 16:15:00 26.7 C 47 % 14.45 C
1699 18-07-2015 16:20:00 26.8 C 46 % 14.21 C
1700 18-07-2015 16:25:00 26.9 C 45 % 13.96 C
Sensor: Nr:Datum:Temp:Feuchte:Taupunkt:
Aussen-T/F 1701 18-07-2015 16:30:00 26.8 C 44 % 13.53 C
1702 18-07-2015 16:35:00 26.7 C 46 % 14.12 C
1703 18-07-2015 16:40:00 26.7 C 45 % 13.78 C
1704 18-07-2015 16:45:00 26.7 C 45 % 13.78 C
1705 18-07-2015 16:50:00 26.7 C 44 % 13.44 C
1706 18-07-2015 16:55:00 26.8 C 44 % 13.53 C
1707 18-07-2015 17:00:00 26.8 C 44 % 13.53 C
1708 18-07-2015 17:05:00 26.8 C 44 % 13.53 C
1709 18-07-2015 17:10:00 27 C 45 % 14.06 C
1710 18-07-2015 17:15:00 27.1 C 45 % 14.15 C
1711 18-07-2015 17:20:00 27.1 C 45 % 14.15 C
1712 18-07-2015 17:25:00 27.1 C 45 % 14.15 C
1713 18-07-2015 19:45:00 26.1 C 51 % 15.17 C
1714 18-07-2015 19:50:00 25.8 C 52 % 15.2 C
1715 18-07-2015 19:55:00 25.7 C 45 % 12.88 C
1716 18-07-2015 20:00:00 25.8 C 48 % 13.96 C
1717 18-07-2015 20:05:00 25.8 C 46 % 13.31 C
1718 18-07-2015 20:10:00 25.9 C 44 % 12.72 C
1719 18-07-2015 20:15:00 26.1 C 44 % 12.9 C
1720 18-07-2015 20:20:00 26.2 C 44 % 12.99 C
1721 18-07-2015 20:25:00 26.2 C 43 % 12.64 C
1722 18-07-2015 20:30:00 26.2 C 43 % 12.64 C
1723 18-07-2015 20:35:00 26 C 42 % 12.1 C
1724 18-07-2015 20:40:00 26 C 42 % 12.1 C
1725 18-07-2015 20:45:00 26 C 43 % 12.46 C
Sensor: Nr:Datum:Temp:Feuchte:Taupunkt:
Aussen-T/F 1726 18-07-2015 20:50:00 25.4 C 43 % 11.92 C
1727 18-07-2015 20:55:00 25.3 C 43 % 11.83 C
1728 18-07-2015 21:00:00 25.1 C 44 % 12 C
1729 18-07-2015 21:05:00 24.7 C 48 % 12.96 C
1730 18-07-2015 21:10:00 24 C 51 % 13.24 C
1731 18-07-2015 21:15:00 23.3 C 52 % 12.9 C
1732 18-07-2015 21:20:00 22.8 C 53 % 12.73 C
1733 18-07-2015 21:25:00 22.3 C 55 % 12.83 C
1734 18-07-2015 21:30:00 22 C 55 % 12.55 C
1735 18-07-2015 21:35:00 21.8 C 56 % 12.64 C
1736 18-07-2015 21:40:00 21.6 C 58 % 12.99 C
1737 18-07-2015 21:45:00 21.3 C 59 % 12.97 C
1738 18-07-2015 21:50:00 21.2 C 60 % 13.13 C
1739 18-07-2015 21:55:00 21.1 C 59 % 12.78 C
1740 18-07-2015 22:00:00 20.9 C 59 % 12.59 C
1741 18-07-2015 22:05:00 20.8 C 61 % 13.01 C
1742 18-07-2015 22:10:00 20.8 C 61 % 13.01 C
1743 18-07-2015 22:15:00 20.8 C 61 % 13.01 C
1744 18-07-2015 22:20:00 20.6 C 61 % 12.82 C
1745 18-07-2015 22:25:00 20.4 C 62 % 12.88 C
1746 18-07-2015 22:30:00 20.3 C 62 % 12.79 C
1747 18-07-2015 22:35:00 20.2 C 61 % 12.44 C
1748 18-07-2015 22:40:00 20.2 C 61 % 12.44 C
1749 18-07-2015 22:45:00 20.2 C 63 % 12.94 C
1750 18-07-2015 22:50:00 20.1 C 63 % 12.84 C
Sensor: Nr:Datum:Temp:Feuchte:Taupunkt:
Aussen-T/F 1751 18-07-2015 22:55:00 20 C 63 % 12.75 C
1752 18-07-2015 23:00:00 19.9 C 63 % 12.65 C
1753 18-07-2015 23:05:00 19.8 C 63 % 12.56 C
1754 18-07-2015 23:10:00 19.7 C 63 % 12.46 C
1755 18-07-2015 23:15:00 19.6 C 64 % 12.61 C
1756 18-07-2015 23:20:00 19.5 C 64 % 12.51 C
1757 18-07-2015 23:25:00 19.4 C 64 % 12.42 C
1758 18-07-2015 23:30:00 19.4 C 64 % 12.42 C
1759 18-07-2015 23:35:00 19.3 C 66 % 12.79 C
1760 18-07-2015 23:40:00 19.3 C 65 % 12.56 C
1761 18-07-2015 23:45:00 19.2 C 66 % 12.7 C
1762 18-07-2015 23:50:00 19.2 C 66 % 12.7 C
1763 18-07-2015 23:55:00 19.1 C 66 % 12.6 C
1764 19-07-2015 00:00:00 18.9 C 67 % 12.64 C
1765 19-07-2015 00:05:00 18.9 C 67 % 12.64 C
1766 19-07-2015 00:10:00 18.8 C 68 % 12.77 C
1767 19-07-2015 00:15:00 18.8 C 68 % 12.77 C
1768 19-07-2015 05:10:00 16.7 C 91 % 15.22 C
1769 19-07-2015 05:15:00 16.5 C 91 % 15.03 C
1770 19-07-2015 05:20:00 16.3 C 91 % 14.83 C
1771 19-07-2015 05:25:00 16.3 C 92 % 15 C
1772 19-07-2015 05:30:00 16.2 C 92 % 14.9 C
1773 19-07-2015 05:35:00 16.2 C 93 % 15.07 C
1774 19-07-2015 05:40:00 16.1 C 93 % 14.97 C
1775 19-07-2015 05:45:00 16.1 C 93 % 14.97 C
Sensor: Nr:Datum:Temp:Feuchte:Taupunkt:
Aussen-T/F 1776 19-07-2015 07:00:00 16.4 C 95 % 15.6 C
1777 19-07-2015 07:05:00 16.3 C 95 % 15.5 C
1778 19-07-2015 07:10:00 16.3 C 94 % 15.33 C
1779 19-07-2015 07:15:00 16.3 C 94 % 15.33 C
1780 19-07-2015 08:40:00 17.1 C 95 % 16.29 C
1781 19-07-2015 08:45:00 17.1 C 95 % 16.29 C
1782 19-07-2015 08:50:00 17.2 C 95 % 16.39 C
1783 19-07-2015 08:55:00 17.2 C 95 % 16.39 C
1784 19-07-2015 09:00:00 17.2 C 95 % 16.39 C
1785 19-07-2015 09:05:00 17.2 C 95 % 16.39 C
1786 19-07-2015 09:10:00 17.2 C 95 % 16.39 C
1787 19-07-2015 09:15:00 17.2 C 95 % 16.39 C
1788 19-07-2015 09:40:00 18 C 100 % 18 C
1789 19-07-2015 09:45:00 18 C 100 % 18 C
1790 19-07-2015 09:50:00 18.1 C 94 % 17.12 C
1791 19-07-2015 09:55:00 18.3 C 94 % 17.32 C
1792 19-07-2015 10:00:00 18.3 C 94 % 17.32 C
1793 19-07-2015 10:05:00 18.3 C 94 % 17.32 C
1794 19-07-2015 10:25:00 19.8 C 94 % 18.81 C
1795 19-07-2015 10:30:00 20.1 C 93 % 18.93 C
1796 19-07-2015 10:35:00 20.4 C 92 % 19.06 C
1797 19-07-2015 10:40:00 20.4 C 90 % 18.7 C
1798 19-07-2015 10:45:00 21 C 89 % 19.12 C
1799 19-07-2015 10:50:00 21.1 C 89 % 19.22 C
1800 19-07-2015 10:55:00 21.4 C 88 % 19.33 C
Sensor: Nr:Datum:Temp:Feuchte:Taupunkt:
Aussen-T/F 1801 19-07-2015 11:00:00 21.7 C 87 % 19.44 C
1802 19-07-2015 11:05:00 21.9 C 86 % 19.45 C
1803 19-07-2015 11:10:00 22.1 C 87 % 19.83 C
1804 19-07-2015 11:15:00 22.2 C 86 % 19.75 C
1805 19-07-2015 11:20:00 22.3 C 85 % 19.65 C
1806 19-07-2015 11:25:00 22.4 C 84 % 19.56 C
1807 19-07-2015 11:30:00 22.5 C 84 % 19.66 C
1808 19-07-2015 11:35:00 22.7 C 84 % 19.86 C
1809 19-07-2015 11:40:00 22.9 C 82 % 19.66 C
1810 19-07-2015 11:45:00 23.2 C 82 % 19.95 C
1811 19-07-2015 11:50:00 23.3 C 81 % 19.85 C
1812 19-07-2015 11:55:00 23.2 C 80 % 19.56 C
1813 19-07-2015 12:00:00 22.9 C 80 % 19.26 C
1814 19-07-2015 12:05:00 22.6 C 81 % 19.17 C
1815 19-07-2015 12:10:00 22.4 C 83 % 19.37 C
1816 19-07-2015 12:15:00 22.4 C 82 % 19.17 C
1817 19-07-2015 12:20:00 22.4 C 82 % 19.17 C
1818 19-07-2015 12:25:00 22.4 C 83 % 19.37 C
1819 19-07-2015 12:30:00 22.7 C 81 % 19.27 C
1820 19-07-2015 12:35:00 22.8 C 80 % 19.17 C
1821 19-07-2015 12:40:00 23.1 C 81 % 19.66 C
1822 19-07-2015 12:45:00 23.3 C 79 % 19.45 C
1823 19-07-2015 12:50:00 23.4 C 77 % 19.14 C
1824 19-07-2015 12:55:00 23.5 C 79 % 19.65 C
1825 19-07-2015 13:00:00 23.6 C 78 % 19.54 C
Sensor: Nr:Datum:Temp:Feuchte:Taupunkt:
Aussen-T/F 1826 19-07-2015 13:05:00 23.6 C 77 % 19.33 C
1827 19-07-2015 13:10:00 23.5 C 78 % 19.44 C
1828 19-07-2015 13:15:00 23.3 C 78 % 19.25 C
1829 19-07-2015 13:20:00 23.2 C 78 % 19.15 C
1830 19-07-2015 13:25:00 23.1 C 79 % 19.26 C
1831 19-07-2015 13:30:00 23 C 81 % 19.56 C
1832 19-07-2015 13:35:00 22.9 C 81 % 19.46 C
1833 19-07-2015 13:40:00 23 C 80 % 19.36 C
1834 19-07-2015 13:45:00 23.1 C 80 % 19.46 C
1835 19-07-2015 13:50:00 23.1 C 81 % 19.66 C
1836 19-07-2015 13:55:00 23.3 C 81 % 19.85 C
1837 19-07-2015 14:00:00 23.6 C 78 % 19.54 C
1838 19-07-2015 14:05:00 23.8 C 76 % 19.31 C
1839 19-07-2015 14:10:00 23.9 C 76 % 19.41 C
1840 19-07-2015 14:15:00 23.9 C 76 % 19.41 C
1841 19-07-2015 14:20:00 23.9 C 75 % 19.2 C
1842 19-07-2015 14:25:00 24 C 75 % 19.29 C
1843 19-07-2015 14:30:00 24.1 C 74 % 19.17 C
1844 19-07-2015 14:35:00 23.9 C 74 % 18.98 C
1845 19-07-2015 14:40:00 23.7 C 76 % 19.22 C
1846 19-07-2015 14:45:00 23.5 C 76 % 19.02 C
1847 19-07-2015 14:50:00 23.5 C 76 % 19.02 C
1848 19-07-2015 14:55:00 23.5 C 75 % 18.81 C
1849 19-07-2015 15:00:00 23.6 C 78 % 19.54 C
1850 19-07-2015 15:05:00 23.6 C 76 % 19.12 C
Sensor: Nr:Datum:Temp:Feuchte:Taupunkt:
Aussen-T/F 1851 19-07-2015 15:10:00 23.7 C 75 % 19 C
1852 19-07-2015 15:15:00 23.8 C 73 % 18.67 C
1853 19-07-2015 15:20:00 24.1 C 73 % 18.96 C
1854 19-07-2015 15:25:00 24.3 C 72 % 18.93 C
1855 19-07-2015 15:30:00 24.5 C 71 % 18.89 C
1856 19-07-2015 15:35:00 24.5 C 70 % 18.67 C
1857 19-07-2015 15:40:00 24.4 C 69 % 18.34 C
1858 19-07-2015 15:45:00 24.4 C 69 % 18.34 C
1859 19-07-2015 15:50:00 24.4 C 69 % 18.34 C
1860 19-07-2015 15:55:00 24.4 C 71 % 18.8 C
1861 19-07-2015 16:00:00 24.1 C 74 % 19.17 C
1862 19-07-2015 16:05:00 23.7 C 76 % 19.22 C
1863 19-07-2015 16:10:00 23.3 C 78 % 19.25 C
1864 19-07-2015 16:15:00 22.9 C 79 % 19.06 C
1865 19-07-2015 16:20:00 22.7 C 80 % 19.07 C
1866 19-07-2015 16:25:00 22.4 C 82 % 19.17 C
1867 19-07-2015 16:30:00 22.3 C 83 % 19.27 C
1868 19-07-2015 16:35:00 22.3 C 83 % 19.27 C
1869 19-07-2015 16:40:00 22.3 C 84 % 19.46 C
1870 19-07-2015 16:45:00 22.3 C 84 % 19.46 C
1871 19-07-2015 16:50:00 22.5 C 82 % 19.27 C
1872 19-07-2015 16:55:00 22.8 C 81 % 19.37 C
1873 19-07-2015 17:00:00 23.2 C 75 % 18.52 C
1874 19-07-2015 17:05:00 23.8 C 69 % 17.77 C
1875 19-07-2015 17:10:00 24 C 69 % 17.96 C
Sensor: Nr:Datum:Temp:Feuchte:Taupunkt:
Aussen-T/F 1876 19-07-2015 17:15:00 24.1 C 66 % 17.35 C
1877 19-07-2015 17:20:00 23.9 C 66 % 17.16 C
1878 19-07-2015 17:25:00 23.8 C 66 % 17.07 C
1879 19-07-2015 17:30:00 23.5 C 67 % 17.02 C
1880 19-07-2015 17:35:00 23.3 C 66 % 16.59 C
1881 19-07-2015 17:40:00 23.2 C 67 % 16.73 C
1882 19-07-2015 17:45:00 23.3 C 68 % 17.06 C
1883 19-07-2015 17:50:00 23.4 C 68 % 17.16 C
1884 19-07-2015 17:55:00 23.4 C 69 % 17.39 C
1885 19-07-2015 18:00:00 23.4 C 69 % 17.39 C
1886 19-07-2015 18:05:00 23.4 C 68 % 17.16 C
1887 19-07-2015 18:10:00 23.4 C 65 % 16.45 C
1888 19-07-2015 18:15:00 23.3 C 65 % 16.35 C
1889 19-07-2015 18:20:00 23.2 C 66 % 16.5 C
1890 19-07-2015 18:25:00 23.2 C 65 % 16.26 C
1891 19-07-2015 18:30:00 23.1 C 65 % 16.16 C
1892 19-07-2015 18:35:00 23.1 C 65 % 16.16 C
1893 19-07-2015 18:40:00 23 C 66 % 16.31 C
1894 19-07-2015 18:45:00 23 C 66 % 16.31 C
1895 19-07-2015 18:50:00 23 C 67 % 16.54 C
1896 19-07-2015 18:55:00 23 C 67 % 16.54 C
1897 19-07-2015 19:00:00 23 C 66 % 16.31 C
1898 19-07-2015 19:05:00 22.9 C 67 % 16.45 C
1899 19-07-2015 19:10:00 22.9 C 67 % 16.45 C
1900 19-07-2015 19:15:00 22.9 C 67 % 16.45 C
Sensor: Nr:Datum:Temp:Feuchte:Taupunkt:
Aussen-T/F 1901 19-07-2015 19:20:00 22.9 C 68 % 16.68 C
1902 19-07-2015 19:25:00 22.8 C 67 % 16.35 C
1903 19-07-2015 19:30:00 22.8 C 67 % 16.35 C
1904 19-07-2015 19:35:00 22.9 C 67 % 16.45 C
1905 19-07-2015 19:40:00 22.9 C 66 % 16.21 C
1906 19-07-2015 19:45:00 22.8 C 66 % 16.12 C
1907 19-07-2015 19:50:00 22.7 C 66 % 16.02 C
1908 19-07-2015 19:55:00 22.6 C 67 % 16.16 C
1909 19-07-2015 20:00:00 22.4 C 67 % 15.97 C
1910 19-07-2015 20:05:00 22.3 C 68 % 16.11 C
1911 19-07-2015 20:10:00 22.2 C 68 % 16.01 C
1912 19-07-2015 20:15:00 22.1 C 69 % 16.15 C
1913 19-07-2015 20:20:00 22 C 70 % 16.28 C
1914 19-07-2015 20:25:00 21.9 C 70 % 16.18 C
1915 19-07-2015 20:30:00 21.9 C 71 % 16.4 C
1916 19-07-2015 20:35:00 21.8 C 71 % 16.31 C
1917 19-07-2015 20:40:00 21.8 C 71 % 16.31 C
1918 19-07-2015 20:45:00 21.8 C 71 % 16.31 C
1919 19-07-2015 20:50:00 21.7 C 72 % 16.43 C
1920 19-07-2015 20:55:00 21.7 C 72 % 16.43 C
1921 19-07-2015 21:00:00 21.7 C 72 % 16.43 C
1922 19-07-2015 21:05:00 21.6 C 73 % 16.55 C
1923 19-07-2015 21:10:00 21.6 C 73 % 16.55 C
1924 19-07-2015 21:15:00 21.6 C 73 % 16.55 C
1925 19-07-2015 21:20:00 21.5 C 73 % 16.46 C
Sensor: Nr:Datum:Temp:Feuchte:Taupunkt:
Aussen-T/F 1926 19-07-2015 21:25:00 21.5 C 73 % 16.46 C
1927 19-07-2015 21:30:00 21.5 C 73 % 16.46 C
1928 20-07-2015 07:10:00 18.3 C 92 % 16.98 C
1929 20-07-2015 07:15:00 18.3 C 92 % 16.98 C
1930 20-07-2015 07:20:00 18.3 C 93 % 17.15 C
1931 20-07-2015 07:25:00 18.3 C 93 % 17.15 C
1932 20-07-2015 07:30:00 18.3 C 93 % 17.15 C
1933 20-07-2015 07:35:00 18.3 C 93 % 17.15 C
1934 20-07-2015 07:40:00 18.3 C 93 % 17.15 C
1935 20-07-2015 07:45:00 18.3 C 93 % 17.15 C
1936 20-07-2015 07:50:00 18.3 C 94 % 17.32 C
1937 20-07-2015 07:55:00 18.3 C 94 % 17.32 C
1938 20-07-2015 08:00:00 18.4 C 94 % 17.42 C
1939 20-07-2015 08:05:00 18.4 C 94 % 17.42 C
1940 20-07-2015 08:10:00 18.4 C 94 % 17.42 C
1941 20-07-2015 08:15:00 18.4 C 94 % 17.42 C
1942 20-07-2015 08:20:00 18.4 C 94 % 17.42 C
1943 20-07-2015 08:25:00 18.5 C 94 % 17.52 C
1944 20-07-2015 08:30:00 18.6 C 94 % 17.62 C
1945 20-07-2015 08:35:00 18.6 C 94 % 17.62 C
1946 20-07-2015 08:40:00 18.6 C 95 % 17.78 C
1947 20-07-2015 08:45:00 18.6 C 95 % 17.78 C
1948 20-07-2015 08:50:00 18.6 C 95 % 17.78 C
1949 20-07-2015 08:55:00 18.7 C 95 % 17.88 C
1950 20-07-2015 09:00:00 18.7 C 95 % 17.88 C
Sensor: Nr:Datum:Temp:Feuchte:Taupunkt:
Aussen-T/F 1951 20-07-2015 09:05:00 18.8 C 95 % 17.98 C
1952 20-07-2015 09:10:00 18.9 C 95 % 18.08 C
1953 20-07-2015 09:15:00 18.9 C 95 % 18.08 C
1954 20-07-2015 09:20:00 18.9 C 95 % 18.08 C
1955 20-07-2015 09:40:00 19.2 C 94 % 18.21 C
1956 20-07-2015 09:45:00 19.2 C 94 % 18.21 C
1957 20-07-2015 09:50:00 19.3 C 95 % 18.48 C
1958 20-07-2015 09:55:00 19.4 C 94 % 18.41 C
1959 20-07-2015 10:00:00 19.4 C 94 % 18.41 C
1960 20-07-2015 10:05:00 19.5 C 94 % 18.51 C
1961 20-07-2015 10:10:00 19.6 C 94 % 18.61 C
1962 20-07-2015 10:15:00 19.8 C 94 % 18.81 C
1963 20-07-2015 10:20:00 20 C 94 % 19 C
1964 20-07-2015 10:25:00 20.1 C 94 % 19.1 C
1965 20-07-2015 10:30:00 20.3 C 94 % 19.3 C
1966 20-07-2015 10:35:00 20.3 C 92 % 18.96 C
1967 20-07-2015 10:40:00 20.5 C 92 % 19.15 C
1968 20-07-2015 10:45:00 20.6 C 92 % 19.25 C
1969 20-07-2015 10:50:00 20.6 C 92 % 19.25 C
1970 20-07-2015 10:55:00 20.6 C 91 % 19.08 C
1971 20-07-2015 11:00:00 20.6 C 91 % 19.08 C
1972 20-07-2015 11:05:00 20.7 C 92 % 19.35 C
1973 20-07-2015 11:10:00 20.8 C 92 % 19.45 C
1974 20-07-2015 11:15:00 20.9 C 91 % 19.37 C
1975 20-07-2015 11:20:00 21.1 C 92 % 19.75 C
Sensor: Nr:Datum:Temp:Feuchte:Taupunkt:
Aussen-T/F 1976 20-07-2015 11:25:00 21.3 C 92 % 19.95 C
1977 20-07-2015 11:30:00 21.4 C 91 % 19.87 C
1978 20-07-2015 11:35:00 21.6 C 90 % 19.89 C
1979 20-07-2015 11:40:00 21.8 C 90 % 20.09 C
1980 20-07-2015 11:45:00 21.9 C 88 % 19.82 C
1981 20-07-2015 11:50:00 22 C 89 % 20.1 C
1982 20-07-2015 11:55:00 22.1 C 87 % 19.83 C
1983 20-07-2015 12:00:00 22.1 C 89 % 20.2 C
1984 20-07-2015 12:05:00 22.1 C 88 % 20.02 C
1985 20-07-2015 12:10:00 22.1 C 87 % 19.83 C
1986 20-07-2015 12:15:00 22.2 C 87 % 19.93 C
1987 20-07-2015 12:20:00 22.3 C 86 % 19.84 C
1988 20-07-2015 12:25:00 22.6 C 87 % 20.32 C
1989 20-07-2015 12:30:00 22.9 C 84 % 20.05 C
1990 20-07-2015 12:35:00 23.5 C 84 % 20.64 C
1991 20-07-2015 12:40:00 24 C 80 % 20.33 C
1992 20-07-2015 12:45:00 24.4 C 79 % 20.52 C
1993 20-07-2015 12:50:00 24.4 C 77 % 20.1 C
1994 20-07-2015 12:55:00 24.3 C 77 % 20.01 C
1995 20-07-2015 13:00:00 24.1 C 78 % 20.02 C
1996 20-07-2015 13:05:00 24.2 C 78 % 20.12 C
1997 20-07-2015 13:10:00 24.4 C 77 % 20.1 C
1998 20-07-2015 13:15:00 24.4 C 77 % 20.1 C
1999 20-07-2015 13:20:00 24.4 C 79 % 20.52 C
2000 20-07-2015 13:25:00 24.4 C 76 % 19.89 C
Sensor: Nr:Datum:Temp:Feuchte:Taupunkt:
Aussen-T/F 2001 20-07-2015 13:30:00 24.4 C 75 % 19.68 C
2002 20-07-2015 13:35:00 24.4 C 78 % 20.31 C
2003 20-07-2015 13:40:00 24.3 C 79 % 20.42 C
2004 20-07-2015 13:45:00 24 C 78 % 19.92 C
2005 20-07-2015 13:50:00 23.7 C 80 % 20.04 C
2006 20-07-2015 13:55:00 23.6 C 81 % 20.15 C
2007 20-07-2015 14:00:00 23.6 C 82 % 20.34 C
2008 20-07-2015 14:05:00 23.4 C 81 % 19.95 C
2009 20-07-2015 14:10:00 23.2 C 84 % 20.34 C
2010 20-07-2015 14:15:00 22.8 C 84 % 19.95 C
2011 20-07-2015 14:20:00 22.6 C 86 % 20.14 C
2012 20-07-2015 14:25:00 22.4 C 89 % 20.5 C
2013 20-07-2015 14:30:00 22.3 C 90 % 20.58 C
2014 20-07-2015 14:35:00 22.2 C 90 % 20.48 C
2015 20-07-2015 14:40:00 22.1 C 90 % 20.38 C
2016 20-07-2015 14:45:00 21.9 C 91 % 20.36 C
2017 20-07-2015 14:50:00 21.9 C 92 % 20.54 C
2018 20-07-2015 14:55:00 21.9 C 92 % 20.54 C
2019 20-07-2015 15:00:00 21.9 C 93 % 20.72 C
2020 20-07-2015 15:05:00 21.9 C 93 % 20.72 C
2021 20-07-2015 15:45:00 22.6 C 91 % 21.05 C
2022 20-07-2015 15:50:00 22.8 C 91 % 21.25 C
2023 20-07-2015 15:55:00 22.8 C 90 % 21.07 C
2024 20-07-2015 16:00:00 23 C 91 % 21.45 C
2025 20-07-2015 16:05:00 23.3 C 92 % 21.93 C
Sensor: Nr:Datum:Temp:Feuchte:Taupunkt:
Aussen-T/F 2026 20-07-2015 16:10:00 23.6 C 91 % 22.04 C
2027 20-07-2015 16:15:00 23.9 C 89 % 21.97 C
2028 20-07-2015 16:20:00 24.1 C 86 % 21.61 C
2029 20-07-2015 16:25:00 24.2 C 89 % 22.27 C
2030 20-07-2015 16:30:00 24.1 C 88 % 21.99 C
2031 20-07-2015 16:35:00 24.2 C 84 % 21.32 C
2032 20-07-2015 16:40:00 24.4 C 84 % 21.52 C
2033 20-07-2015 16:45:00 24.7 C 86 % 22.2 C
2034 20-07-2015 16:50:00 25.1 C 81 % 21.61 C
2035 20-07-2015 16:55:00 25.8 C 80 % 22.08 C
2036 20-07-2015 17:00:00 26.1 C 80 % 22.38 C
2037 20-07-2015 17:05:00 25.8 C 77 % 21.46 C
2038 20-07-2015 17:10:00 25.6 C 81 % 22.09 C
2039 20-07-2015 17:15:00 25.4 C 81 % 21.9 C
2040 20-07-2015 17:20:00 25.4 C 79 % 21.49 C
2041 20-07-2015 17:25:00 25.3 C 80 % 21.6 C
2042 20-07-2015 17:30:00 25.1 C 79 % 21.2 C
2043 20-07-2015 17:35:00 24.9 C 81 % 21.41 C
2044 20-07-2015 17:40:00 24.9 C 81 % 21.41 C
2045 20-07-2015 17:45:00 24.8 C 81 % 21.31 C
2046 20-07-2015 17:50:00 24.8 C 82 % 21.52 C
2047 20-07-2015 17:55:00 24.8 C 80 % 21.11 C
2048 20-07-2015 18:00:00 24.8 C 77 % 20.49 C
2049 20-07-2015 18:05:00 24.9 C 79 % 21 C
2050 20-07-2015 18:10:00 24.8 C 78 % 20.7 C
Sensor: Nr:Datum:Temp:Feuchte:Taupunkt:
Aussen-T/F 2051 20-07-2015 18:15:00 24.7 C 79 % 20.81 C
2052 20-07-2015 18:20:00 24.7 C 77 % 20.39 C
2053 20-07-2015 18:25:00 24.7 C 79 % 20.81 C
2054 20-07-2015 18:30:00 24.6 C 80 % 20.92 C
2055 20-07-2015 18:35:00 24.5 C 83 % 21.42 C
2056 20-07-2015 18:40:00 24.2 C 85 % 21.52 C
2057 20-07-2015 18:45:00 23.9 C 84 % 21.03 C
2058 20-07-2015 18:50:00 23.9 C 82 % 20.64 C
2059 20-07-2015 18:55:00 24.1 C 85 % 21.42 C
2060 20-07-2015 19:00:00 23.9 C 85 % 21.22 C
2061 20-07-2015 19:05:00 23.8 C 85 % 21.12 C
2062 20-07-2015 19:10:00 23.8 C 84 % 20.93 C
2063 20-07-2015 19:15:00 23.9 C 83 % 20.83 C
2064 20-07-2015 19:20:00 23.8 C 84 % 20.93 C
2065 20-07-2015 19:25:00 23.6 C 85 % 20.93 C
2066 20-07-2015 19:30:00 23.4 C 87 % 21.11 C
2067 20-07-2015 19:35:00 23.1 C 88 % 21 C
2068 20-07-2015 19:40:00 22.9 C 88 % 20.81 C
2069 20-07-2015 19:45:00 22.9 C 89 % 20.99 C
2070 20-07-2015 19:50:00 22.8 C 89 % 20.89 C
2071 20-07-2015 19:55:00 22.6 C 90 % 20.87 C
2072 20-07-2015 20:00:00 22.4 C 90 % 20.68 C
2073 20-07-2015 20:05:00 22.4 C 89 % 20.5 C
2074 20-07-2015 20:10:00 22.7 C 88 % 20.61 C
2075 20-07-2015 20:15:00 22.7 C 88 % 20.61 C
Sensor: Nr:Datum:Temp:Feuchte:Taupunkt:
Aussen-T/F 2076 20-07-2015 20:20:00 22.7 C 89 % 20.79 C
2077 20-07-2015 20:25:00 22.5 C 89 % 20.59 C
2078 20-07-2015 20:30:00 22.4 C 90 % 20.68 C
2079 20-07-2015 20:35:00 22.3 C 90 % 20.58 C
2080 20-07-2015 20:40:00 22.2 C 90 % 20.48 C
2081 20-07-2015 20:45:00 22.1 C 90 % 20.38 C
2082 20-07-2015 20:50:00 22 C 90 % 20.28 C
2083 20-07-2015 20:55:00 21.9 C 91 % 20.36 C
2084 20-07-2015 21:00:00 21.8 C 91 % 20.26 C
2085 20-07-2015 21:05:00 21.8 C 91 % 20.26 C
2086 20-07-2015 21:10:00 21.7 C 91 % 20.17 C
2087 20-07-2015 21:15:00 21.6 C 92 % 20.24 C
2088 20-07-2015 21:20:00 21.5 C 92 % 20.14 C
2089 20-07-2015 21:25:00 21.4 C 92 % 20.05 C
2090 20-07-2015 21:30:00 21.3 C 93 % 20.12 C
2091 20-07-2015 21:35:00 21.4 C 93 % 20.22 C
2092 20-07-2015 21:40:00 21.4 C 93 % 20.22 C
2093 20-07-2015 21:45:00 21.4 C 92 % 20.05 C
2094 20-07-2015 21:50:00 21.3 C 93 % 20.12 C
2095 20-07-2015 21:55:00 21.3 C 93 % 20.12 C
2096 20-07-2015 22:00:00 21.2 C 93 % 20.02 C
2097 20-07-2015 22:05:00 21.1 C 93 % 19.92 C
2098 20-07-2015 22:10:00 20.9 C 93 % 19.72 C
2099 20-07-2015 22:15:00 20.8 C 93 % 19.63 C
2100 20-07-2015 22:20:00 20.7 C 93 % 19.53 C
Sensor: Nr:Datum:Temp:Feuchte:Taupunkt:
Aussen-T/F 2101 20-07-2015 22:25:00 20.6 C 93 % 19.43 C
2102 20-07-2015 22:30:00 20.5 C 93 % 19.33 C
2103 20-07-2015 22:35:00 20.4 C 93 % 19.23 C
2104 20-07-2015 22:40:00 20.4 C 94 % 19.4 C
2105 20-07-2015 22:45:00 20.3 C 93 % 19.13 C
2106 20-07-2015 22:50:00 20.3 C 94 % 19.3 C
2107 20-07-2015 22:55:00 20.3 C 94 % 19.3 C
2108 21-07-2015 02:25:00 18.7 C 95 % 17.88 C
2109 21-07-2015 02:30:00 18.7 C 95 % 17.88 C
2110 21-07-2015 02:35:00 18.8 C 96 % 18.15 C
2111 21-07-2015 02:40:00 18.8 C 96 % 18.15 C
2112 21-07-2015 03:55:00 19 C 96 % 18.35 C
2113 21-07-2015 04:00:00 19 C 96 % 18.35 C
2114 21-07-2015 04:05:00 18.9 C 96 % 18.25 C
2115 21-07-2015 04:10:00 18.9 C 96 % 18.25 C
2116 21-07-2015 04:15:00 18.9 C 96 % 18.25 C
2117 21-07-2015 04:20:00 18.8 C 96 % 18.15 C
2118 21-07-2015 04:25:00 18.8 C 96 % 18.15 C
2119 21-07-2015 04:30:00 18.8 C 96 % 18.15 C
2120 21-07-2015 05:30:00 18.3 C 96 % 17.65 C
2121 21-07-2015 05:35:00 18.3 C 96 % 17.65 C
2122 21-07-2015 07:25:00 18.4 C 97 % 17.91 C
2123 21-07-2015 07:30:00 18.6 C 96 % 17.95 C
2124 21-07-2015 07:35:00 18.7 C 96 % 18.05 C
2125 21-07-2015 07:40:00 18.8 C 97 % 18.31 C
Sensor: Nr:Datum:Temp:Feuchte:Taupunkt:
Aussen-T/F 2126 21-07-2015 07:45:00 18.8 C 97 % 18.31 C
2127 21-07-2015 08:05:00 19.9 C 94 % 18.91 C
2128 21-07-2015 08:10:00 20.3 C 93 % 19.13 C
2129 21-07-2015 08:15:00 20.7 C 91 % 19.18 C
2130 21-07-2015 08:20:00 21.1 C 90 % 19.39 C
2131 21-07-2015 08:25:00 21.4 C 88 % 19.33 C
2132 21-07-2015 08:30:00 21.7 C 87 % 19.44 C
2133 21-07-2015 08:35:00 21.9 C 86 % 19.45 C
2134 21-07-2015 08:40:00 22 C 85 % 19.36 C
2135 21-07-2015 08:45:00 22.2 C 85 % 19.56 C
2136 21-07-2015 08:50:00 22.2 C 85 % 19.56 C
2137 21-07-2015 08:55:00 22.7 C 85 % 20.05 C
2138 21-07-2015 09:00:00 22.8 C 85 % 20.14 C
2139 21-07-2015 09:05:00 22.7 C 82 % 19.47 C
2140 21-07-2015 09:10:00 22.7 C 82 % 19.47 C
2141 21-07-2015 09:15:00 22.6 C 82 % 19.37 C
2142 21-07-2015 09:20:00 22.5 C 83 % 19.47 C
2143 21-07-2015 09:25:00 22.5 C 82 % 19.27 C
2144 21-07-2015 09:30:00 22.3 C 82 % 19.08 C
2145 21-07-2015 09:35:00 22.3 C 82 % 19.08 C
2146 21-07-2015 09:40:00 22.8 C 82 % 19.56 C
2147 21-07-2015 09:45:00 22.8 C 81 % 19.37 C
2148 21-07-2015 09:50:00 22.8 C 81 % 19.37 C
2149 21-07-2015 09:55:00 22.9 C 81 % 19.46 C
2150 21-07-2015 10:00:00 22.9 C 81 % 19.46 C
Sensor: Nr:Datum:Temp:Feuchte:Taupunkt:
Aussen-T/F 2151 21-07-2015 10:05:00 23.2 C 81 % 19.76 C
2152 21-07-2015 10:10:00 23.4 C 79 % 19.55 C
2153 21-07-2015 10:15:00 23.4 C 78 % 19.34 C
2154 21-07-2015 10:20:00 23.5 C 79 % 19.65 C
2155 21-07-2015 10:25:00 23.7 C 78 % 19.63 C
2156 21-07-2015 10:30:00 23.9 C 77 % 19.62 C
2157 21-07-2015 10:35:00 24.2 C 75 % 19.49 C
2158 21-07-2015 10:40:00 24.3 C 74 % 19.37 C
2159 21-07-2015 10:45:00 24.4 C 74 % 19.46 C
2160 21-07-2015 10:50:00 24.6 C 74 % 19.66 C
2161 21-07-2015 10:55:00 24.8 C 73 % 19.63 C
2162 21-07-2015 11:00:00 24.6 C 73 % 19.44 C
2163 21-07-2015 11:05:00 24.6 C 74 % 19.66 C
2164 21-07-2015 11:10:00 24.8 C 75 % 20.06 C
2165 21-07-2015 11:15:00 24.9 C 72 % 19.5 C
2166 21-07-2015 11:20:00 25 C 73 % 19.82 C
2167 21-07-2015 11:25:00 24.9 C 73 % 19.72 C
2168 21-07-2015 11:30:00 25 C 72 % 19.6 C
2169 21-07-2015 11:35:00 25.2 C 72 % 19.79 C
2170 21-07-2015 11:40:00 25.4 C 72 % 19.98 C
2171 21-07-2015 11:45:00 25.6 C 70 % 19.72 C
2172 21-07-2015 11:50:00 25.7 C 72 % 20.27 C
2173 21-07-2015 11:55:00 25.9 C 70 % 20.01 C
2174 21-07-2015 12:00:00 26.2 C 67 % 19.59 C
2175 21-07-2015 12:05:00 26.6 C 68 % 20.2 C
Sensor: Nr:Datum:Temp:Feuchte:Taupunkt:
Aussen-T/F 2176 21-07-2015 12:10:00 26.5 C 65 % 19.38 C
2177 21-07-2015 12:15:00 26.3 C 66 % 19.44 C
2178 21-07-2015 12:20:00 26.4 C 66 % 19.53 C
2179 21-07-2015 12:25:00 26.7 C 67 % 20.06 C
2180 21-07-2015 12:30:00 26.8 C 65 % 19.67 C
2181 21-07-2015 12:35:00 26.9 C 65 % 19.76 C
2182 21-07-2015 12:40:00 27.2 C 64 % 19.79 C
2183 21-07-2015 12:45:00 27.4 C 64 % 19.98 C
2184 21-07-2015 12:50:00 27.8 C 61 % 19.59 C
2185 21-07-2015 12:55:00 27.9 C 62 % 19.94 C
2186 21-07-2015 13:00:00 28.2 C 61 % 19.96 C
2187 21-07-2015 13:05:00 28.4 C 60 % 19.88 C
2188 21-07-2015 13:10:00 28.6 C 59 % 19.8 C
2189 21-07-2015 13:15:00 28.7 C 58 % 19.62 C
2190 21-07-2015 13:20:00 28.8 C 58 % 19.71 C
2191 21-07-2015 13:25:00 28.8 C 59 % 19.99 C
2192 21-07-2015 13:30:00 28.7 C 58 % 19.62 C
2193 21-07-2015 13:35:00 28.4 C 59 % 19.61 C
2194 21-07-2015 13:40:00 28.4 C 59 % 19.61 C
2195 21-07-2015 13:45:00 28.8 C 58 % 19.71 C
2196 21-07-2015 13:50:00 29 C 58 % 19.9 C
2197 21-07-2015 13:55:00 29.4 C 58 % 20.27 C
2198 21-07-2015 14:00:00 29.7 C 54 % 19.39 C
2199 21-07-2015 14:05:00 29.7 C 55 % 19.69 C
2200 21-07-2015 14:10:00 29.9 C 54 % 19.58 C
Sensor: Nr:Datum:Temp:Feuchte:Taupunkt:
Aussen-T/F 2201 21-07-2015 14:15:00 29.7 C 54 % 19.39 C
2202 21-07-2015 14:20:00 29.4 C 54 % 19.12 C
2203 21-07-2015 14:25:00 29.1 C 59 % 20.27 C
2204 21-07-2015 14:30:00 28.9 C 60 % 20.35 C
2205 21-07-2015 14:35:00 29.2 C 55 % 19.23 C
2206 21-07-2015 14:40:00 29.3 C 56 % 19.61 C
2207 21-07-2015 14:45:00 29.1 C 57 % 19.71 C
2208 21-07-2015 14:50:00 29 C 60 % 20.44 C
2209 21-07-2015 14:55:00 28.7 C 58 % 19.62 C
2210 21-07-2015 15:00:00 28.6 C 62 % 20.6 C
2211 21-07-2015 15:05:00 28.4 C 61 % 20.15 C
2212 21-07-2015 15:10:00 28.5 C 66 % 21.52 C
2213 21-07-2015 15:15:00 28.8 C 57 % 19.43 C
2214 21-07-2015 15:20:00 29.1 C 58 % 19.99 C
2215 21-07-2015 15:25:00 29.4 C 55 % 19.41 C
2216 21-07-2015 15:30:00 29.8 C 56 % 20.07 C
2217 21-07-2015 15:35:00 30.4 C 52 % 19.43 C
2218 21-07-2015 15:40:00 30.8 C 52 % 19.8 C
2219 21-07-2015 15:45:00 30.8 C 50 % 19.17 C
2220 21-07-2015 15:50:00 30.8 C 51 % 19.49 C
2221 21-07-2015 15:55:00 30.9 C 52 % 19.89 C
2222 21-07-2015 16:00:00 30.9 C 49 % 18.94 C
2223 21-07-2015 16:05:00 30.7 C 51 % 19.4 C
2224 21-07-2015 16:10:00 30.7 C 50 % 19.08 C
2225 21-07-2015 16:15:00 31.1 C 50 % 19.44 C
Sensor: Nr:Datum:Temp:Feuchte:Taupunkt:
Aussen-T/F 2226 21-07-2015 16:20:00 31.2 C 47 % 18.54 C
2227 21-07-2015 16:25:00 31.2 C 49 % 19.21 C
2228 21-07-2015 16:30:00 31.6 C 47 % 18.91 C
2229 21-07-2015 16:35:00 31.9 C 47 % 19.18 C
2230 21-07-2015 16:40:00 31.8 C 47 % 19.09 C
2231 21-07-2015 16:45:00 31.4 C 48 % 19.06 C
2232 21-07-2015 16:50:00 31.7 C 48 % 19.34 C
2233 21-07-2015 16:55:00 31.9 C 47 % 19.18 C
2234 21-07-2015 17:00:00 32.3 C 47 % 19.54 C
2235 21-07-2015 17:05:00 32.3 C 46 % 19.2 C
2236 21-07-2015 17:10:00 32 C 47 % 19.27 C
2237 21-07-2015 17:15:00 32 C 48 % 19.61 C
2238 21-07-2015 17:20:00 32.1 C 46 % 19.02 C
2239 21-07-2015 17:25:00 32.2 C 46 % 19.11 C
2240 21-07-2015 17:30:00 32.4 C 45 % 18.93 C
2241 21-07-2015 17:35:00 32.6 C 46 % 19.47 C
2242 21-07-2015 17:40:00 32.6 C 45 % 19.12 C
2243 21-07-2015 17:45:00 32.6 C 44 % 18.75 C
2244 21-07-2015 17:50:00 32.4 C 45 % 18.93 C
2245 21-07-2015 17:55:00 32.3 C 45 % 18.84 C
2246 21-07-2015 18:00:00 31.9 C 46 % 18.83 C
2247 21-07-2015 18:05:00 31.9 C 46 % 18.83 C
2248 21-07-2015 18:10:00 32.3 C 46 % 19.2 C
2249 21-07-2015 18:15:00 32.3 C 45 % 18.84 C
2250 21-07-2015 18:20:00 31.7 C 47 % 19 C
Sensor: Nr:Datum:Temp:Feuchte:Taupunkt:
Aussen-T/F 2251 21-07-2015 18:25:00 31.1 C 47 % 18.45 C
2252 21-07-2015 18:30:00 30.7 C 52 % 19.71 C
2253 21-07-2015 18:35:00 30.6 C 50 % 18.99 C
2254 21-07-2015 18:40:00 30.9 C 48 % 18.61 C
2255 21-07-2015 18:45:00 31.2 C 48 % 18.88 C
2256 21-07-2015 18:50:00 30.8 C 53 % 20.11 C
2257 21-07-2015 18:55:00 30.1 C 53 % 19.46 C
2258 21-07-2015 19:00:00 29.7 C 56 % 19.98 C
2259 21-07-2015 19:05:00 29.6 C 56 % 19.89 C
2260 21-07-2015 19:10:00 29.4 C 58 % 20.27 C
2261 21-07-2015 19:15:00 29.6 C 56 % 19.89 C
2262 21-07-2015 19:20:00 30 C 55 % 19.97 C
2263 21-07-2015 19:25:00 30.3 C 56 % 20.54 C
2264 21-07-2015 19:30:00 30.4 C 55 % 20.34 C
2265 21-07-2015 19:35:00 30.3 C 56 % 20.54 C
2266 21-07-2015 19:40:00 30.1 C 56 % 20.35 C
2267 21-07-2015 19:45:00 29.8 C 58 % 20.64 C
2268 21-07-2015 19:50:00 29.6 C 59 % 20.73 C
2269 21-07-2015 19:55:00 29.4 C 60 % 20.82 C
2270 21-07-2015 20:00:00 29.2 C 59 % 20.36 C
2271 21-07-2015 20:05:00 29.1 C 61 % 20.81 C
2272 21-07-2015 20:10:00 28.8 C 62 % 20.79 C
2273 21-07-2015 20:15:00 28.7 C 62 % 20.69 C
2274 21-07-2015 20:20:00 28.6 C 63 % 20.86 C
2275 21-07-2015 20:25:00 28.3 C 63 % 20.58 C
Sensor: Nr:Datum:Temp:Feuchte:Taupunkt:
Aussen-T/F 2276 21-07-2015 20:30:00 28.2 C 64 % 20.74 C
2277 21-07-2015 20:35:00 28.1 C 64 % 20.64 C
2278 21-07-2015 20:40:00 27.9 C 65 % 20.71 C
2279 21-07-2015 20:45:00 27.7 C 65 % 20.52 C
2280 21-07-2015 20:50:00 27.6 C 66 % 20.67 C
2281 21-07-2015 20:55:00 27.4 C 66 % 20.48 C
2282 21-07-2015 21:00:00 27.2 C 68 % 20.78 C
2283 21-07-2015 21:05:00 26.9 C 68 % 20.49 C
2284 21-07-2015 21:10:00 26.6 C 69 % 20.44 C
2285 21-07-2015 21:15:00 26.2 C 72 % 20.75 C
2286 21-07-2015 21:20:00 25.9 C 73 % 20.69 C
2287 21-07-2015 21:25:00 25.9 C 73 % 20.69 C
2288 21-07-2015 21:30:00 24.9 C 73 % 19.72 C
2289 21-07-2015 21:35:00 24.5 C 79 % 20.62 C
2290 21-07-2015 21:40:00 24.4 C 79 % 20.52 C
2291 21-07-2015 21:45:00 24.2 C 81 % 20.73 C
2292 21-07-2015 21:50:00 23.9 C 82 % 20.64 C
2293 21-07-2015 21:55:00 23.7 C 83 % 20.64 C
2294 21-07-2015 22:00:00 23.4 C 83 % 20.35 C
2295 21-07-2015 22:05:00 23.3 C 84 % 20.44 C
2296 21-07-2015 22:10:00 23.2 C 84 % 20.34 C
2297 21-07-2015 22:15:00 23.1 C 84 % 20.25 C
2298 21-07-2015 22:20:00 22.9 C 85 % 20.24 C
2299 21-07-2015 22:25:00 22.8 C 85 % 20.14 C
2300 21-07-2015 22:30:00 22.8 C 86 % 20.33 C
Sensor: Nr:Datum:Temp:Feuchte:Taupunkt:
Aussen-T/F 2301 21-07-2015 22:35:00 22.6 C 86 % 20.14 C
2302 21-07-2015 22:40:00 22.5 C 86 % 20.04 C
2303 21-07-2015 22:45:00 22.4 C 87 % 20.13 C
2304 21-07-2015 22:50:00 22.3 C 87 % 20.03 C
2305 21-07-2015 22:55:00 22.3 C 87 % 20.03 C
2306 21-07-2015 23:00:00 22.2 C 88 % 20.12 C
2307 21-07-2015 23:05:00 22.2 C 88 % 20.12 C
2308 21-07-2015 23:10:00 22.1 C 88 % 20.02 C
2309 21-07-2015 23:15:00 22 C 88 % 19.92 C
2310 21-07-2015 23:20:00 21.9 C 88 % 19.82 C
2311 21-07-2015 23:25:00 21.9 C 89 % 20 C
2312 21-07-2015 23:30:00 21.8 C 89 % 19.9 C
2313 21-07-2015 23:35:00 21.8 C 89 % 19.9 C
2314 21-07-2015 23:40:00 21.7 C 89 % 19.81 C
2315 21-07-2015 23:45:00 21.7 C 89 % 19.81 C
2316 21-07-2015 23:50:00 21.6 C 89 % 19.71 C
2317 21-07-2015 23:55:00 21.6 C 89 % 19.71 C
2318 22-07-2015 00:00:00 21.6 C 90 % 19.89 C
2319 22-07-2015 00:05:00 21.5 C 90 % 19.79 C
2320 22-07-2015 00:10:00 21.5 C 90 % 19.79 C
2321 22-07-2015 00:15:00 21.4 C 90 % 19.69 C
2322 22-07-2015 00:20:00 21.4 C 90 % 19.69 C
2323 22-07-2015 00:25:00 21.4 C 90 % 19.69 C
2324 22-07-2015 00:30:00 21.3 C 90 % 19.59 C
2325 22-07-2015 00:35:00 21.3 C 90 % 19.59 C
Sensor: Nr:Datum:Temp:Feuchte:Taupunkt:
Aussen-T/F 2326 22-07-2015 00:40:00 21.2 C 91 % 19.67 C
2327 22-07-2015 00:45:00 21.2 C 90 % 19.49 C
2328 22-07-2015 00:50:00 21.1 C 91 % 19.57 C
2329 22-07-2015 00:55:00 20.9 C 91 % 19.37 C
2330 22-07-2015 01:00:00 20.9 C 91 % 19.37 C
2331 22-07-2015 01:05:00 20.9 C 91 % 19.37 C
2332 22-07-2015 01:10:00 20.8 C 92 % 19.45 C
2333 22-07-2015 01:15:00 20.8 C 92 % 19.45 C
2334 22-07-2015 01:20:00 20.7 C 92 % 19.35 C
2335 22-07-2015 01:25:00 20.7 C 92 % 19.35 C
2336 22-07-2015 01:30:00 20.7 C 92 % 19.35 C
2337 22-07-2015 01:35:00 20.7 C 92 % 19.35 C
2338 22-07-2015 01:40:00 20.7 C 92 % 19.35 C
2339 22-07-2015 01:45:00 20.6 C 92 % 19.25 C
2340 22-07-2015 01:50:00 20.6 C 92 % 19.25 C
2341 22-07-2015 01:55:00 20.5 C 92 % 19.15 C
2342 22-07-2015 02:00:00 20.4 C 92 % 19.06 C
2343 22-07-2015 02:05:00 20.3 C 93 % 19.13 C
2344 22-07-2015 02:10:00 20.3 C 93 % 19.13 C
2345 22-07-2015 02:15:00 20.3 C 93 % 19.13 C
2346 22-07-2015 02:20:00 20.2 C 93 % 19.03 C
2347 22-07-2015 02:25:00 20.2 C 93 % 19.03 C
2348 22-07-2015 02:30:00 20.2 C 93 % 19.03 C
2349 22-07-2015 02:35:00 20.1 C 93 % 18.93 C
2350 22-07-2015 02:40:00 20.1 C 93 % 18.93 C
Sensor: Nr:Datum:Temp:Feuchte:Taupunkt:
Aussen-T/F 2351 22-07-2015 02:45:00 20 C 93 % 18.83 C
2352 22-07-2015 02:50:00 19.9 C 93 % 18.73 C
2353 22-07-2015 02:55:00 19.8 C 93 % 18.63 C
2354 22-07-2015 03:00:00 19.8 C 93 % 18.63 C
2355 22-07-2015 03:05:00 19.7 C 93 % 18.54 C
2356 22-07-2015 03:10:00 19.7 C 93 % 18.54 C
2357 22-07-2015 03:15:00 19.6 C 93 % 18.44 C
2358 22-07-2015 03:20:00 19.6 C 93 % 18.44 C
2359 22-07-2015 03:25:00 19.4 C 93 % 18.24 C
2360 22-07-2015 03:30:00 19.4 C 94 % 18.41 C
2361 22-07-2015 03:35:00 19.4 C 94 % 18.41 C
2362 22-07-2015 03:40:00 19.3 C 94 % 18.31 C
2363 22-07-2015 03:45:00 19.3 C 94 % 18.31 C
2364 22-07-2015 03:50:00 19.3 C 94 % 18.31 C
2365 22-07-2015 03:55:00 19.3 C 94 % 18.31 C
2366 22-07-2015 04:00:00 19.2 C 94 % 18.21 C
2367 22-07-2015 04:05:00 19.2 C 94 % 18.21 C
2368 22-07-2015 04:10:00 19.2 C 94 % 18.21 C
2369 22-07-2015 04:15:00 19.2 C 94 % 18.21 C
2370 22-07-2015 04:20:00 19.2 C 94 % 18.21 C
2371 22-07-2015 04:25:00 19.2 C 94 % 18.21 C
2372 22-07-2015 04:30:00 19.2 C 94 % 18.21 C
2373 22-07-2015 04:35:00 19.1 C 94 % 18.11 C
2374 22-07-2015 04:40:00 19 C 95 % 18.18 C
2375 22-07-2015 04:45:00 18.9 C 95 % 18.08 C
Sensor: Nr:Datum:Temp:Feuchte:Taupunkt:
Aussen-T/F 2376 22-07-2015 04:50:00 18.9 C 94 % 17.91 C
2377 22-07-2015 04:55:00 18.8 C 94 % 17.81 C
2378 22-07-2015 05:00:00 18.8 C 95 % 17.98 C
2379 22-07-2015 05:05:00 18.8 C 95 % 17.98 C
2380 22-07-2015 05:10:00 18.8 C 95 % 17.98 C
2381 22-07-2015 05:15:00 18.8 C 95 % 17.98 C
2382 22-07-2015 05:20:00 18.7 C 95 % 17.88 C
2383 22-07-2015 05:25:00 18.7 C 95 % 17.88 C
2384 22-07-2015 05:30:00 18.6 C 95 % 17.78 C
2385 22-07-2015 05:35:00 18.6 C 95 % 17.78 C
2386 22-07-2015 05:40:00 18.7 C 95 % 17.88 C
2387 22-07-2015 05:45:00 18.6 C 95 % 17.78 C
2388 22-07-2015 05:50:00 18.6 C 95 % 17.78 C
2389 22-07-2015 05:55:00 18.7 C 95 % 17.88 C
2390 22-07-2015 06:00:00 18.7 C 95 % 17.88 C
2391 22-07-2015 06:05:00 18.7 C 95 % 17.88 C
2392 22-07-2015 06:10:00 18.7 C 95 % 17.88 C
2393 22-07-2015 06:15:00 18.7 C 95 % 17.88 C
2394 22-07-2015 06:20:00 18.7 C 96 % 18.05 C
2395 22-07-2015 06:25:00 18.8 C 96 % 18.15 C
2396 22-07-2015 06:30:00 18.8 C 96 % 18.15 C
2397 22-07-2015 06:35:00 18.8 C 96 % 18.15 C
2398 22-07-2015 06:40:00 18.8 C 96 % 18.15 C
2399 22-07-2015 06:45:00 18.9 C 96 % 18.25 C
2400 22-07-2015 06:50:00 19 C 96 % 18.35 C
Sensor: Nr:Datum:Temp:Feuchte:Taupunkt:
Aussen-T/F 2401 22-07-2015 06:55:00 19.1 C 96 % 18.45 C
2402 22-07-2015 07:00:00 19.1 C 96 % 18.45 C
2403 22-07-2015 07:05:00 19.2 C 96 % 18.55 C
2404 22-07-2015 07:10:00 19.2 C 96 % 18.55 C
2405 22-07-2015 07:15:00 19.3 C 96 % 18.65 C
2406 22-07-2015 07:20:00 19.3 C 96 % 18.65 C
2407 22-07-2015 07:25:00 19.3 C 96 % 18.65 C
2408 22-07-2015 07:30:00 19.3 C 96 % 18.65 C
2409 22-07-2015 07:35:00 19.3 C 96 % 18.65 C
2410 22-07-2015 07:40:00 19.3 C 96 % 18.65 C
2411 22-07-2015 07:45:00 19.3 C 96 % 18.65 C
2412 22-07-2015 08:30:00 21.7 C 91 % 20.17 C
2413 22-07-2015 08:35:00 21.9 C 90 % 20.18 C
2414 22-07-2015 08:40:00 22 C 89 % 20.1 C
2415 22-07-2015 08:45:00 22.1 C 88 % 20.02 C
2416 22-07-2015 08:50:00 22.2 C 88 % 20.12 C
2417 22-07-2015 08:55:00 22.2 C 86 % 19.75 C
2418 22-07-2015 09:00:00 22.2 C 85 % 19.56 C
2419 22-07-2015 09:05:00 22.2 C 85 % 19.56 C
2420 22-07-2015 09:10:00 22.2 C 85 % 19.56 C
2421 22-07-2015 09:15:00 22.2 C 85 % 19.56 C
2422 22-07-2015 09:20:00 22.6 C 83 % 19.56 C
2423 22-07-2015 09:25:00 22.7 C 83 % 19.66 C
2424 22-07-2015 09:30:00 22.8 C 84 % 19.95 C
2425 22-07-2015 09:35:00 22.9 C 81 % 19.46 C
Sensor: Nr:Datum:Temp:Feuchte:Taupunkt:
Aussen-T/F 2426 22-07-2015 09:40:00 23.1 C 80 % 19.46 C
2427 22-07-2015 09:45:00 23.3 C 81 % 19.85 C
2428 22-07-2015 09:50:00 23.4 C 79 % 19.55 C
2429 22-07-2015 09:55:00 23.6 C 79 % 19.74 C
2430 22-07-2015 10:00:00 23.6 C 80 % 19.95 C
2431 22-07-2015 10:05:00 23.7 C 80 % 20.04 C
2432 22-07-2015 10:10:00 23.9 C 80 % 20.24 C
2433 22-07-2015 10:15:00 24.2 C 78 % 20.12 C
2434 22-07-2015 10:20:00 24.3 C 75 % 19.58 C
2435 22-07-2015 10:25:00 24.4 C 76 % 19.89 C
2436 22-07-2015 10:30:00 24.4 C 75 % 19.68 C
2437 22-07-2015 10:35:00 24.3 C 75 % 19.58 C
2438 22-07-2015 10:40:00 24.2 C 76 % 19.7 C
2439 22-07-2015 10:45:00 24.2 C 77 % 19.91 C
2440 22-07-2015 10:50:00 24.3 C 77 % 20.01 C
2441 22-07-2015 10:55:00 24.4 C 75 % 19.68 C
2442 22-07-2015 11:00:00 24.4 C 76 % 19.89 C
2443 22-07-2015 11:05:00 24.3 C 76 % 19.8 C
2444 22-07-2015 11:10:00 24.4 C 75 % 19.68 C
2445 22-07-2015 11:15:00 24.4 C 77 % 20.1 C
2446 22-07-2015 11:20:00 24.4 C 75 % 19.68 C
2447 22-07-2015 11:25:00 24.5 C 76 % 19.99 C
2448 22-07-2015 11:30:00 24.7 C 76 % 20.18 C
2449 22-07-2015 11:35:00 24.9 C 77 % 20.59 C
2450 22-07-2015 11:40:00 25.2 C 74 % 20.23 C
Sensor: Nr:Datum:Temp:Feuchte:Taupunkt:
Aussen-T/F 2451 22-07-2015 11:45:00 25.4 C 73 % 20.21 C
2452 22-07-2015 11:50:00 25.6 C 73 % 20.4 C
2453 22-07-2015 11:55:00 25.5 C 71 % 19.85 C
2454 22-07-2015 12:00:00 25.4 C 73 % 20.21 C
2455 22-07-2015 12:05:00 25.5 C 73 % 20.3 C
2456 22-07-2015 12:10:00 25.6 C 74 % 20.62 C
2457 22-07-2015 12:15:00 25.6 C 74 % 20.62 C
2458 22-07-2015 12:20:00 25.8 C 74 % 20.81 C
2459 22-07-2015 12:25:00 26.1 C 70 % 20.2 C
2460 22-07-2015 12:30:00 26.2 C 71 % 20.52 C
2461 22-07-2015 12:35:00 26.4 C 67 % 19.78 C
2462 22-07-2015 12:40:00 26.7 C 68 % 20.3 C
2463 22-07-2015 12:45:00 27 C 67 % 20.35 C
2464 22-07-2015 12:50:00 27.2 C 66 % 20.29 C
2465 22-07-2015 12:55:00 27 C 66 % 20.1 C
2466 22-07-2015 13:00:00 26.8 C 67 % 20.16 C
2467 22-07-2015 13:05:00 26.7 C 67 % 20.06 C
2468 22-07-2015 13:10:00 26.7 C 68 % 20.3 C
2469 22-07-2015 13:15:00 26.8 C 67 % 20.16 C
2470 22-07-2015 13:20:00 27 C 67 % 20.35 C
2471 22-07-2015 13:25:00 27.1 C 67 % 20.44 C
2472 22-07-2015 13:30:00 27.2 C 64 % 19.79 C
2473 22-07-2015 13:35:00 27.2 C 64 % 19.79 C
2474 22-07-2015 13:40:00 27.2 C 64 % 19.79 C
2475 22-07-2015 13:45:00 27.3 C 65 % 20.14 C
Sensor: Nr:Datum:Temp:Feuchte:Taupunkt:
Aussen-T/F 2476 22-07-2015 13:50:00 27.4 C 65 % 20.23 C
2477 22-07-2015 13:55:00 27.7 C 63 % 20.01 C
2478 22-07-2015 14:00:00 27.7 C 61 % 19.49 C
2479 22-07-2015 14:05:00 27.6 C 61 % 19.4 C
2480 22-07-2015 14:10:00 27.3 C 62 % 19.38 C
2481 22-07-2015 14:15:00 26.8 C 63 % 19.16 C
2482 22-07-2015 14:20:00 26.7 C 64 % 19.32 C
2483 22-07-2015 14:25:00 26.6 C 64 % 19.23 C
2484 22-07-2015 14:30:00 26.6 C 63 % 18.97 C
2485 22-07-2015 14:35:00 26.5 C 63 % 18.88 C
2486 22-07-2015 14:40:00 26.4 C 62 % 18.53 C
2487 22-07-2015 14:45:00 26.4 C 63 % 18.79 C
2488 22-07-2015 14:50:00 26.4 C 63 % 18.79 C
2489 22-07-2015 14:55:00 26.4 C 63 % 18.79 C
2490 22-07-2015 15:00:00 26.4 C 62 % 18.53 C
2491 22-07-2015 15:05:00 26.4 C 63 % 18.79 C
2492 22-07-2015 15:10:00 26.6 C 62 % 18.72 C
2493 22-07-2015 15:15:00 26.7 C 63 % 19.07 C
2494 22-07-2015 15:20:00 26.8 C 63 % 19.16 C
2495 22-07-2015 15:25:00 27 C 63 % 19.35 C
2496 22-07-2015 15:30:00 27.2 C 65 % 20.04 C
2497 22-07-2015 15:35:00 27.5 C 60 % 19.04 C
2498 22-07-2015 15:40:00 27.5 C 61 % 19.3 C
2499 22-07-2015 15:45:00 27.5 C 60 % 19.04 C
2500 22-07-2015 15:50:00 27.3 C 60 % 18.85 C
Sensor: Nr:Datum:Temp:Feuchte:Taupunkt:
Aussen-T/F 2501 22-07-2015 15:55:00 27.2 C 60 % 18.76 C
2502 22-07-2015 16:00:00 27.2 C 61 % 19.02 C
2503 22-07-2015 16:05:00 27.1 C 61 % 18.93 C
2504 22-07-2015 16:10:00 27.1 C 62 % 19.19 C
2505 22-07-2015 16:15:00 27.1 C 63 % 19.45 C
2506 22-07-2015 16:20:00 26.9 C 62 % 19 C
2507 22-07-2015 16:25:00 26.8 C 63 % 19.16 C
2508 22-07-2015 16:30:00 26.7 C 64 % 19.32 C
2509 22-07-2015 16:35:00 26.6 C 63 % 18.97 C
2510 22-07-2015 16:40:00 26.6 C 64 % 19.23 C
2511 22-07-2015 16:45:00 26.6 C 63 % 18.97 C
2512 22-07-2015 16:50:00 26.7 C 62 % 18.81 C
2513 22-07-2015 16:55:00 26.7 C 61 % 18.55 C
2514 22-07-2015 17:00:00 26.7 C 61 % 18.55 C
2515 22-07-2015 17:05:00 26.9 C 61 % 18.74 C
2516 22-07-2015 17:10:00 27.2 C 60 % 18.76 C
2517 22-07-2015 17:15:00 27.4 C 59 % 18.68 C
2518 22-07-2015 17:20:00 27.5 C 59 % 18.77 C
2519 22-07-2015 17:25:00 27.6 C 60 % 19.13 C
2520 22-07-2015 17:30:00 27.7 C 59 % 18.96 C
2521 22-07-2015 17:35:00 27.7 C 60 % 19.23 C
2522 22-07-2015 17:40:00 27.9 C 59 % 19.14 C
2523 22-07-2015 17:45:00 27.9 C 57 % 18.59 C
2524 22-07-2015 17:50:00 28.1 C 56 % 18.49 C
2525 22-07-2015 17:55:00 28.2 C 54 % 18.01 C
Sensor: Nr:Datum:Temp:Feuchte:Taupunkt:
Aussen-T/F 2526 22-07-2015 18:00:00 28.3 C 53 % 17.8 C
2527 22-07-2015 18:05:00 28.2 C 54 % 18.01 C
2528 22-07-2015 18:10:00 28.1 C 54 % 17.92 C
2529 22-07-2015 18:15:00 27.7 C 54 % 17.55 C
2530 22-07-2015 18:20:00 27.3 C 55 % 17.47 C
2531 22-07-2015 18:25:00 27.1 C 56 % 17.57 C
2532 22-07-2015 18:30:00 26.8 C 56 % 17.29 C
2533 22-07-2015 18:35:00 26.7 C 56 % 17.19 C
2534 22-07-2015 18:40:00 26.6 C 56 % 17.1 C
2535 22-07-2015 18:45:00 26.4 C 55 % 16.63 C
2536 22-07-2015 18:50:00 26.3 C 56 % 16.82 C
2537 22-07-2015 18:55:00 26.1 C 57 % 16.92 C
2538 22-07-2015 19:00:00 26.1 C 57 % 16.92 C
2539 22-07-2015 19:05:00 26 C 58 % 17.1 C
2540 22-07-2015 19:10:00 26.1 C 57 % 16.92 C
2541 22-07-2015 19:15:00 25.9 C 56 % 16.45 C
2542 22-07-2015 19:20:00 25.8 C 56 % 16.36 C
2543 22-07-2015 19:25:00 25.8 C 57 % 16.64 C
2544 22-07-2015 19:30:00 25.7 C 57 % 16.54 C
2545 22-07-2015 19:35:00 25.7 C 58 % 16.82 C
2546 22-07-2015 19:40:00 25.6 C 58 % 16.72 C
2547 22-07-2015 19:45:00 25.4 C 58 % 16.54 C
2548 22-07-2015 19:50:00 25.3 C 59 % 16.71 C
2549 22-07-2015 19:55:00 25.2 C 59 % 16.62 C
2550 22-07-2015 20:00:00 25.1 C 58 % 16.26 C
Sensor: Nr:Datum:Temp:Feuchte:Taupunkt:
Aussen-T/F 2551 22-07-2015 20:05:00 25 C 58 % 16.16 C
2552 22-07-2015 20:10:00 24.8 C 58 % 15.98 C
2553 22-07-2015 20:15:00 24.8 C 58 % 15.98 C
2554 22-07-2015 20:20:00 24.7 C 59 % 16.15 C
2555 22-07-2015 20:25:00 24.6 C 58 % 15.79 C
2556 22-07-2015 20:30:00 24.6 C 58 % 15.79 C
2557 22-07-2015 20:35:00 24.5 C 58 % 15.7 C
2558 22-07-2015 20:40:00 24.4 C 57 % 15.33 C
2559 22-07-2015 20:45:00 24.4 C 57 % 15.33 C
2560 22-07-2015 20:50:00 24.3 C 57 % 15.24 C
2561 22-07-2015 20:55:00 24.3 C 57 % 15.24 C
2562 22-07-2015 21:00:00 24.2 C 57 % 15.14 C
2563 22-07-2015 21:05:00 24.2 C 57 % 15.14 C
2564 22-07-2015 21:10:00 24.1 C 56 % 14.78 C
2565 22-07-2015 21:15:00 24 C 56 % 14.68 C
2566 22-07-2015 21:20:00 23.9 C 55 % 14.31 C
2567 22-07-2015 21:25:00 23.9 C 56 % 14.59 C
2568 22-07-2015 21:30:00 23.8 C 56 % 14.5 C
2569 22-07-2015 21:35:00 23.8 C 57 % 14.77 C
2570 22-07-2015 21:40:00 23.7 C 56 % 14.4 C
2571 22-07-2015 21:45:00 23.6 C 55 % 14.03 C
2572 22-07-2015 21:50:00 23.4 C 55 % 13.85 C
2573 22-07-2015 21:55:00 23.3 C 55 % 13.76 C
2574 22-07-2015 22:00:00 23.2 C 55 % 13.66 C
2575 22-07-2015 22:05:00 23.2 C 55 % 13.66 C
Sensor: Nr:Datum:Temp:Feuchte:Taupunkt:
Aussen-T/F 2576 22-07-2015 22:10:00 23.1 C 55 % 13.57 C
2577 22-07-2015 22:15:00 22.9 C 55 % 13.38 C
2578 22-07-2015 22:20:00 22.8 C 55 % 13.29 C
2579 22-07-2015 22:25:00 22.8 C 55 % 13.29 C
2580 22-07-2015 22:30:00 22.7 C 56 % 13.47 C
2581 22-07-2015 22:35:00 22.6 C 56 % 13.38 C
2582 22-07-2015 22:40:00 22.6 C 56 % 13.38 C
2583 22-07-2015 22:45:00 22.5 C 57 % 13.56 C
2584 22-07-2015 22:50:00 22.4 C 57 % 13.47 C
2585 22-07-2015 22:55:00 22.3 C 57 % 13.37 C
2586 22-07-2015 23:00:00 22.3 C 57 % 13.37 C
2587 22-07-2015 23:05:00 22.2 C 58 % 13.55 C
2588 22-07-2015 23:10:00 22.1 C 58 % 13.45 C
2589 22-07-2015 23:15:00 22.1 C 58 % 13.45 C
2590 22-07-2015 23:20:00 22 C 60 % 13.88 C
2591 22-07-2015 23:25:00 21.8 C 63 % 14.45 C
2592 22-07-2015 23:30:00 21.6 C 65 % 14.74 C
2593 22-07-2015 23:35:00 21.4 C 64 % 14.31 C
2594 22-07-2015 23:40:00 21.3 C 67 % 14.93 C
2595 22-07-2015 23:45:00 21.2 C 65 % 14.36 C
2596 22-07-2015 23:50:00 21.2 C 66 % 14.6 C
2597 22-07-2015 23:55:00 21.1 C 66 % 14.5 C
2598 23-07-2015 00:00:00 21 C 69 % 15.1 C
2599 23-07-2015 00:05:00 20.8 C 71 % 15.35 C
2600 23-07-2015 00:10:00 20.7 C 72 % 15.47 C
Sensor: Nr:Datum:Temp:Feuchte:Taupunkt:
Aussen-T/F 2601 23-07-2015 00:15:00 20.6 C 72 % 15.38 C
2602 23-07-2015 00:20:00 20.3 C 72 % 15.09 C
2603 23-07-2015 00:25:00 20.1 C 71 % 14.68 C
2604 23-07-2015 00:30:00 19.8 C 73 % 14.82 C
2605 23-07-2015 00:35:00 19.6 C 74 % 14.84 C
2606 23-07-2015 00:40:00 19.4 C 74 % 14.65 C
2607 23-07-2015 00:45:00 19.3 C 74 % 14.55 C
2608 23-07-2015 00:50:00 19.3 C 75 % 14.76 C
2609 23-07-2015 00:55:00 19.2 C 75 % 14.66 C
2610 23-07-2015 01:00:00 19.1 C 75 % 14.57 C
2611 23-07-2015 01:05:00 19 C 77 % 14.88 C
2612 23-07-2015 01:10:00 18.9 C 76 % 14.58 C
2613 23-07-2015 01:15:00 18.8 C 77 % 14.68 C
2614 23-07-2015 01:20:00 18.7 C 77 % 14.59 C
2615 23-07-2015 01:25:00 18.6 C 77 % 14.49 C
2616 23-07-2015 01:30:00 18.4 C 78 % 14.5 C
2617 23-07-2015 01:35:00 18.4 C 78 % 14.5 C
2618 23-07-2015 01:40:00 18.3 C 78 % 14.4 C
2619 23-07-2015 01:45:00 18.2 C 78 % 14.3 C
2620 23-07-2015 01:50:00 18.2 C 79 % 14.5 C
2621 23-07-2015 01:55:00 18.1 C 79 % 14.4 C
2622 23-07-2015 02:00:00 18.1 C 79 % 14.4 C
2623 23-07-2015 02:05:00 17.9 C 79 % 14.21 C
2624 23-07-2015 02:10:00 17.9 C 79 % 14.21 C
2625 23-07-2015 02:15:00 17.8 C 78 % 13.91 C
Sensor: Nr:Datum:Temp:Feuchte:Taupunkt:
Aussen-T/F 2626 23-07-2015 02:20:00 17.7 C 78 % 13.82 C
2627 23-07-2015 02:25:00 17.7 C 79 % 14.01 C
2628 23-07-2015 02:30:00 17.7 C 79 % 14.01 C
2629 23-07-2015 02:35:00 17.7 C 79 % 14.01 C
2630 23-07-2015 02:40:00 17.7 C 79 % 14.01 C
2631 23-07-2015 02:45:00 17.6 C 79 % 13.92 C
2632 23-07-2015 02:50:00 17.5 C 79 % 13.82 C
2633 23-07-2015 02:55:00 17.4 C 80 % 13.92 C
2634 23-07-2015 03:00:00 17.3 C 79 % 13.63 C
2635 23-07-2015 03:05:00 17.3 C 80 % 13.82 C
2636 23-07-2015 03:10:00 17.2 C 80 % 13.72 C
2637 23-07-2015 03:15:00 17.1 C 80 % 13.62 C
2638 23-07-2015 03:20:00 17 C 80 % 13.53 C
2639 23-07-2015 03:25:00 17 C 80 % 13.53 C
2640 23-07-2015 03:30:00 16.9 C 81 % 13.62 C
2641 23-07-2015 03:35:00 16.9 C 81 % 13.62 C
2642 23-07-2015 03:40:00 16.8 C 81 % 13.52 C
2643 23-07-2015 03:45:00 16.8 C 82 % 13.71 C
2644 23-07-2015 03:50:00 16.7 C 82 % 13.61 C
2645 23-07-2015 03:55:00 16.6 C 81 % 13.33 C
2646 23-07-2015 04:00:00 16.5 C 81 % 13.23 C
2647 23-07-2015 04:05:00 16.4 C 82 % 13.32 C
2648 23-07-2015 04:10:00 16.4 C 82 % 13.32 C
2649 23-07-2015 04:15:00 16.4 C 82 % 13.32 C
2650 23-07-2015 04:20:00 16.5 C 83 % 13.6 C
Sensor: Nr:Datum:Temp:Feuchte:Taupunkt:
Aussen-T/F 2651 23-07-2015 04:25:00 16.6 C 83 % 13.7 C
2652 23-07-2015 04:30:00 16.7 C 83 % 13.8 C
2653 23-07-2015 04:35:00 16.7 C 83 % 13.8 C
2654 23-07-2015 04:40:00 16.8 C 83 % 13.9 C
2655 23-07-2015 04:45:00 16.8 C 83 % 13.9 C
2656 23-07-2015 04:50:00 16.8 C 83 % 13.9 C
2657 23-07-2015 04:55:00 16.8 C 83 % 13.9 C
2658 23-07-2015 05:00:00 16.8 C 83 % 13.9 C
2659 23-07-2015 05:05:00 16.8 C 83 % 13.9 C
2660 23-07-2015 05:10:00 16.9 C 83 % 14 C
2661 23-07-2015 05:15:00 16.9 C 83 % 14 C
2662 23-07-2015 05:20:00 16.9 C 82 % 13.81 C
2663 23-07-2015 05:25:00 16.9 C 82 % 13.81 C
2664 23-07-2015 05:30:00 16.9 C 83 % 14 C
2665 23-07-2015 05:35:00 16.9 C 82 % 13.81 C
2666 23-07-2015 05:40:00 16.9 C 83 % 14 C
2667 23-07-2015 05:45:00 16.9 C 83 % 14 C
2668 23-07-2015 05:50:00 16.9 C 83 % 14 C
2669 23-07-2015 05:55:00 16.9 C 83 % 14 C
2670 23-07-2015 06:00:00 16.9 C 82 % 13.81 C
2671 23-07-2015 06:05:00 16.9 C 82 % 13.81 C
2672 23-07-2015 06:10:00 17 C 82 % 13.91 C
2673 23-07-2015 06:15:00 17 C 81 % 13.72 C
2674 23-07-2015 06:20:00 17.1 C 82 % 14 C
2675 23-07-2015 06:25:00 17.1 C 82 % 14 C
Sensor: Nr:Datum:Temp:Feuchte:Taupunkt:
Aussen-T/F 2676 23-07-2015 06:30:00 17.1 C 80 % 13.62 C
2677 23-07-2015 06:35:00 17.2 C 79 % 13.53 C
2678 23-07-2015 06:40:00 17.3 C 78 % 13.43 C
2679 23-07-2015 06:45:00 17.4 C 79 % 13.72 C
2680 23-07-2015 06:50:00 17.4 C 75 % 12.93 C
2681 23-07-2015 06:55:00 17.6 C 76 % 13.32 C
2682 23-07-2015 07:00:00 17.7 C 75 % 13.22 C
2683 23-07-2015 07:05:00 17.7 C 74 % 13.01 C
2684 23-07-2015 07:10:00 17.7 C 74 % 13.01 C
2685 23-07-2015 07:15:00 17.8 C 73 % 12.9 C
2686 23-07-2015 07:20:00 17.8 C 73 % 12.9 C
2687 23-07-2015 07:25:00 17.8 C 72 % 12.69 C
2688 23-07-2015 07:30:00 17.8 C 72 % 12.69 C
2689 23-07-2015 07:35:00 17.8 C 71 % 12.47 C
2690 23-07-2015 07:40:00 17.8 C 71 % 12.47 C
2691 23-07-2015 07:45:00 17.9 C 71 % 12.57 C
2692 23-07-2015 07:50:00 17.9 C 72 % 12.78 C
2693 23-07-2015 07:55:00 18 C 71 % 12.67 C
2694 23-07-2015 08:00:00 18.1 C 70 % 12.55 C
2695 23-07-2015 08:05:00 18.1 C 71 % 12.76 C
2696 23-07-2015 08:10:00 18.2 C 70 % 12.64 C
2697 23-07-2015 08:15:00 18.3 C 69 % 12.52 C
2698 23-07-2015 08:20:00 18.4 C 70 % 12.83 C
2699 23-07-2015 08:25:00 18.5 C 70 % 12.93 C
2700 23-07-2015 08:30:00 18.6 C 69 % 12.8 C
Sensor: Nr:Datum:Temp:Feuchte:Taupunkt:
Aussen-T/F 2701 23-07-2015 08:35:00 18.7 C 69 % 12.9 C
2702 23-07-2015 08:40:00 18.7 C 68 % 12.68 C
2703 23-07-2015 08:45:00 18.8 C 68 % 12.77 C
2704 23-07-2015 08:50:00 18.8 C 67 % 12.55 C
2705 23-07-2015 08:55:00 18.8 C 67 % 12.55 C
2706 23-07-2015 09:00:00 19 C 67 % 12.74 C
2707 23-07-2015 09:05:00 19.1 C 66 % 12.6 C
2708 23-07-2015 09:10:00 19.1 C 67 % 12.83 C
2709 23-07-2015 09:15:00 19.1 C 67 % 12.83 C
2710 23-07-2015 09:20:00 19.1 C 67 % 12.83 C
2711 23-07-2015 09:25:00 19.1 C 67 % 12.83 C
2712 23-07-2015 09:30:00 19.2 C 66 % 12.7 C
2713 23-07-2015 09:35:00 19.2 C 66 % 12.7 C
2714 23-07-2015 09:40:00 19.2 C 65 % 12.47 C
2715 23-07-2015 09:45:00 19.2 C 65 % 12.47 C
2716 23-07-2015 09:50:00 19.1 C 66 % 12.6 C
2717 23-07-2015 09:55:00 19.1 C 66 % 12.6 C
2718 23-07-2015 10:00:00 19.2 C 65 % 12.47 C
2719 23-07-2015 10:05:00 19.3 C 66 % 12.79 C
2720 23-07-2015 10:10:00 19.7 C 63 % 12.46 C
2721 23-07-2015 10:15:00 19.9 C 62 % 12.41 C
2722 23-07-2015 10:20:00 20.3 C 63 % 13.03 C
2723 23-07-2015 10:25:00 20.6 C 61 % 12.82 C
2724 23-07-2015 10:30:00 20.9 C 60 % 12.85 C
2725 23-07-2015 10:35:00 21.1 C 60 % 13.04 C
Sensor: Nr:Datum:Temp:Feuchte:Taupunkt:
Aussen-T/F 2726 23-07-2015 10:40:00 21 C 60 % 12.94 C
2727 23-07-2015 10:45:00 21.2 C 60 % 13.13 C
2728 23-07-2015 10:50:00 21.6 C 61 % 13.76 C
2729 23-07-2015 10:55:00 21.8 C 58 % 13.17 C
2730 23-07-2015 11:00:00 21.9 C 58 % 13.27 C
2731 23-07-2015 11:05:00 22.2 C 58 % 13.55 C
2732 23-07-2015 11:10:00 22.3 C 55 % 12.83 C
2733 23-07-2015 11:15:00 22.3 C 55 % 12.83 C
2734 23-07-2015 11:20:00 22.3 C 55 % 12.83 C
2735 23-07-2015 11:25:00 22.4 C 56 % 13.2 C
2736 23-07-2015 11:30:00 22.6 C 55 % 13.11 C
2737 23-07-2015 11:35:00 22.6 C 56 % 13.38 C
2738 23-07-2015 11:40:00 22.4 C 56 % 13.2 C
2739 23-07-2015 11:45:00 22.6 C 57 % 13.65 C
2740 23-07-2015 11:50:00 22.8 C 56 % 13.57 C
2741 23-07-2015 11:55:00 22.8 C 55 % 13.29 C
2742 23-07-2015 12:00:00 22.7 C 58 % 14.01 C
2743 23-07-2015 12:05:00 22.6 C 56 % 13.38 C
2744 23-07-2015 12:10:00 22.6 C 55 % 13.11 C
2745 23-07-2015 12:15:00 22.4 C 55 % 12.92 C
2746 23-07-2015 12:20:00 22.3 C 56 % 13.1 C
2747 23-07-2015 12:25:00 22.2 C 57 % 13.28 C
2748 23-07-2015 12:30:00 22.2 C 57 % 13.28 C
2749 23-07-2015 12:35:00 22.2 C 58 % 13.55 C
2750 23-07-2015 12:40:00 22.2 C 58 % 13.55 C
Sensor: Nr:Datum:Temp:Feuchte:Taupunkt:
Aussen-T/F 2751 23-07-2015 12:45:00 22.5 C 58 % 13.83 C
2752 23-07-2015 12:50:00 22.9 C 55 % 13.38 C
2753 23-07-2015 12:55:00 23.1 C 54 % 13.29 C
2754 23-07-2015 13:00:00 23 C 55 % 13.48 C
2755 23-07-2015 13:05:00 22.8 C 56 % 13.57 C
2756 23-07-2015 13:10:00 22.7 C 55 % 13.2 C
2757 23-07-2015 13:15:00 22.7 C 59 % 14.28 C
2758 23-07-2015 13:20:00 23.1 C 57 % 14.12 C
2759 23-07-2015 13:25:00 23.8 C 56 % 14.5 C
2760 23-07-2015 13:30:00 24.2 C 53 % 14.02 C
2761 23-07-2015 13:35:00 24.5 C 52 % 14 C
2762 23-07-2015 13:40:00 24.3 C 50 % 13.22 C
2763 23-07-2015 13:45:00 24.4 C 49 % 13 C
2764 23-07-2015 13:50:00 24.2 C 50 % 13.12 C
2765 23-07-2015 13:55:00 24.1 C 52 % 13.63 C
2766 23-07-2015 14:00:00 24 C 53 % 13.83 C
2767 23-07-2015 14:05:00 24.1 C 54 % 14.21 C
2768 23-07-2015 14:10:00 24.3 C 55 % 14.68 C
2769 23-07-2015 14:15:00 24.3 C 50 % 13.22 C
2770 23-07-2015 14:20:00 24.6 C 54 % 14.68 C
2771 23-07-2015 14:25:00 24.9 C 51 % 14.07 C
2772 23-07-2015 14:30:00 25.3 C 47 % 13.18 C
2773 23-07-2015 14:35:00 25.2 C 47 % 13.09 C
2774 23-07-2015 14:40:00 24.8 C 48 % 13.05 C
2775 23-07-2015 14:45:00 24.4 C 49 % 13 C
Sensor: Nr:Datum:Temp:Feuchte:Taupunkt:
Aussen-T/F 2776 23-07-2015 14:50:00 24.3 C 50 % 13.22 C
2777 23-07-2015 14:55:00 24.5 C 49 % 13.09 C
2778 23-07-2015 15:00:00 24.6 C 48 % 12.87 C
2779 23-07-2015 15:05:00 24.7 C 54 % 14.77 C
2780 23-07-2015 15:10:00 25 C 49 % 13.55 C
2781 23-07-2015 15:15:00 24.9 C 48 % 13.14 C
2782 23-07-2015 15:20:00 24.9 C 48 % 13.14 C
2783 23-07-2015 15:25:00 25.1 C 46 % 12.67 C
2784 23-07-2015 15:30:00 25.2 C 47 % 13.09 C
2785 23-07-2015 15:35:00 25.1 C 46 % 12.67 C
2786 23-07-2015 15:40:00 24.9 C 46 % 12.49 C
2787 23-07-2015 15:45:00 24.7 C 47 % 12.64 C
2788 23-07-2015 15:50:00 24.6 C 48 % 12.87 C
2789 23-07-2015 15:55:00 24.7 C 47 % 12.64 C
2790 23-07-2015 16:00:00 25.3 C 47 % 13.18 C
2791 23-07-2015 16:05:00 25.6 C 47 % 13.45 C
2792 23-07-2015 16:10:00 25.8 C 46 % 13.31 C
2793 23-07-2015 16:15:00 25.7 C 45 % 12.88 C
2794 23-07-2015 16:20:00 25.6 C 46 % 13.12 C
2795 23-07-2015 16:25:00 25.3 C 45 % 12.52 C
2796 23-07-2015 16:30:00 25.1 C 47 % 13 C
2797 23-07-2015 16:35:00 24.9 C 48 % 13.14 C
2798 23-07-2015 16:40:00 24.9 C 49 % 13.46 C
2799 23-07-2015 16:45:00 24.7 C 49 % 13.27 C
2800 23-07-2015 16:50:00 24.6 C 48 % 12.87 C
Sensor: Nr:Datum:Temp:Feuchte:Taupunkt:
Aussen-T/F 2801 23-07-2015 16:55:00 24.5 C 48 % 12.77 C
2802 23-07-2015 17:00:00 24.4 C 47 % 12.36 C
2803 23-07-2015 17:05:00 24.4 C 48 % 12.68 C
2804 23-07-2015 17:10:00 24.5 C 48 % 12.77 C
2805 23-07-2015 17:15:00 24.6 C 48 % 12.87 C
2806 23-07-2015 17:20:00 24.4 C 49 % 13 C
2807 23-07-2015 17:25:00 24.4 C 48 % 12.68 C
2808 23-07-2015 17:30:00 24.4 C 48 % 12.68 C
2809 23-07-2015 17:35:00 24.6 C 48 % 12.87 C
2810 23-07-2015 17:40:00 24.8 C 46 % 12.4 C
2811 23-07-2015 17:45:00 24.8 C 48 % 13.05 C
2812 23-07-2015 17:50:00 24.7 C 47 % 12.64 C
2813 23-07-2015 17:55:00 24.6 C 47 % 12.54 C
2814 23-07-2015 18:00:00 24.4 C 49 % 13 C
2815 23-07-2015 18:05:00 24.5 C 48 % 12.77 C
2816 23-07-2015 18:10:00 24.8 C 47 % 12.73 C
2817 23-07-2015 18:15:00 25.3 C 47 % 13.18 C
2818 23-07-2015 18:20:00 25.8 C 47 % 13.64 C
2819 23-07-2015 18:25:00 25.9 C 45 % 13.06 C
2820 23-07-2015 18:30:00 25.9 C 45 % 13.06 C
2821 23-07-2015 18:35:00 25.7 C 45 % 12.88 C
2822 23-07-2015 18:40:00 25.7 C 45 % 12.88 C
2823 23-07-2015 18:45:00 25.8 C 45 % 12.97 C
2824 23-07-2015 18:50:00 25.9 C 45 % 13.06 C
2825 23-07-2015 18:55:00 25.9 C 44 % 12.72 C
Sensor: Nr:Datum:Temp:Feuchte:Taupunkt:
Aussen-T/F 2826 23-07-2015 19:00:00 25.8 C 44 % 12.63 C
2827 23-07-2015 19:05:00 25.8 C 44 % 12.63 C
2828 23-07-2015 19:10:00 25.9 C 44 % 12.72 C
2829 23-07-2015 19:15:00 25.8 C 45 % 12.97 C
2830 23-07-2015 19:20:00 25.7 C 46 % 13.22 C
2831 23-07-2015 19:25:00 25.4 C 47 % 13.27 C
2832 23-07-2015 19:30:00 25.3 C 46 % 12.85 C
2833 23-07-2015 19:35:00 25.2 C 46 % 12.76 C
2834 23-07-2015 19:40:00 24.9 C 47 % 12.82 C
2835 23-07-2015 19:45:00 24.6 C 48 % 12.87 C
2836 23-07-2015 19:50:00 24.3 C 49 % 12.91 C
2837 23-07-2015 19:55:00 24.2 C 49 % 12.81 C
2838 23-07-2015 20:00:00 24.1 C 50 % 13.03 C
2839 23-07-2015 20:05:00 23.8 C 50 % 12.76 C
2840 23-07-2015 20:10:00 23.6 C 52 % 13.17 C
2841 23-07-2015 20:15:00 23.3 C 52 % 12.9 C
2842 23-07-2015 20:20:00 23.1 C 53 % 13 C
2843 23-07-2015 20:25:00 22.8 C 55 % 13.29 C
2844 23-07-2015 20:30:00 22.5 C 60 % 14.35 C
2845 23-07-2015 20:35:00 21.9 C 61 % 14.04 C
2846 23-07-2015 20:40:00 21.4 C 62 % 13.82 C
2847 23-07-2015 20:45:00 20.9 C 63 % 13.6 C
2848 23-07-2015 20:50:00 20.7 C 65 % 13.89 C
2849 23-07-2015 20:55:00 20.4 C 67 % 14.07 C
2850 23-07-2015 21:00:00 20.2 C 68 % 14.11 C
Sensor: Nr:Datum:Temp:Feuchte:Taupunkt:
Aussen-T/F 2851 23-07-2015 21:05:00 19.9 C 68 % 13.82 C
2852 23-07-2015 21:10:00 19.6 C 69 % 13.76 C
2853 23-07-2015 21:15:00 19.4 C 69 % 13.57 C
2854 23-07-2015 21:20:00 19.3 C 70 % 13.69 C
2855 23-07-2015 21:25:00 19.1 C 71 % 13.72 C
2856 23-07-2015 21:30:00 18.9 C 72 % 13.74 C
2857 23-07-2015 21:35:00 18.7 C 72 % 13.55 C
2858 23-07-2015 21:40:00 18.6 C 74 % 13.88 C
2859 23-07-2015 21:45:00 18.4 C 74 % 13.68 C
2860 23-07-2015 21:50:00 18.4 C 75 % 13.89 C
2861 23-07-2015 21:55:00 18.3 C 74 % 13.59 C
2862 23-07-2015 22:00:00 18.2 C 75 % 13.7 C
2863 23-07-2015 22:05:00 18.1 C 75 % 13.6 C
2864 23-07-2015 22:10:00 18 C 76 % 13.71 C
2865 23-07-2015 22:15:00 17.9 C 75 % 13.41 C
2866 23-07-2015 22:20:00 17.8 C 76 % 13.52 C
2867 23-07-2015 22:25:00 17.8 C 76 % 13.52 C
2868 23-07-2015 22:30:00 17.7 C 76 % 13.42 C
2869 23-07-2015 22:35:00 17.7 C 76 % 13.42 C
2870 23-07-2015 22:40:00 17.6 C 76 % 13.32 C
2871 23-07-2015 22:45:00 17.5 C 76 % 13.23 C
2872 23-07-2015 22:50:00 17.4 C 76 % 13.13 C
2873 23-07-2015 22:55:00 17.3 C 77 % 13.23 C
2874 23-07-2015 23:00:00 17.3 C 78 % 13.43 C
2875 23-07-2015 23:05:00 17.2 C 78 % 13.33 C
Sensor: Nr:Datum:Temp:Feuchte:Taupunkt:
Aussen-T/F 2876 23-07-2015 23:10:00 17.2 C 79 % 13.53 C
2877 23-07-2015 23:15:00 17.1 C 78 % 13.24 C
2878 23-07-2015 23:20:00 17.1 C 79 % 13.43 C
2879 23-07-2015 23:25:00 17 C 79 % 13.33 C
2880 23-07-2015 23:30:00 16.9 C 78 % 13.04 C
2881 23-07-2015 23:35:00 16.8 C 78 % 12.94 C
2882 23-07-2015 23:40:00 16.8 C 78 % 12.94 C
2883 23-07-2015 23:45:00 16.7 C 79 % 13.04 C
2884 23-07-2015 23:50:00 16.7 C 80 % 13.23 C
2885 23-07-2015 23:55:00 16.6 C 80 % 13.14 C
2886 24-07-2015 00:00:00 16.6 C 80 % 13.14 C
2887 24-07-2015 00:05:00 16.5 C 80 % 13.04 C
2888 24-07-2015 00:10:00 16.5 C 79 % 12.85 C
2889 24-07-2015 00:15:00 16.4 C 79 % 12.75 C
2890 24-07-2015 00:20:00 16.4 C 79 % 12.75 C
2891 24-07-2015 00:25:00 16.4 C 79 % 12.75 C
2892 24-07-2015 00:30:00 16.3 C 79 % 12.65 C
2893 24-07-2015 00:35:00 16.2 C 80 % 12.75 C
2894 24-07-2015 00:40:00 16.2 C 80 % 12.75 C
2895 24-07-2015 00:45:00 16.1 C 80 % 12.65 C
2896 24-07-2015 00:50:00 16.1 C 80 % 12.65 C
2897 24-07-2015 00:55:00 15.9 C 80 % 12.46 C
2898 24-07-2015 01:00:00 15.8 C 81 % 12.55 C
2899 24-07-2015 01:05:00 15.8 C 81 % 12.55 C
2900 24-07-2015 01:10:00 15.7 C 82 % 12.64 C
Sensor: Nr:Datum:Temp:Feuchte:Taupunkt:
Aussen-T/F 2901 24-07-2015 01:15:00 15.5 C 82 % 12.44 C
2902 24-07-2015 01:20:00 15.4 C 82 % 12.35 C
2903 24-07-2015 01:25:00 15.3 C 83 % 12.43 C
2904 24-07-2015 01:30:00 15.3 C 83 % 12.43 C
2905 24-07-2015 01:35:00 15.2 C 83 % 12.33 C
2906 24-07-2015 01:40:00 15.1 C 84 % 12.42 C
2907 24-07-2015 01:45:00 15.1 C 84 % 12.42 C
2908 24-07-2015 01:50:00 14.9 C 84 % 12.22 C
2909 24-07-2015 01:55:00 14.9 C 84 % 12.22 C
2910 24-07-2015 02:00:00 14.8 C 85 % 12.3 C
2911 24-07-2015 02:05:00 14.7 C 85 % 12.21 C
2912 24-07-2015 02:10:00 14.7 C 85 % 12.21 C
2913 24-07-2015 02:15:00 14.6 C 86 % 12.29 C
2914 24-07-2015 02:20:00 14.6 C 86 % 12.29 C
2915 24-07-2015 02:25:00 14.5 C 86 % 12.19 C
2916 24-07-2015 02:30:00 14.4 C 86 % 12.09 C
2917 24-07-2015 02:35:00 14.4 C 86 % 12.09 C
2918 24-07-2015 02:40:00 14.3 C 86 % 11.99 C
2919 24-07-2015 02:45:00 14.3 C 87 % 12.17 C
2920 24-07-2015 02:50:00 14.2 C 87 % 12.07 C
2921 24-07-2015 02:55:00 14.2 C 87 % 12.07 C
2922 24-07-2015 03:00:00 14.2 C 87 % 12.07 C
2923 24-07-2015 03:05:00 14.2 C 87 % 12.07 C
2924 24-07-2015 03:10:00 14.2 C 88 % 12.24 C
2925 24-07-2015 03:15:00 14.2 C 88 % 12.24 C
Sensor: Nr:Datum:Temp:Feuchte:Taupunkt:
Aussen-T/F 2926 24-07-2015 03:20:00 14.3 C 87 % 12.17 C
2927 24-07-2015 03:25:00 14.3 C 87 % 12.17 C
2928 24-07-2015 03:30:00 14.3 C 87 % 12.17 C
2929 24-07-2015 03:35:00 14.4 C 87 % 12.27 C
2930 24-07-2015 03:40:00 14.3 C 87 % 12.17 C
2931 24-07-2015 03:45:00 14.3 C 88 % 12.34 C
2932 24-07-2015 03:50:00 14.3 C 88 % 12.34 C
2933 24-07-2015 03:55:00 14.2 C 87 % 12.07 C
2934 24-07-2015 04:00:00 14.2 C 88 % 12.24 C
2935 24-07-2015 04:05:00 14.1 C 88 % 12.14 C
2936 24-07-2015 04:10:00 14 C 88 % 12.05 C
2937 24-07-2015 04:15:00 13.9 C 88 % 11.95 C
2938 24-07-2015 04:20:00 13.9 C 88 % 11.95 C
2939 24-07-2015 04:25:00 13.8 C 89 % 12.02 C
2940 24-07-2015 04:30:00 13.8 C 89 % 12.02 C
2941 24-07-2015 04:35:00 13.8 C 90 % 12.19 C
2942 24-07-2015 04:40:00 13.8 C 90 % 12.19 C
2943 24-07-2015 04:45:00 13.9 C 90 % 12.29 C
2944 24-07-2015 04:50:00 13.9 C 90 % 12.29 C
2945 24-07-2015 04:55:00 13.9 C 90 % 12.29 C
2946 24-07-2015 05:00:00 13.9 C 90 % 12.29 C
2947 24-07-2015 05:05:00 13.9 C 90 % 12.29 C
2948 24-07-2015 05:10:00 13.9 C 90 % 12.29 C
2949 24-07-2015 05:15:00 13.9 C 90 % 12.29 C
2950 24-07-2015 05:20:00 13.9 C 90 % 12.29 C
Sensor: Nr:Datum:Temp:Feuchte:Taupunkt:
Aussen-T/F 2951 24-07-2015 05:25:00 13.9 C 90 % 12.29 C
2952 24-07-2015 05:30:00 13.8 C 90 % 12.19 C
2953 24-07-2015 05:35:00 13.8 C 90 % 12.19 C
2954 24-07-2015 05:40:00 13.7 C 90 % 12.09 C
2955 24-07-2015 05:45:00 13.7 C 90 % 12.09 C
2956 24-07-2015 05:50:00 13.7 C 90 % 12.09 C
2957 24-07-2015 05:55:00 13.6 C 90 % 11.99 C
2958 24-07-2015 06:00:00 13.6 C 91 % 12.16 C
2959 24-07-2015 06:05:00 13.7 C 91 % 12.26 C
2960 24-07-2015 06:10:00 13.7 C 91 % 12.26 C
2961 24-07-2015 06:15:00 13.7 C 91 % 12.26 C
2962 24-07-2015 06:20:00 13.7 C 91 % 12.26 C
2963 24-07-2015 06:25:00 13.7 C 91 % 12.26 C
2964 24-07-2015 06:30:00 13.7 C 91 % 12.26 C
2965 24-07-2015 06:35:00 13.7 C 91 % 12.26 C
2966 24-07-2015 06:40:00 13.8 C 91 % 12.36 C
2967 24-07-2015 06:45:00 13.8 C 91 % 12.36 C
2968 24-07-2015 06:50:00 13.8 C 91 % 12.36 C
2969 24-07-2015 06:55:00 13.9 C 91 % 12.46 C
2970 24-07-2015 07:00:00 14.1 C 91 % 12.65 C
2971 24-07-2015 07:05:00 14.2 C 91 % 12.75 C
2972 24-07-2015 07:10:00 14.3 C 91 % 12.85 C
2973 24-07-2015 07:15:00 14.4 C 91 % 12.95 C
2974 24-07-2015 07:20:00 14.5 C 90 % 12.88 C
2975 24-07-2015 07:25:00 14.6 C 90 % 12.98 C
Sensor: Nr:Datum:Temp:Feuchte:Taupunkt:
Aussen-T/F 2976 24-07-2015 07:30:00 14.7 C 90 % 13.08 C
2977 24-07-2015 07:35:00 14.8 C 90 % 13.18 C
2978 24-07-2015 07:40:00 14.8 C 90 % 13.18 C
2979 24-07-2015 07:45:00 14.8 C 90 % 13.18 C
2980 24-07-2015 09:35:00 18.6 C 76 % 14.29 C
2981 24-07-2015 09:40:00 18.7 C 77 % 14.59 C
2982 24-07-2015 09:45:00 18.8 C 79 % 15.08 C
2983 24-07-2015 09:50:00 19 C 76 % 14.68 C
2984 24-07-2015 09:55:00 19.3 C 77 % 15.17 C
2985 24-07-2015 10:00:00 19.6 C 74 % 14.84 C
2986 24-07-2015 10:05:00 19.9 C 73 % 14.92 C
2987 24-07-2015 10:10:00 20.2 C 74 % 15.42 C
2988 24-07-2015 10:15:00 20.4 C 73 % 15.4 C
2989 24-07-2015 10:20:00 20.7 C 71 % 15.25 C
2990 24-07-2015 10:25:00 20.9 C 70 % 15.23 C
2991 24-07-2015 10:30:00 21.1 C 69 % 15.19 C
2992 24-07-2015 10:35:00 21.2 C 71 % 15.73 C
2993 24-07-2015 10:40:00 21.2 C 71 % 15.73 C
2994 24-07-2015 10:45:00 21.2 C 71 % 15.73 C
2995 24-07-2015 10:50:00 21.4 C 67 % 15.02 C
2996 24-07-2015 10:55:00 21.7 C 68 % 15.54 C
2997 24-07-2015 11:00:00 22.1 C 67 % 15.69 C
2998 24-07-2015 11:05:00 22.6 C 67 % 16.16 C
2999 24-07-2015 11:10:00 23 C 65 % 16.07 C
3000 24-07-2015 11:15:00 23.4 C 63 % 15.96 C
Sensor: Nr:Datum:Temp:Feuchte:Taupunkt:
Aussen-T/F 3001 24-07-2015 11:20:00 23.6 C 61 % 15.64 C
3002 24-07-2015 11:25:00 23.7 C 59 % 15.21 C
3003 24-07-2015 11:30:00 23.9 C 61 % 15.92 C
3004 24-07-2015 11:35:00 24 C 61 % 16.02 C
3005 24-07-2015 11:40:00 24.2 C 61 % 16.2 C
3006 24-07-2015 11:45:00 24.4 C 59 % 15.87 C
3007 24-07-2015 11:50:00 24.8 C 57 % 15.7 C
3008 24-07-2015 11:55:00 24.9 C 56 % 15.52 C
3009 24-07-2015 12:00:00 25.1 C 58 % 16.26 C
3010 24-07-2015 12:05:00 25.2 C 57 % 16.08 C
3011 24-07-2015 12:10:00 25.4 C 55 % 15.7 C
3012 24-07-2015 12:15:00 25.8 C 56 % 16.36 C
3013 24-07-2015 12:20:00 26 C 55 % 16.26 C
3014 24-07-2015 12:25:00 26.1 C 51 % 15.17 C
3015 24-07-2015 12:30:00 26.3 C 52 % 15.66 C
3016 24-07-2015 12:35:00 26.3 C 50 % 15.05 C
3017 24-07-2015 12:40:00 26.2 C 52 % 15.57 C
3018 24-07-2015 12:45:00 26.2 C 52 % 15.57 C
3019 24-07-2015 12:50:00 26.2 C 50 % 14.96 C
3020 24-07-2015 12:55:00 26.1 C 51 % 15.17 C
3021 24-07-2015 13:00:00 26.3 C 51 % 15.36 C
3022 24-07-2015 13:05:00 26.4 C 49 % 14.83 C
3023 24-07-2015 13:10:00 26.6 C 48 % 14.69 C
3024 24-07-2015 13:15:00 26.6 C 48 % 14.69 C
3025 24-07-2015 13:20:00 26.6 C 49 % 15.01 C
Sensor: Nr:Datum:Temp:Feuchte:Taupunkt:
Aussen-T/F 3026 24-07-2015 13:25:00 26.6 C 52 % 15.94 C
3027 24-07-2015 13:30:00 26.6 C 49 % 15.01 C
3028 24-07-2015 13:35:00 26.5 C 53 % 16.14 C
3029 24-07-2015 13:40:00 26.7 C 49 % 15.1 C
3030 24-07-2015 13:45:00 26.8 C 48 % 14.87 C
3031 24-07-2015 13:50:00 26.8 C 49 % 15.19 C
3032 24-07-2015 13:55:00 26.8 C 48 % 14.87 C
3033 24-07-2015 14:00:00 26.9 C 47 % 14.64 C
3034 24-07-2015 14:05:00 26.9 C 47 % 14.64 C
3035 24-07-2015 14:10:00 27.1 C 46 % 14.49 C
3036 24-07-2015 14:15:00 26.8 C 47 % 14.55 C
3037 24-07-2015 14:20:00 26.8 C 48 % 14.87 C
3038 24-07-2015 14:25:00 26.9 C 49 % 15.28 C
3039 24-07-2015 14:30:00 27.1 C 46 % 14.49 C
3040 24-07-2015 14:35:00 27.2 C 48 % 15.24 C
3041 24-07-2015 14:40:00 27.1 C 50 % 15.78 C
3042 24-07-2015 14:45:00 27.2 C 49 % 15.56 C
3043 24-07-2015 14:50:00 27.4 C 49 % 15.74 C
3044 24-07-2015 14:55:00 27.8 C 46 % 15.12 C
3045 24-07-2015 15:00:00 28.3 C 46 % 15.57 C
3046 24-07-2015 15:05:00 28.7 C 44 % 15.24 C
3047 24-07-2015 15:10:00 28.7 C 44 % 15.24 C
3048 24-07-2015 15:15:00 28.7 C 44 % 15.24 C
3049 24-07-2015 15:20:00 28.9 C 44 % 15.42 C
3050 24-07-2015 15:25:00 29.1 C 46 % 16.3 C
Sensor: Nr:Datum:Temp:Feuchte:Taupunkt:
Aussen-T/F 3051 24-07-2015 15:30:00 29.1 C 44 % 15.6 C
3052 24-07-2015 15:35:00 29.1 C 45 % 15.95 C
3053 24-07-2015 15:40:00 28.9 C 45 % 15.77 C
3054 24-07-2015 15:45:00 28.8 C 45 % 15.68 C
3055 24-07-2015 15:50:00 28.9 C 46 % 16.12 C
3056 24-07-2015 15:55:00 28.9 C 47 % 16.45 C
3057 24-07-2015 16:00:00 29.3 C 44 % 15.78 C
3058 24-07-2015 16:05:00 29.5 C 45 % 16.32 C
3059 24-07-2015 16:10:00 29.6 C 44 % 16.05 C
3060 24-07-2015 16:15:00 29.7 C 44 % 16.14 C
3061 24-07-2015 16:20:00 29.8 C 43 % 15.87 C
3062 24-07-2015 16:25:00 30.1 C 41 % 15.4 C
3063 24-07-2015 16:30:00 30.3 C 40 % 15.19 C
3064 24-07-2015 16:35:00 30.2 C 43 % 16.23 C
3065 24-07-2015 16:40:00 30 C 45 % 16.77 C
3066 24-07-2015 16:45:00 29.8 C 43 % 15.87 C
3067 24-07-2015 16:50:00 29.7 C 42 % 15.42 C
3068 24-07-2015 16:55:00 29.6 C 43 % 15.69 C
3069 24-07-2015 17:00:00 29.6 C 42 % 15.33 C
3070 24-07-2015 17:05:00 29.8 C 42 % 15.51 C
3071 24-07-2015 17:10:00 29.7 C 43 % 15.78 C
3072 24-07-2015 17:15:00 29.5 C 43 % 15.6 C
3073 24-07-2015 17:20:00 29.7 C 43 % 15.78 C
3074 24-07-2015 17:25:00 30.2 C 41 % 15.49 C
3075 24-07-2015 17:30:00 30.3 C 46 % 17.39 C
Sensor: Nr:Datum:Temp:Feuchte:Taupunkt:
Aussen-T/F 3076 24-07-2015 17:35:00 30.1 C 42 % 15.77 C
3077 24-07-2015 17:40:00 29.8 C 43 % 15.87 C
3078 24-07-2015 17:45:00 29.7 C 49 % 17.84 C
3079 24-07-2015 17:50:00 29.2 C 52 % 18.33 C
3080 24-07-2015 17:55:00 28.8 C 56 % 19.14 C
3081 24-07-2015 18:00:00 28.2 C 56 % 18.59 C
3082 24-07-2015 18:05:00 27.6 C 59 % 18.86 C
3083 24-07-2015 18:10:00 27.3 C 59 % 18.58 C
3084 24-07-2015 18:15:00 27.1 C 62 % 19.19 C
3085 24-07-2015 18:20:00 26.9 C 61 % 18.74 C
3086 24-07-2015 18:25:00 26.7 C 62 % 18.81 C
3087 24-07-2015 18:30:00 26.4 C 64 % 19.04 C
3088 24-07-2015 18:35:00 26.3 C 64 % 18.94 C
3089 24-07-2015 18:40:00 26.2 C 64 % 18.85 C
3090 24-07-2015 18:45:00 26.4 C 65 % 19.29 C
3091 24-07-2015 18:50:00 26.8 C 62 % 18.91 C
3092 24-07-2015 18:55:00 27.1 C 62 % 19.19 C
3093 24-07-2015 19:00:00 26.9 C 63 % 19.26 C
3094 24-07-2015 19:05:00 26.7 C 63 % 19.07 C
3095 24-07-2015 19:10:00 26.5 C 63 % 18.88 C
3096 24-07-2015 19:15:00 26.3 C 62 % 18.44 C
3097 24-07-2015 19:20:00 26.1 C 64 % 18.76 C
3098 24-07-2015 19:25:00 25.9 C 65 % 18.81 C
3099 24-07-2015 19:30:00 25.7 C 65 % 18.62 C
3100 24-07-2015 19:35:00 25.4 C 66 % 18.58 C
Sensor: Nr:Datum:Temp:Feuchte:Taupunkt:
Aussen-T/F 3101 24-07-2015 19:40:00 25.1 C 65 % 18.06 C
3102 24-07-2015 19:45:00 24.9 C 66 % 18.11 C
3103 24-07-2015 19:50:00 24.8 C 67 % 18.25 C
3104 24-07-2015 19:55:00 24.9 C 68 % 18.59 C
3105 24-07-2015 20:00:00 25 C 67 % 18.44 C
3106 24-07-2015 20:05:00 25.1 C 67 % 18.54 C
3107 24-07-2015 20:10:00 25.2 C 67 % 18.63 C
3108 24-07-2015 20:15:00 25.2 C 66 % 18.39 C
3109 24-07-2015 20:20:00 25 C 67 % 18.44 C
3110 24-07-2015 20:25:00 24.8 C 67 % 18.25 C
3111 24-07-2015 20:30:00 24.6 C 67 % 18.06 C
3112 24-07-2015 20:35:00 24.3 C 68 % 18.01 C
3113 24-07-2015 20:40:00 24.1 C 68 % 17.82 C
3114 24-07-2015 20:45:00 23.9 C 68 % 17.63 C
3115 24-07-2015 20:50:00 23.8 C 69 % 17.77 C
3116 24-07-2015 20:55:00 23.6 C 69 % 17.58 C
3117 24-07-2015 21:00:00 23.6 C 68 % 17.35 C
3118 24-07-2015 21:05:00 23.5 C 70 % 17.71 C
3119 24-07-2015 21:10:00 23.4 C 70 % 17.62 C
3120 24-07-2015 21:15:00 23.3 C 69 % 17.29 C
3121 24-07-2015 21:20:00 23.2 C 70 % 17.42 C
3122 24-07-2015 21:25:00 23 C 69 % 17.01 C
3123 24-07-2015 21:30:00 22.8 C 69 % 16.82 C
3124 24-07-2015 21:35:00 22.8 C 69 % 16.82 C
3125 24-07-2015 21:40:00 22.7 C 70 % 16.95 C
Sensor: Nr:Datum:Temp:Feuchte:Taupunkt:
Aussen-T/F 3126 24-07-2015 21:45:00 22.7 C 71 % 17.17 C
3127 24-07-2015 21:50:00 22.7 C 72 % 17.39 C
3128 24-07-2015 21:55:00 22.7 C 72 % 17.39 C
3129 24-07-2015 22:00:00 22.7 C 72 % 17.39 C
3130 24-07-2015 22:05:00 22.7 C 72 % 17.39 C
3131 24-07-2015 22:10:00 22.7 C 71 % 17.17 C
3132 24-07-2015 22:15:00 22.7 C 71 % 17.17 C
3133 24-07-2015 22:20:00 22.7 C 73 % 17.61 C
3134 24-07-2015 22:25:00 22.7 C 73 % 17.61 C
3135 24-07-2015 22:30:00 22.6 C 73 % 17.51 C
3136 24-07-2015 22:35:00 22.6 C 72 % 17.3 C
3137 24-07-2015 22:40:00 22.8 C 68 % 16.59 C
3138 24-07-2015 22:45:00 23.6 C 67 % 17.11 C
3139 24-07-2015 22:50:00 23.6 C 67 % 17.11 C
3140 24-07-2015 22:55:00 23.1 C 70 % 17.33 C
3141 24-07-2015 23:00:00 22.5 C 74 % 17.63 C
3142 24-07-2015 23:05:00 21.8 C 78 % 17.79 C
3143 24-07-2015 23:10:00 21.1 C 81 % 17.71 C
3144 24-07-2015 23:15:00 20.4 C 84 % 17.61 C
3145 24-07-2015 23:20:00 19.9 C 86 % 17.49 C
3146 24-07-2015 23:25:00 19.6 C 87 % 17.38 C
3147 24-07-2015 23:30:00 19.3 C 88 % 17.26 C
3148 24-07-2015 23:35:00 19.1 C 89 % 17.24 C
3149 24-07-2015 23:40:00 19.1 C 89 % 17.24 C
3150 24-07-2015 23:45:00 19.1 C 89 % 17.24 C
Sensor: Nr:Datum:Temp:Feuchte:Taupunkt:
Aussen-T/F 3151 24-07-2015 23:50:00 18.9 C 89 % 17.05 C
3152 24-07-2015 23:55:00 18.9 C 90 % 17.22 C
3153 25-07-2015 00:00:00 18.8 C 91 % 17.3 C
3154 25-07-2015 00:05:00 18.7 C 91 % 17.2 C
3155 25-07-2015 00:10:00 18.6 C 91 % 17.1 C
3156 25-07-2015 00:15:00 18.5 C 91 % 17 C
3157 25-07-2015 00:20:00 18.4 C 91 % 16.9 C
3158 25-07-2015 00:25:00 18.4 C 92 % 17.08 C
3159 25-07-2015 00:30:00 18.3 C 92 % 16.98 C
3160 25-07-2015 00:35:00 18.3 C 93 % 17.15 C
3161 25-07-2015 00:40:00 18.2 C 93 % 17.05 C
3162 25-07-2015 00:45:00 18.2 C 93 % 17.05 C
3163 25-07-2015 00:50:00 18.1 C 93 % 16.95 C
3164 25-07-2015 00:55:00 18 C 94 % 17.02 C
3165 25-07-2015 01:00:00 17.9 C 94 % 16.92 C
3166 25-07-2015 01:05:00 17.9 C 94 % 16.92 C
3167 25-07-2015 01:10:00 17.8 C 94 % 16.82 C
3168 25-07-2015 01:15:00 17.8 C 94 % 16.82 C
3169 25-07-2015 01:20:00 17.8 C 94 % 16.82 C
3170 25-07-2015 01:25:00 17.8 C 95 % 16.99 C
3171 25-07-2015 01:30:00 17.8 C 95 % 16.99 C
3172 25-07-2015 01:35:00 17.8 C 95 % 16.99 C
3173 25-07-2015 01:40:00 17.8 C 95 % 16.99 C
3174 25-07-2015 01:45:00 17.7 C 95 % 16.89 C
3175 25-07-2015 01:50:00 17.7 C 95 % 16.89 C
Sensor: Nr:Datum:Temp:Feuchte:Taupunkt:
Aussen-T/F 3176 25-07-2015 01:55:00 17.6 C 95 % 16.79 C
3177 25-07-2015 02:00:00 17.6 C 95 % 16.79 C
3178 25-07-2015 02:05:00 17.6 C 95 % 16.79 C
3179 25-07-2015 02:10:00 17.6 C 95 % 16.79 C
3180 25-07-2015 02:15:00 17.6 C 95 % 16.79 C
3181 25-07-2015 02:20:00 17.6 C 95 % 16.79 C
3182 25-07-2015 02:25:00 17.5 C 95 % 16.69 C
3183 25-07-2015 02:30:00 17.4 C 95 % 16.59 C
3184 25-07-2015 02:35:00 17.4 C 95 % 16.59 C
3185 25-07-2015 02:40:00 17.4 C 95 % 16.59 C
3186 25-07-2015 02:45:00 17.3 C 95 % 16.49 C
3187 25-07-2015 02:50:00 17.3 C 95 % 16.49 C
3188 25-07-2015 02:55:00 17.3 C 95 % 16.49 C
3189 25-07-2015 03:00:00 17.2 C 95 % 16.39 C
3190 25-07-2015 03:05:00 17.2 C 96 % 16.56 C
3191 25-07-2015 03:10:00 17.2 C 95 % 16.39 C
3192 25-07-2015 03:15:00 17.1 C 95 % 16.29 C
3193 25-07-2015 03:20:00 17.1 C 95 % 16.29 C
3194 25-07-2015 03:25:00 17 C 96 % 16.36 C
3195 25-07-2015 03:30:00 16.9 C 96 % 16.26 C
3196 25-07-2015 03:35:00 16.8 C 96 % 16.16 C
3197 25-07-2015 03:40:00 16.8 C 95 % 15.99 C
3198 25-07-2015 03:45:00 16.8 C 96 % 16.16 C
3199 25-07-2015 03:50:00 16.7 C 96 % 16.06 C
3200 25-07-2015 03:55:00 16.7 C 96 % 16.06 C
Sensor: Nr:Datum:Temp:Feuchte:Taupunkt:
Aussen-T/F 3201 25-07-2015 04:00:00 16.6 C 96 % 15.96 C
3202 25-07-2015 04:05:00 16.6 C 96 % 15.96 C
3203 25-07-2015 04:10:00 16.6 C 96 % 15.96 C
3204 25-07-2015 04:15:00 16.6 C 96 % 15.96 C
3205 25-07-2015 04:20:00 16.6 C 96 % 15.96 C
3206 25-07-2015 04:25:00 16.6 C 96 % 15.96 C
3207 25-07-2015 06:40:00 16.8 C 96 % 16.16 C
3208 25-07-2015 06:45:00 16.8 C 96 % 16.16 C
3209 25-07-2015 06:50:00 16.8 C 96 % 16.16 C
3210 25-07-2015 07:45:00 17.2 C 93 % 16.06 C
3211 25-07-2015 07:50:00 17.4 C 93 % 16.26 C
3212 25-07-2015 07:55:00 17.4 C 93 % 16.26 C
3213 25-07-2015 08:00:00 17.4 C 92 % 16.09 C
3214 25-07-2015 08:05:00 17.7 C 91 % 16.21 C
3215 25-07-2015 08:10:00 18 C 88 % 15.98 C
3216 25-07-2015 08:15:00 18.6 C 87 % 16.39 C
3217 25-07-2015 08:20:00 19.1 C 84 % 16.33 C
3218 25-07-2015 08:25:00 19.4 C 80 % 15.86 C
3219 25-07-2015 08:30:00 19.4 C 80 % 15.86 C
3220 25-07-2015 08:35:00 19.4 C 79 % 15.66 C
3221 25-07-2015 08:40:00 19.3 C 79 % 15.57 C
3222 25-07-2015 08:45:00 19.4 C 79 % 15.66 C
3223 25-07-2015 08:50:00 19.4 C 77 % 15.27 C
3224 25-07-2015 08:55:00 19.6 C 76 % 15.26 C
3225 25-07-2015 09:00:00 19.7 C 75 % 15.15 C
Sensor: Nr:Datum:Temp:Feuchte:Taupunkt:
Aussen-T/F 3226 25-07-2015 09:05:00 19.8 C 74 % 15.03 C
3227 25-07-2015 09:10:00 19.9 C 74 % 15.13 C
3228 25-07-2015 09:15:00 19.9 C 73 % 14.92 C
3229 25-07-2015 09:20:00 20.1 C 73 % 15.11 C
3230 25-07-2015 09:25:00 20.2 C 71 % 14.78 C
3231 25-07-2015 09:30:00 20.3 C 72 % 15.09 C
3232 25-07-2015 09:35:00 20.3 C 71 % 14.87 C
3233 25-07-2015 09:40:00 20.2 C 72 % 14.99 C
3234 25-07-2015 09:45:00 20.1 C 72 % 14.9 C
3235 25-07-2015 09:50:00 19.8 C 73 % 14.82 C
3236 25-07-2015 09:55:00 19.7 C 74 % 14.94 C
3237 25-07-2015 10:00:00 19.8 C 73 % 14.82 C
3238 25-07-2015 10:05:00 20 C 73 % 15.01 C
3239 25-07-2015 10:10:00 20.3 C 73 % 15.3 C
3240 25-07-2015 10:15:00 20.1 C 74 % 15.32 C
3241 25-07-2015 10:20:00 19.6 C 78 % 15.66 C
3242 25-07-2015 10:25:00 19.1 C 81 % 15.76 C
3243 25-07-2015 10:30:00 18.8 C 83 % 15.85 C
3244 25-07-2015 10:35:00 18.7 C 82 % 15.57 C
3245 25-07-2015 10:40:00 18.7 C 83 % 15.75 C
3246 25-07-2015 10:45:00 18.8 C 83 % 15.85 C
3247 25-07-2015 10:50:00 19.2 C 81 % 15.86 C
3248 25-07-2015 10:55:00 19.2 C 80 % 15.67 C
3249 25-07-2015 11:00:00 19.1 C 79 % 15.37 C
3250 25-07-2015 11:05:00 18.7 C 80 % 15.18 C
Sensor: Nr:Datum:Temp:Feuchte:Taupunkt:
Aussen-T/F 3251 25-07-2015 11:10:00 18.4 C 83 % 15.46 C
3252 25-07-2015 11:15:00 18 C 83 % 15.07 C
3253 25-07-2015 11:20:00 18 C 83 % 15.07 C
3254 25-07-2015 11:25:00 18 C 84 % 15.26 C
3255 25-07-2015 11:30:00 17.9 C 83 % 14.97 C
3256 25-07-2015 11:35:00 17.9 C 83 % 14.97 C
3257 25-07-2015 11:40:00 18 C 84 % 15.26 C
3258 25-07-2015 11:45:00 18.1 C 84 % 15.35 C
3259 25-07-2015 11:50:00 18.2 C 84 % 15.45 C
3260 25-07-2015 11:55:00 18.2 C 83 % 15.27 C
3261 25-07-2015 12:00:00 18.2 C 84 % 15.45 C
3262 25-07-2015 12:05:00 18.2 C 84 % 15.45 C
3263 25-07-2015 12:10:00 18.6 C 85 % 16.03 C
3264 25-07-2015 12:15:00 18.9 C 83 % 15.95 C
3265 25-07-2015 12:20:00 18.7 C 80 % 15.18 C
3266 25-07-2015 12:25:00 18.5 C 79 % 14.79 C
3267 25-07-2015 12:30:00 18.5 C 81 % 15.18 C
3268 25-07-2015 12:35:00 18.5 C 79 % 14.79 C
3269 25-07-2015 12:40:00 18.3 C 80 % 14.79 C
3270 25-07-2015 12:45:00 17.7 C 82 % 14.59 C
3271 25-07-2015 12:50:00 17.1 C 84 % 14.38 C
3272 25-07-2015 12:55:00 16.7 C 84 % 13.98 C
3273 25-07-2015 13:00:00 16.7 C 86 % 14.35 C
3274 25-07-2015 13:05:00 16.8 C 85 % 14.26 C
3275 25-07-2015 13:10:00 17 C 85 % 14.46 C
Sensor: Nr:Datum:Temp:Feuchte:Taupunkt:
Aussen-T/F 3276 25-07-2015 13:15:00 17.3 C 83 % 14.39 C
3277 25-07-2015 13:20:00 17.7 C 80 % 14.21 C
3278 25-07-2015 13:25:00 17.9 C 77 % 13.81 C
3279 25-07-2015 13:30:00 17.9 C 75 % 13.41 C
3280 25-07-2015 13:35:00 18 C 76 % 13.71 C
3281 25-07-2015 13:40:00 18.3 C 74 % 13.59 C
3282 25-07-2015 13:45:00 18.3 C 74 % 13.59 C
3283 25-07-2015 13:50:00 18.3 C 72 % 13.17 C
3284 25-07-2015 13:55:00 18.1 C 70 % 12.55 C
3285 25-07-2015 14:00:00 18.2 C 71 % 12.86 C
3286 25-07-2015 14:05:00 18.4 C 70 % 12.83 C
3287 25-07-2015 14:10:00 18.7 C 68 % 12.68 C
3288 25-07-2015 14:15:00 18.8 C 68 % 12.77 C
3289 25-07-2015 14:20:00 19.1 C 68 % 13.06 C
3290 25-07-2015 14:25:00 19.2 C 67 % 12.93 C
3291 25-07-2015 14:30:00 18.9 C 65 % 12.18 C
3292 25-07-2015 14:35:00 18.7 C 66 % 12.22 C
3293 25-07-2015 14:40:00 18.8 C 67 % 12.55 C
3294 25-07-2015 14:45:00 18.9 C 65 % 12.18 C
3295 25-07-2015 14:50:00 19.1 C 65 % 12.37 C
3296 25-07-2015 14:55:00 19.2 C 63 % 11.99 C
3297 25-07-2015 15:00:00 19 C 64 % 12.04 C
3298 25-07-2015 15:05:00 18.8 C 65 % 12.09 C
3299 25-07-2015 15:10:00 18.7 C 66 % 12.22 C
3300 25-07-2015 15:15:00 18.7 C 66 % 12.22 C
Sensor: Nr:Datum:Temp:Feuchte:Taupunkt:
Aussen-T/F 3301 25-07-2015 15:20:00 18.9 C 65 % 12.18 C
3302 25-07-2015 15:25:00 19.2 C 63 % 11.99 C
3303 25-07-2015 15:30:00 19.1 C 62 % 11.65 C
3304 25-07-2015 15:35:00 18.8 C 63 % 11.61 C
3305 25-07-2015 15:40:00 18.6 C 62 % 11.18 C
3306 25-07-2015 15:45:00 18.5 C 63 % 11.33 C
3307 25-07-2015 15:50:00 18.6 C 64 % 11.66 C
3308 25-07-2015 15:55:00 18.6 C 63 % 11.42 C
3309 25-07-2015 16:00:00 18.3 C 63 % 11.14 C
3310 25-07-2015 16:05:00 18.2 C 65 % 11.52 C
3311 25-07-2015 16:10:00 18.1 C 66 % 11.65 C
3312 25-07-2015 16:15:00 18.1 C 67 % 11.88 C
3313 25-07-2015 16:20:00 18.2 C 63 % 11.05 C
3314 25-07-2015 16:25:00 18.1 C 65 % 11.42 C
3315 25-07-2015 16:30:00 17.9 C 67 % 11.69 C
3316 25-07-2015 16:35:00 18.1 C 67 % 11.88 C
3317 25-07-2015 16:40:00 18.3 C 67 % 12.07 C
3318 25-07-2015 16:45:00 18.4 C 66 % 11.94 C
3319 25-07-2015 16:50:00 18.3 C 66 % 11.84 C
3320 25-07-2015 16:55:00 18.1 C 65 % 11.42 C
3321 25-07-2015 17:00:00 17.9 C 66 % 11.46 C
3322 25-07-2015 17:05:00 17.7 C 66 % 11.27 C
3323 25-07-2015 17:10:00 17.7 C 68 % 11.72 C
3324 25-07-2015 17:15:00 17.6 C 67 % 11.4 C
3325 25-07-2015 17:20:00 17.5 C 67 % 11.31 C
Sensor: Nr:Datum:Temp:Feuchte:Taupunkt:
Aussen-T/F 3326 25-07-2015 17:25:00 17.3 C 68 % 11.34 C
3327 25-07-2015 17:30:00 17.1 C 70 % 11.59 C
3328 25-07-2015 17:35:00 17.2 C 70 % 11.68 C
3329 25-07-2015 17:40:00 17.1 C 70 % 11.59 C
3330 25-07-2015 17:45:00 17.1 C 70 % 11.59 C
3331 25-07-2015 17:50:00 16.9 C 70 % 11.4 C
3332 25-07-2015 17:55:00 16.8 C 71 % 11.52 C
3333 25-07-2015 18:00:00 16.8 C 70 % 11.3 C
3334 25-07-2015 18:05:00 16.8 C 69 % 11.09 C
3335 25-07-2015 18:10:00 16.8 C 69 % 11.09 C
3336 25-07-2015 18:15:00 16.8 C 68 % 10.87 C
3337 25-07-2015 18:20:00 16.8 C 68 % 10.87 C
3338 25-07-2015 18:25:00 16.8 C 67 % 10.64 C
3339 25-07-2015 18:30:00 16.8 C 67 % 10.64 C
3340 25-07-2015 18:35:00 16.8 C 68 % 10.87 C
3341 25-07-2015 18:40:00 16.9 C 67 % 10.74 C
3342 25-07-2015 18:45:00 16.9 C 68 % 10.96 C
3343 25-07-2015 18:50:00 16.8 C 68 % 10.87 C
3344 25-07-2015 18:55:00 16.8 C 67 % 10.64 C
3345 25-07-2015 19:00:00 16.8 C 67 % 10.64 C
3346 25-07-2015 19:05:00 16.8 C 66 % 10.42 C
3347 25-07-2015 19:10:00 16.8 C 67 % 10.64 C
3348 25-07-2015 19:15:00 16.8 C 67 % 10.64 C
3349 25-07-2015 19:20:00 16.7 C 67 % 10.55 C
3350 25-07-2015 19:25:00 16.6 C 67 % 10.45 C
Sensor: Nr:Datum:Temp:Feuchte:Taupunkt:
Aussen-T/F 3351 25-07-2015 19:30:00 16.6 C 68 % 10.67 C
3352 25-07-2015 19:35:00 16.5 C 68 % 10.58 C
3353 25-07-2015 19:40:00 16.4 C 69 % 10.7 C
3354 25-07-2015 19:45:00 16.4 C 68 % 10.48 C
3355 25-07-2015 19:50:00 16.4 C 68 % 10.48 C
3356 25-07-2015 19:55:00 16.4 C 68 % 10.48 C
3357 25-07-2015 20:00:00 16.4 C 68 % 10.48 C
3358 25-07-2015 20:05:00 16.4 C 68 % 10.48 C
3359 25-07-2015 20:10:00 16.3 C 68 % 10.39 C
3360 25-07-2015 20:15:00 16.2 C 68 % 10.29 C
3361 25-07-2015 20:20:00 16.2 C 68 % 10.29 C
3362 25-07-2015 20:25:00 16.1 C 67 % 9.98 C
3363 25-07-2015 20:30:00 16 C 66 % 9.66 C
3364 25-07-2015 20:35:00 16 C 67 % 9.88 C
3365 25-07-2015 20:40:00 16 C 67 % 9.88 C
3366 25-07-2015 20:45:00 16.1 C 66 % 9.75 C
3367 25-07-2015 20:50:00 16 C 65 % 9.43 C
3368 25-07-2015 20:55:00 15.9 C 65 % 9.34 C
3369 25-07-2015 21:00:00 15.8 C 66 % 9.47 C
3370 25-07-2015 21:05:00 15.7 C 66 % 9.37 C
3371 25-07-2015 21:10:00 15.6 C 66 % 9.28 C
3372 25-07-2015 21:15:00 15.4 C 67 % 9.31 C
3373 25-07-2015 21:20:00 15.3 C 67 % 9.21 C
3374 25-07-2015 21:25:00 15.2 C 69 % 9.56 C
3375 25-07-2015 21:30:00 15.1 C 69 % 9.46 C
Sensor: Nr:Datum:Temp:Feuchte:Taupunkt:
Aussen-T/F 3376 25-07-2015 21:35:00 14.9 C 70 % 9.48 C
3377 25-07-2015 21:40:00 14.8 C 71 % 9.6 C
3378 25-07-2015 21:45:00 14.8 C 71 % 9.6 C
3379 25-07-2015 21:50:00 14.7 C 71 % 9.5 C
3380 25-07-2015 21:55:00 14.6 C 71 % 9.41 C
3381 25-07-2015 22:00:00 14.5 C 72 % 9.52 C
3382 25-07-2015 22:05:00 14.4 C 72 % 9.42 C
3383 25-07-2015 22:10:00 14.3 C 72 % 9.33 C
3384 25-07-2015 22:15:00 14.3 C 72 % 9.33 C
3385 25-07-2015 22:20:00 14.3 C 72 % 9.33 C
3386 25-07-2015 22:25:00 14.2 C 73 % 9.43 C
3387 25-07-2015 22:30:00 14.2 C 73 % 9.43 C
3388 25-07-2015 22:35:00 14.1 C 73 % 9.34 C
3389 25-07-2015 22:40:00 14 C 74 % 9.44 C
3390 25-07-2015 22:45:00 13.9 C 74 % 9.35 C
3391 25-07-2015 22:50:00 13.9 C 74 % 9.35 C
3392 25-07-2015 22:55:00 13.9 C 74 % 9.35 C
3393 25-07-2015 23:00:00 13.8 C 75 % 9.45 C
3394 25-07-2015 23:05:00 13.8 C 76 % 9.65 C
3395 25-07-2015 23:10:00 13.7 C 76 % 9.55 C
3396 25-07-2015 23:15:00 13.7 C 76 % 9.55 C
3397 25-07-2015 23:20:00 13.6 C 77 % 9.65 C
3398 25-07-2015 23:25:00 13.5 C 77 % 9.55 C
3399 25-07-2015 23:30:00 13.4 C 78 % 9.65 C
3400 25-07-2015 23:35:00 13.3 C 78 % 9.55 C
Sensor: Nr:Datum:Temp:Feuchte:Taupunkt:
Aussen-T/F 3401 25-07-2015 23:40:00 13.2 C 79 % 9.64 C
3402 25-07-2015 23:45:00 13.1 C 79 % 9.54 C
3403 25-07-2015 23:50:00 13.1 C 79 % 9.54 C
3404 25-07-2015 23:55:00 13 C 80 % 9.63 C
3405 26-07-2015 00:00:00 13 C 80 % 9.63 C
3406 26-07-2015 00:05:00 13 C 80 % 9.63 C
3407 26-07-2015 00:10:00 12.9 C 80 % 9.54 C
3408 26-07-2015 00:15:00 12.9 C 80 % 9.54 C
3409 26-07-2015 00:20:00 12.9 C 81 % 9.72 C
3410 26-07-2015 00:25:00 12.9 C 81 % 9.72 C
3411 26-07-2015 00:30:00 12.9 C 81 % 9.72 C
3412 26-07-2015 00:35:00 12.9 C 81 % 9.72 C
3413 26-07-2015 00:40:00 12.8 C 81 % 9.62 C
3414 26-07-2015 00:45:00 12.7 C 81 % 9.53 C
3415 26-07-2015 00:50:00 12.7 C 82 % 9.71 C
3416 26-07-2015 00:55:00 12.7 C 82 % 9.71 C
3417 26-07-2015 01:00:00 12.6 C 82 % 9.61 C
3418 26-07-2015 01:05:00 12.6 C 82 % 9.61 C
3419 26-07-2015 01:10:00 12.5 C 82 % 9.51 C
3420 26-07-2015 01:15:00 12.5 C 82 % 9.51 C
3421 26-07-2015 01:20:00 12.4 C 83 % 9.6 C
3422 26-07-2015 01:25:00 12.4 C 83 % 9.6 C
3423 26-07-2015 01:30:00 12.3 C 83 % 9.5 C
3424 26-07-2015 01:35:00 12.2 C 84 % 9.58 C
3425 26-07-2015 01:40:00 12.2 C 84 % 9.58 C
Sensor: Nr:Datum:Temp:Feuchte:Taupunkt:
Aussen-T/F 3426 26-07-2015 01:45:00 12.1 C 84 % 9.48 C
3427 26-07-2015 01:50:00 12.1 C 84 % 9.48 C
3428 26-07-2015 01:55:00 12 C 85 % 9.56 C
3429 26-07-2015 02:00:00 11.9 C 85 % 9.46 C
3430 26-07-2015 02:05:00 11.9 C 85 % 9.46 C
3431 26-07-2015 02:10:00 11.9 C 85 % 9.46 C
3432 26-07-2015 02:15:00 11.9 C 85 % 9.46 C
3433 26-07-2015 02:20:00 12 C 85 % 9.56 C
3434 26-07-2015 02:25:00 12.1 C 85 % 9.66 C
3435 26-07-2015 02:30:00 12.1 C 84 % 9.48 C
3436 26-07-2015 02:35:00 12.2 C 84 % 9.58 C
3437 26-07-2015 02:40:00 12.2 C 84 % 9.58 C
3438 26-07-2015 02:45:00 12.1 C 84 % 9.48 C
3439 26-07-2015 02:50:00 12 C 84 % 9.38 C
3440 26-07-2015 02:55:00 12 C 85 % 9.56 C
3441 26-07-2015 03:00:00 11.9 C 85 % 9.46 C
3442 26-07-2015 03:05:00 11.9 C 85 % 9.46 C
3443 26-07-2015 03:10:00 11.9 C 85 % 9.46 C
3444 26-07-2015 03:15:00 11.9 C 85 % 9.46 C
3445 26-07-2015 03:20:00 11.9 C 85 % 9.46 C
3446 26-07-2015 03:25:00 11.9 C 85 % 9.46 C
3447 26-07-2015 03:30:00 11.9 C 85 % 9.46 C
3448 26-07-2015 03:35:00 11.8 C 85 % 9.36 C
3449 26-07-2015 03:40:00 11.8 C 85 % 9.36 C
3450 26-07-2015 03:45:00 11.8 C 85 % 9.36 C
Sensor: Nr:Datum:Temp:Feuchte:Taupunkt:
Aussen-T/F 3451 26-07-2015 03:50:00 11.8 C 85 % 9.36 C
3452 26-07-2015 04:15:00 11.1 C 87 % 9.02 C
3453 26-07-2015 04:20:00 11 C 88 % 9.09 C
3454 26-07-2015 04:25:00 11 C 88 % 9.09 C
3455 26-07-2015 04:30:00 10.7 C 89 % 8.96 C
3456 26-07-2015 04:35:00 10.7 C 89 % 8.96 C
3457 26-07-2015 04:40:00 10.6 C 89 % 8.86 C
3458 26-07-2015 04:45:00 10.5 C 90 % 8.93 C
3459 26-07-2015 04:50:00 10.4 C 90 % 8.83 C
3460 26-07-2015 04:55:00 10.4 C 90 % 8.83 C
3461 26-07-2015 05:00:00 10.4 C 90 % 8.83 C
3462 26-07-2015 05:05:00 10.3 C 91 % 8.9 C
3463 26-07-2015 05:10:00 10.3 C 91 % 8.9 C
3464 26-07-2015 05:15:00 10.3 C 91 % 8.9 C
3465 26-07-2015 05:20:00 10.3 C 91 % 8.9 C
3466 26-07-2015 05:25:00 10.3 C 91 % 8.9 C
3467 26-07-2015 05:30:00 10.3 C 91 % 8.9 C
3468 26-07-2015 05:35:00 10.2 C 91 % 8.8 C
3469 26-07-2015 05:40:00 10.2 C 91 % 8.8 C
3470 26-07-2015 05:45:00 10.1 C 91 % 8.7 C
3471 26-07-2015 05:50:00 10.1 C 91 % 8.7 C
3472 26-07-2015 05:55:00 9.9 C 91 % 8.5 C
3473 26-07-2015 06:00:00 9.8 C 91 % 8.4 C
3474 26-07-2015 06:05:00 9.8 C 92 % 8.56 C
3475 26-07-2015 06:10:00 9.8 C 92 % 8.56 C
Sensor: Nr:Datum:Temp:Feuchte:Taupunkt:
Aussen-T/F 3476 26-07-2015 06:15:00 9.8 C 92 % 8.56 C
3477 26-07-2015 06:20:00 9.9 C 92 % 8.66 C
3478 26-07-2015 06:25:00 9.9 C 92 % 8.66 C
3479 26-07-2015 06:30:00 9.9 C 92 % 8.66 C
3480 26-07-2015 06:35:00 9.9 C 92 % 8.66 C
3481 26-07-2015 06:40:00 9.9 C 92 % 8.66 C
3482 26-07-2015 06:45:00 9.9 C 92 % 8.66 C
3483 26-07-2015 06:50:00 10 C 92 % 8.76 C
3484 26-07-2015 06:55:00 10 C 92 % 8.76 C
3485 26-07-2015 07:00:00 10 C 92 % 8.76 C
3486 26-07-2015 07:05:00 10.1 C 92 % 8.86 C
3487 26-07-2015 07:10:00 10.1 C 92 % 8.86 C
3488 26-07-2015 07:15:00 10.1 C 92 % 8.86 C
3489 26-07-2015 07:20:00 10.1 C 92 % 8.86 C
3490 26-07-2015 07:25:00 10 C 92 % 8.76 C
3491 26-07-2015 07:30:00 10.1 C 92 % 8.86 C
3492 26-07-2015 07:35:00 10.2 C 93 % 9.12 C
3493 26-07-2015 07:40:00 10.2 C 93 % 9.12 C
3494 26-07-2015 07:45:00 10.3 C 93 % 9.22 C
3495 26-07-2015 07:50:00 10.3 C 93 % 9.22 C
3496 26-07-2015 07:55:00 10.3 C 93 % 9.22 C
3497 26-07-2015 08:00:00 10.4 C 92 % 9.16 C
3498 26-07-2015 08:05:00 10.4 C 92 % 9.16 C
3499 26-07-2015 08:10:00 10.4 C 93 % 9.32 C
3500 26-07-2015 08:15:00 10.4 C 93 % 9.32 C
Sensor: Nr:Datum:Temp:Feuchte:Taupunkt:
Aussen-T/F 3501 26-07-2015 08:20:00 11 C 93 % 9.91 C
3502 26-07-2015 08:25:00 11.3 C 92 % 10.05 C
3503 26-07-2015 08:30:00 11.6 C 91 % 10.18 C
3504 26-07-2015 08:35:00 11.9 C 91 % 10.48 C
3505 26-07-2015 08:40:00 12.4 C 89 % 10.64 C
3506 26-07-2015 08:45:00 12.8 C 88 % 10.86 C
3507 26-07-2015 08:50:00 13.3 C 85 % 10.83 C
3508 26-07-2015 08:55:00 13.7 C 83 % 10.87 C
3509 26-07-2015 09:00:00 13.9 C 81 % 10.7 C
3510 26-07-2015 09:05:00 14.1 C 81 % 10.89 C
3511 26-07-2015 09:10:00 14.2 C 81 % 10.99 C
3512 26-07-2015 09:15:00 14.2 C 79 % 10.61 C
3513 26-07-2015 09:20:00 14.3 C 80 % 10.9 C
3514 26-07-2015 09:25:00 14.4 C 79 % 10.81 C
3515 26-07-2015 09:30:00 14.7 C 77 % 10.71 C
3516 26-07-2015 09:35:00 14.9 C 77 % 10.91 C
3517 26-07-2015 09:40:00 15.2 C 75 % 10.8 C
3518 26-07-2015 09:45:00 15.3 C 76 % 11.1 C
3519 26-07-2015 09:50:00 15.3 C 75 % 10.9 C
3520 26-07-2015 09:55:00 15.5 C 73 % 10.69 C
3521 26-07-2015 10:00:00 15.7 C 72 % 10.67 C
3522 26-07-2015 10:05:00 15.8 C 72 % 10.77 C
3523 26-07-2015 10:10:00 16.1 C 71 % 10.84 C
3524 26-07-2015 10:15:00 16.4 C 67 % 10.26 C
3525 26-07-2015 10:20:00 16.8 C 65 % 10.19 C
Sensor: Nr:Datum:Temp:Feuchte:Taupunkt:
Aussen-T/F 3526 26-07-2015 10:25:00 17.1 C 65 % 10.47 C
3527 26-07-2015 10:30:00 17.4 C 64 % 10.53 C
3528 26-07-2015 10:35:00 17.5 C 63 % 10.38 C
3529 26-07-2015 10:40:00 17.8 C 60 % 9.94 C
3530 26-07-2015 10:45:00 17.8 C 64 % 10.9 C
3531 26-07-2015 10:50:00 17.6 C 67 % 11.4 C
3532 26-07-2015 10:55:00 17.5 C 65 % 10.85 C
3533 26-07-2015 11:00:00 17.9 C 58 % 9.53 C
3534 26-07-2015 11:05:00 18.4 C 61 % 10.75 C
3535 26-07-2015 11:10:00 18.8 C 57 % 10.11 C
3536 26-07-2015 11:15:00 19.1 C 56 % 10.12 C
3537 26-07-2015 11:20:00 19.3 C 53 % 9.49 C
3538 26-07-2015 11:25:00 19.6 C 52 % 9.48 C
3539 26-07-2015 11:30:00 19.1 C 52 % 9.02 C
3540 26-07-2015 11:35:00 18.8 C 55 % 9.58 C
3541 26-07-2015 11:40:00 18.9 C 56 % 9.94 C
3542 26-07-2015 11:45:00 19.3 C 51 % 8.92 C
3543 26-07-2015 11:50:00 19.3 C 51 % 8.92 C
3544 26-07-2015 11:55:00 19.3 C 54 % 9.77 C
3545 26-07-2015 12:00:00 19.5 C 51 % 9.1 C
3546 26-07-2015 12:05:00 19.8 C 58 % 11.3 C
3547 26-07-2015 12:10:00 20.4 C 53 % 10.51 C
3548 26-07-2015 12:15:00 20.9 C 48 % 9.49 C
3549 26-07-2015 12:20:00 20.9 C 47 % 9.17 C
3550 26-07-2015 12:25:00 20.9 C 48 % 9.49 C
Sensor: Nr:Datum:Temp:Feuchte:Taupunkt:
Aussen-T/F 3551 26-07-2015 12:30:00 21.1 C 46 % 9.04 C
3552 26-07-2015 12:35:00 21.4 C 46 % 9.31 C
3553 26-07-2015 12:40:00 21.6 C 46 % 9.49 C
3554 26-07-2015 12:45:00 21.6 C 48 % 10.13 C
3555 26-07-2015 12:50:00 21.3 C 47 % 9.54 C
3556 26-07-2015 12:55:00 20.8 C 48 % 9.4 C
3557 26-07-2015 13:00:00 20.6 C 48 % 9.21 C
3558 26-07-2015 13:05:00 20.4 C 48 % 9.03 C
3559 26-07-2015 13:10:00 20.5 C 52 % 10.31 C
3560 26-07-2015 13:15:00 21 C 47 % 9.27 C
3561 26-07-2015 13:20:00 21 C 46 % 8.95 C
3562 26-07-2015 13:25:00 21.1 C 46 % 9.04 C
3563 26-07-2015 13:30:00 21.5 C 46 % 9.4 C
3564 26-07-2015 13:35:00 21.8 C 45 % 9.35 C
3565 26-07-2015 13:40:00 21.6 C 44 % 8.83 C
3566 26-07-2015 13:45:00 21.6 C 49 % 10.44 C
3567 26-07-2015 13:50:00 22.1 C 42 % 8.6 C
3568 26-07-2015 13:55:00 21.9 C 42 % 8.42 C
3569 26-07-2015 14:00:00 21.7 C 44 % 8.92 C
3570 26-07-2015 14:05:00 21.7 C 45 % 9.26 C
3571 26-07-2015 14:10:00 22.1 C 42 % 8.6 C
3572 26-07-2015 14:15:00 22.1 C 42 % 8.6 C
3573 26-07-2015 14:20:00 21.8 C 41 % 7.97 C
3574 26-07-2015 14:25:00 21.7 C 45 % 9.26 C
3575 26-07-2015 14:30:00 21.8 C 43 % 8.67 C
Sensor: Nr:Datum:Temp:Feuchte:Taupunkt:
Aussen-T/F 3576 26-07-2015 14:35:00 21.8 C 45 % 9.35 C
3577 26-07-2015 14:40:00 21.9 C 46 % 9.77 C
3578 26-07-2015 14:45:00 22.3 C 43 % 9.13 C
3579 26-07-2015 14:50:00 22.7 C 42 % 9.14 C
3580 26-07-2015 14:55:00 23.1 C 41 % 9.14 C
3581 26-07-2015 15:00:00 23.2 C 41 % 9.23 C
3582 26-07-2015 15:05:00 23.1 C 42 % 9.5 C
3583 26-07-2015 15:10:00 23.1 C 40 % 8.77 C
3584 26-07-2015 15:15:00 23 C 41 % 9.05 C
3585 26-07-2015 15:20:00 22.9 C 43 % 9.67 C
3586 26-07-2015 15:25:00 23.4 C 40 % 9.04 C
3587 26-07-2015 15:30:00 23.7 C 38 % 8.55 C
3588 26-07-2015 15:35:00 23.7 C 38 % 8.55 C
3589 26-07-2015 15:40:00 23.6 C 37 % 8.07 C
3590 26-07-2015 15:45:00 23.3 C 37 % 7.8 C
3591 26-07-2015 15:50:00 23.2 C 38 % 8.11 C
3592 26-07-2015 15:55:00 23.6 C 38 % 8.46 C
3593 26-07-2015 16:00:00 23.8 C 37 % 8.25 C
3594 26-07-2015 16:05:00 23.7 C 37 % 8.16 C
3595 26-07-2015 16:10:00 23.4 C 37 % 7.89 C
3596 26-07-2015 16:15:00 23.3 C 40 % 8.95 C
3597 26-07-2015 16:20:00 23.3 C 39 % 8.58 C
3598 26-07-2015 16:25:00 23.3 C 41 % 9.32 C
3599 26-07-2015 16:30:00 23.3 C 39 % 8.58 C
3600 26-07-2015 16:35:00 23.4 C 36 % 7.49 C
Sensor: Nr:Datum:Temp:Feuchte:Taupunkt:
Aussen-T/F 3601 26-07-2015 16:40:00 23.3 C 38 % 8.19 C
3602 26-07-2015 16:45:00 23.1 C 39 % 8.4 C
3603 26-07-2015 16:50:00 22.8 C 39 % 8.13 C
3604 26-07-2015 16:55:00 22.5 C 41 % 8.6 C
3605 26-07-2015 17:00:00 22.4 C 40 % 8.15 C
3606 26-07-2015 17:05:00 22.4 C 40 % 8.15 C
3607 26-07-2015 17:10:00 22.3 C 42 % 8.78 C
3608 26-07-2015 17:15:00 22.3 C 42 % 8.78 C
3609 26-07-2015 17:20:00 22.2 C 39 % 7.6 C
3610 26-07-2015 17:25:00 22.1 C 40 % 7.88 C
3611 26-07-2015 17:30:00 21.9 C 40 % 7.7 C
3612 26-07-2015 17:35:00 21.8 C 42 % 8.33 C
3613 26-07-2015 17:40:00 21.6 C 50 % 10.74 C
3614 26-07-2015 17:45:00 21.4 C 54 % 11.71 C
3615 26-07-2015 17:50:00 21.1 C 49 % 9.98 C
3616 26-07-2015 17:55:00 20.7 C 61 % 12.91 C
3617 26-07-2015 18:00:00 20.2 C 62 % 12.69 C
3618 26-07-2015 18:05:00 19.7 C 67 % 13.4 C
3619 26-07-2015 18:10:00 19.2 C 69 % 13.38 C
3620 26-07-2015 18:15:00 18.7 C 72 % 13.55 C
3621 26-07-2015 18:20:00 18.3 C 73 % 13.38 C
3622 26-07-2015 18:25:00 17.8 C 75 % 13.31 C
3623 26-07-2015 18:30:00 17.5 C 76 % 13.23 C
3624 26-07-2015 18:35:00 17.2 C 77 % 13.14 C
3625 26-07-2015 18:40:00 16.8 C 80 % 13.33 C
Sensor: Nr:Datum:Temp:Feuchte:Taupunkt:
Aussen-T/F 3626 26-07-2015 18:45:00 16.6 C 82 % 13.52 C
3627 26-07-2015 18:50:00 16.3 C 84 % 13.59 C
3628 26-07-2015 18:55:00 16.2 C 84 % 13.5 C
3629 26-07-2015 19:00:00 16.1 C 84 % 13.4 C
3630 26-07-2015 19:05:00 15.8 C 85 % 13.28 C
3631 26-07-2015 19:10:00 15.7 C 85 % 13.19 C
3632 26-07-2015 19:15:00 15.5 C 87 % 13.35 C
3633 26-07-2015 19:20:00 15.3 C 88 % 13.33 C
3634 26-07-2015 19:25:00 15.2 C 89 % 13.4 C
3635 26-07-2015 19:30:00 15.1 C 90 % 13.47 C
3636 26-07-2015 19:35:00 15 C 90 % 13.37 C
3637 26-07-2015 19:40:00 14.9 C 91 % 13.44 C
3638 26-07-2015 19:45:00 14.8 C 92 % 13.51 C
3639 26-07-2015 19:50:00 14.7 C 91 % 13.25 C
3640 26-07-2015 19:55:00 14.6 C 92 % 13.32 C
3641 26-07-2015 20:00:00 14.5 C 92 % 13.22 C
3642 26-07-2015 20:05:00 14.3 C 92 % 13.02 C
3643 26-07-2015 20:10:00 14.2 C 92 % 12.92 C
3644 26-07-2015 20:15:00 14.2 C 93 % 13.08 C
3645 26-07-2015 20:20:00 14.2 C 93 % 13.08 C
3646 26-07-2015 20:25:00 14.1 C 93 % 12.99 C
3647 26-07-2015 20:30:00 14.1 C 93 % 12.99 C
3648 26-07-2015 22:45:00 13.6 C 95 % 12.81 C
3649 26-07-2015 22:50:00 13.5 C 95 % 12.72 C
3650 26-07-2015 22:55:00 13.5 C 95 % 12.72 C
Sensor: Nr:Datum:Temp:Feuchte:Taupunkt:
Aussen-T/F 3651 26-07-2015 23:00:00 13.5 C 95 % 12.72 C
3652 26-07-2015 23:05:00 13.4 C 95 % 12.62 C
3653 26-07-2015 23:10:00 13.4 C 96 % 12.78 C
3654 26-07-2015 23:15:00 13.4 C 96 % 12.78 C
3655 26-07-2015 23:20:00 13.3 C 96 % 12.68 C
3656 26-07-2015 23:25:00 13.3 C 96 % 12.68 C
3657 26-07-2015 23:30:00 13.3 C 96 % 12.68 C
3658 26-07-2015 23:35:00 13.3 C 96 % 12.68 C
3659 27-07-2015 00:05:00 13.3 C 100 % 13.3 C
3660 27-07-2015 00:10:00 13.3 C 96 % 12.68 C
3661 27-07-2015 00:15:00 13.3 C 96 % 12.68 C
3662 27-07-2015 00:20:00 13.3 C 96 % 12.68 C
3663 27-07-2015 00:25:00 13.3 C 96 % 12.68 C
3664 27-07-2015 00:30:00 13.3 C 96 % 12.68 C
3665 27-07-2015 00:35:00 13.3 C 96 % 12.68 C
3666 27-07-2015 00:40:00 13.3 C 96 % 12.68 C
3667 27-07-2015 00:45:00 13.2 C 96 % 12.58 C
3668 27-07-2015 00:50:00 13.2 C 96 % 12.58 C
3669 27-07-2015 00:55:00 13.2 C 96 % 12.58 C
3670 27-07-2015 01:50:00 12.8 C 100 % 12.8 C
3671 27-07-2015 01:55:00 12.8 C 96 % 12.18 C
3672 27-07-2015 02:00:00 12.8 C 96 % 12.18 C
3673 27-07-2015 02:05:00 12.8 C 96 % 12.18 C
3674 27-07-2015 02:10:00 12.8 C 96 % 12.18 C
3675 27-07-2015 02:15:00 12.8 C 96 % 12.18 C
Sensor: Nr:Datum:Temp:Feuchte:Taupunkt:
Aussen-T/F 3676 27-07-2015 02:20:00 12.7 C 96 % 12.08 C
3677 27-07-2015 02:25:00 12.7 C 96 % 12.08 C
3678 27-07-2015 02:30:00 12.7 C 96 % 12.08 C
3679 27-07-2015 02:35:00 12.8 C 96 % 12.18 C
3680 27-07-2015 02:40:00 12.8 C 96 % 12.18 C
3681 27-07-2015 02:45:00 12.8 C 96 % 12.18 C
3682 27-07-2015 02:50:00 12.8 C 96 % 12.18 C
3683 27-07-2015 02:55:00 12.7 C 96 % 12.08 C
3684 27-07-2015 03:00:00 12.7 C 96 % 12.08 C
3685 27-07-2015 04:05:00 13.7 C 96 % 13.07 C
3686 27-07-2015 04:10:00 13.8 C 96 % 13.17 C
3687 27-07-2015 04:15:00 13.8 C 96 % 13.17 C
3688 27-07-2015 04:20:00 13.8 C 96 % 13.17 C
3689 27-07-2015 04:25:00 13.9 C 96 % 13.27 C
3690 27-07-2015 04:30:00 13.9 C 96 % 13.27 C
3691 27-07-2015 04:35:00 13.9 C 96 % 13.27 C
3692 27-07-2015 04:40:00 14 C 96 % 13.37 C
3693 27-07-2015 04:45:00 14.1 C 96 % 13.47 C
3694 27-07-2015 04:50:00 14.1 C 96 % 13.47 C
3695 27-07-2015 04:55:00 14.2 C 96 % 13.57 C
3696 27-07-2015 05:00:00 14.2 C 96 % 13.57 C
3697 27-07-2015 05:05:00 14.2 C 96 % 13.57 C
3698 27-07-2015 05:10:00 14.2 C 96 % 13.57 C
3699 27-07-2015 05:15:00 14.2 C 96 % 13.57 C
3700 27-07-2015 05:20:00 14.3 C 96 % 13.67 C
Sensor: Nr:Datum:Temp:Feuchte:Taupunkt:
Aussen-T/F 3701 27-07-2015 05:25:00 14.2 C 96 % 13.57 C
3702 27-07-2015 05:30:00 14.2 C 96 % 13.57 C
3703 27-07-2015 05:35:00 14.2 C 96 % 13.57 C
3704 27-07-2015 05:40:00 14.2 C 96 % 13.57 C
3705 27-07-2015 05:45:00 14.2 C 96 % 13.57 C
3706 27-07-2015 05:50:00 14.3 C 96 % 13.67 C
3707 27-07-2015 05:55:00 14.3 C 96 % 13.67 C
3708 27-07-2015 06:00:00 14.3 C 96 % 13.67 C
3709 27-07-2015 06:05:00 14.4 C 96 % 13.77 C
3710 27-07-2015 06:10:00 14.5 C 97 % 14.03 C
3711 27-07-2015 06:15:00 14.6 C 97 % 14.13 C
3712 27-07-2015 06:20:00 14.8 C 97 % 14.33 C
3713 27-07-2015 06:25:00 14.8 C 97 % 14.33 C
3714 27-07-2015 06:30:00 14.9 C 97 % 14.43 C
3715 27-07-2015 06:35:00 14.9 C 96 % 14.27 C
3716 27-07-2015 06:40:00 15 C 96 % 14.37 C
3717 27-07-2015 06:45:00 15.1 C 96 % 14.47 C
3718 27-07-2015 06:50:00 15.1 C 96 % 14.47 C
3719 27-07-2015 06:55:00 15.2 C 96 % 14.57 C
3720 27-07-2015 07:00:00 15.2 C 96 % 14.57 C
3721 27-07-2015 07:05:00 15.2 C 96 % 14.57 C
3722 27-07-2015 07:10:00 15.3 C 96 % 14.67 C
3723 27-07-2015 07:15:00 15.3 C 96 % 14.67 C
3724 27-07-2015 07:20:00 15.4 C 96 % 14.77 C
3725 27-07-2015 07:25:00 15.4 C 96 % 14.77 C
Sensor: Nr:Datum:Temp:Feuchte:Taupunkt:
Aussen-T/F 3726 27-07-2015 07:30:00 15.6 C 95 % 14.8 C
3727 27-07-2015 07:35:00 15.7 C 95 % 14.9 C
3728 27-07-2015 07:40:00 15.8 C 95 % 15 C
3729 27-07-2015 07:45:00 15.9 C 95 % 15.1 C
3730 27-07-2015 07:50:00 15.9 C 95 % 15.1 C
3731 27-07-2015 07:55:00 15.9 C 95 % 15.1 C
3732 27-07-2015 08:00:00 15.9 C 95 % 15.1 C
3733 27-07-2015 08:05:00 15.9 C 95 % 15.1 C
3734 27-07-2015 08:10:00 15.8 C 95 % 15 C
3735 27-07-2015 08:15:00 15.8 C 95 % 15 C
3736 27-07-2015 08:20:00 15.8 C 95 % 15 C
3737 27-07-2015 08:25:00 15.8 C 95 % 15 C
3738 27-07-2015 08:30:00 15.9 C 95 % 15.1 C
3739 27-07-2015 08:35:00 15.9 C 95 % 15.1 C
3740 27-07-2015 08:40:00 15.9 C 95 % 15.1 C
3741 27-07-2015 08:45:00 16.1 C 95 % 15.3 C
3742 27-07-2015 08:50:00 16.1 C 95 % 15.3 C
3743 27-07-2015 08:55:00 16.2 C 95 % 15.4 C
3744 27-07-2015 09:00:00 16.2 C 95 % 15.4 C
3745 27-07-2015 09:05:00 16.2 C 94 % 15.23 C
3746 27-07-2015 09:10:00 16.2 C 94 % 15.23 C
3747 27-07-2015 09:15:00 16.1 C 93 % 14.97 C
3748 27-07-2015 09:20:00 16.1 C 93 % 14.97 C
3749 27-07-2015 09:25:00 16.1 C 94 % 15.13 C
3750 27-07-2015 09:30:00 16.1 C 94 % 15.13 C
Sensor: Nr:Datum:Temp:Feuchte:Taupunkt:
Aussen-T/F 3751 27-07-2015 09:35:00 16 C 93 % 14.87 C
3752 27-07-2015 09:40:00 16.1 C 93 % 14.97 C
3753 27-07-2015 09:45:00 16.3 C 94 % 15.33 C
3754 27-07-2015 09:50:00 16.4 C 92 % 15.1 C
3755 27-07-2015 09:55:00 16.3 C 90 % 14.66 C
3756 27-07-2015 10:00:00 16.5 C 91 % 15.03 C
3757 27-07-2015 10:05:00 16.7 C 90 % 15.05 C
3758 27-07-2015 10:10:00 16.8 C 90 % 15.15 C
3759 27-07-2015 10:15:00 16.9 C 88 % 14.9 C
3760 27-07-2015 10:20:00 17.1 C 88 % 15.1 C
3761 27-07-2015 10:25:00 17.3 C 86 % 14.94 C
3762 27-07-2015 10:30:00 17.3 C 86 % 14.94 C
3763 27-07-2015 10:35:00 17.3 C 86 % 14.94 C
3764 27-07-2015 10:40:00 17.3 C 85 % 14.76 C
3765 27-07-2015 10:45:00 17.3 C 85 % 14.76 C
3766 27-07-2015 10:50:00 17.4 C 86 % 15.03 C
3767 27-07-2015 10:55:00 17.5 C 84 % 14.77 C
3768 27-07-2015 11:00:00 17.7 C 84 % 14.96 C
3769 27-07-2015 11:05:00 17.9 C 83 % 14.97 C
3770 27-07-2015 11:10:00 18 C 81 % 14.69 C
3771 27-07-2015 11:15:00 18.2 C 81 % 14.89 C
3772 27-07-2015 11:20:00 18.3 C 79 % 14.6 C
3773 27-07-2015 11:25:00 18.4 C 81 % 15.08 C
3774 27-07-2015 11:30:00 18.6 C 79 % 14.89 C
3775 27-07-2015 11:35:00 18.8 C 79 % 15.08 C
Sensor: Nr:Datum:Temp:Feuchte:Taupunkt:
Aussen-T/F 3776 27-07-2015 11:40:00 18.9 C 78 % 14.98 C
3777 27-07-2015 11:45:00 18.9 C 76 % 14.58 C
3778 27-07-2015 11:50:00 18.8 C 77 % 14.68 C
3779 27-07-2015 11:55:00 18.4 C 79 % 14.69 C
3780 27-07-2015 12:00:00 18.2 C 80 % 14.69 C
3781 27-07-2015 12:05:00 18.2 C 79 % 14.5 C
3782 27-07-2015 12:10:00 17.9 C 79 % 14.21 C
3783 27-07-2015 12:15:00 17.7 C 83 % 14.78 C
3784 27-07-2015 12:20:00 17.4 C 83 % 14.48 C
3785 27-07-2015 12:25:00 17.6 C 84 % 14.87 C
3786 27-07-2015 12:30:00 17.9 C 83 % 14.97 C
3787 27-07-2015 12:35:00 18.2 C 81 % 14.89 C
3788 27-07-2015 12:40:00 18.3 C 79 % 14.6 C
3789 27-07-2015 12:45:00 18.3 C 79 % 14.6 C
3790 27-07-2015 12:50:00 18.4 C 79 % 14.69 C
3791 27-07-2015 12:55:00 18.4 C 80 % 14.89 C
3792 27-07-2015 13:00:00 18.7 C 79 % 14.99 C
3793 27-07-2015 13:05:00 18.9 C 78 % 14.98 C
3794 27-07-2015 13:10:00 19.1 C 78 % 15.18 C
3795 27-07-2015 13:15:00 19.2 C 77 % 15.07 C
3796 27-07-2015 13:20:00 19.3 C 77 % 15.17 C
3797 27-07-2015 13:25:00 19.1 C 76 % 14.77 C
3798 27-07-2015 13:30:00 19.2 C 75 % 14.66 C
3799 27-07-2015 13:35:00 19.2 C 75 % 14.66 C
3800 27-07-2015 13:40:00 19.2 C 74 % 14.46 C
Sensor: Nr:Datum:Temp:Feuchte:Taupunkt:
Aussen-T/F 3801 27-07-2015 13:45:00 19.3 C 75 % 14.76 C
3802 27-07-2015 13:50:00 19.3 C 75 % 14.76 C
3803 27-07-2015 13:55:00 19.3 C 75 % 14.76 C
3804 27-07-2015 14:00:00 19.1 C 75 % 14.57 C
3805 27-07-2015 14:05:00 18.8 C 78 % 14.88 C
3806 27-07-2015 14:10:00 18.3 C 81 % 14.98 C
3807 27-07-2015 14:15:00 17.9 C 81 % 14.59 C
3808 27-07-2015 14:20:00 18 C 82 % 14.88 C
3809 27-07-2015 14:25:00 18.2 C 81 % 14.89 C
3810 27-07-2015 14:30:00 18.3 C 80 % 14.79 C
3811 27-07-2015 14:35:00 18.7 C 78 % 14.79 C
3812 27-07-2015 14:40:00 18.8 C 78 % 14.88 C
3813 27-07-2015 14:45:00 19.1 C 76 % 14.77 C
3814 27-07-2015 14:50:00 19.3 C 77 % 15.17 C
3815 27-07-2015 14:55:00 19.7 C 74 % 14.94 C
3816 27-07-2015 15:00:00 20.1 C 71 % 14.68 C
3817 27-07-2015 15:05:00 20.3 C 72 % 15.09 C
3818 27-07-2015 15:10:00 20.4 C 70 % 14.75 C
3819 27-07-2015 15:15:00 20.4 C 70 % 14.75 C
3820 27-07-2015 15:20:00 20.4 C 68 % 14.3 C
3821 27-07-2015 15:25:00 20.3 C 68 % 14.2 C
3822 27-07-2015 15:30:00 20.2 C 68 % 14.11 C
3823 27-07-2015 15:35:00 19.9 C 72 % 14.7 C
3824 27-07-2015 15:40:00 20 C 72 % 14.8 C
3825 27-07-2015 15:45:00 20.2 C 71 % 14.78 C
Sensor: Nr:Datum:Temp:Feuchte:Taupunkt:
Aussen-T/F 3826 27-07-2015 15:50:00 20.1 C 71 % 14.68 C
3827 27-07-2015 15:55:00 19.9 C 70 % 14.27 C
3828 27-07-2015 16:00:00 19.9 C 71 % 14.49 C
3829 27-07-2015 16:05:00 19.9 C 71 % 14.49 C
3830 27-07-2015 16:10:00 20.1 C 71 % 14.68 C
3831 27-07-2015 16:15:00 20.7 C 70 % 15.03 C
3832 27-07-2015 16:20:00 21.1 C 68 % 14.97 C
3833 27-07-2015 16:25:00 20.9 C 69 % 15 C
3834 27-07-2015 16:30:00 20.8 C 68 % 14.68 C
3835 27-07-2015 16:35:00 20.6 C 69 % 14.71 C
3836 27-07-2015 16:40:00 20.7 C 69 % 14.81 C
3837 27-07-2015 16:45:00 21 C 68 % 14.87 C
3838 27-07-2015 16:50:00 21 C 69 % 15.1 C
3839 27-07-2015 16:55:00 20.9 C 68 % 14.77 C
3840 27-07-2015 17:00:00 20.5 C 69 % 14.62 C
3841 27-07-2015 17:05:00 20.1 C 71 % 14.68 C
3842 27-07-2015 17:10:00 19.9 C 72 % 14.7 C
3843 27-07-2015 17:15:00 20.2 C 72 % 14.99 C
3844 27-07-2015 17:20:00 20.8 C 72 % 15.57 C
3845 27-07-2015 17:25:00 21.3 C 69 % 15.38 C
3846 27-07-2015 17:30:00 21.2 C 69 % 15.29 C
3847 27-07-2015 17:35:00 20.8 C 69 % 14.91 C
3848 27-07-2015 17:40:00 20.4 C 69 % 14.52 C
3849 27-07-2015 17:45:00 20.4 C 69 % 14.52 C
3850 27-07-2015 17:50:00 20.3 C 70 % 14.65 C
Sensor: Nr:Datum:Temp:Feuchte:Taupunkt:
Aussen-T/F 3851 27-07-2015 17:55:00 20.2 C 72 % 14.99 C
3852 27-07-2015 18:00:00 20 C 75 % 15.43 C
3853 27-07-2015 18:05:00 19.8 C 76 % 15.45 C
3854 27-07-2015 18:10:00 19.7 C 78 % 15.76 C
3855 27-07-2015 18:15:00 20 C 75 % 15.43 C
3856 27-07-2015 18:20:00 20.2 C 74 % 15.42 C
3857 27-07-2015 18:25:00 20.3 C 74 % 15.51 C
3858 27-07-2015 18:30:00 20.4 C 74 % 15.61 C
3859 27-07-2015 18:35:00 20.7 C 70 % 15.03 C
3860 27-07-2015 18:40:00 21.4 C 67 % 15.02 C
3861 27-07-2015 18:45:00 22.1 C 65 % 15.21 C
3862 27-07-2015 18:50:00 22.3 C 61 % 14.42 C
3863 27-07-2015 18:55:00 22.2 C 61 % 14.32 C
3864 27-07-2015 19:00:00 22.1 C 62 % 14.48 C
3865 27-07-2015 19:05:00 22.2 C 62 % 14.58 C
3866 27-07-2015 19:10:00 21.6 C 62 % 14.01 C
3867 27-07-2015 19:15:00 21 C 64 % 13.93 C
3868 27-07-2015 19:20:00 20.6 C 65 % 13.79 C
3869 27-07-2015 19:25:00 20.4 C 67 % 14.07 C
3870 27-07-2015 19:30:00 20.4 C 67 % 14.07 C
3871 27-07-2015 19:35:00 20.4 C 66 % 13.84 C
3872 27-07-2015 19:40:00 20.5 C 66 % 13.93 C
3873 27-07-2015 19:45:00 20.5 C 66 % 13.93 C
3874 27-07-2015 19:50:00 20.6 C 66 % 14.03 C
3875 27-07-2015 19:55:00 20.5 C 66 % 13.93 C
Sensor: Nr:Datum:Temp:Feuchte:Taupunkt:
Aussen-T/F 3876 27-07-2015 20:00:00 20.4 C 66 % 13.84 C
3877 27-07-2015 20:05:00 20